Augustine, John (2009): Radiosonde measurements from station Boulder, SURFRAD (2009-06) [dataset]. NOAA - Air Resources Laboratory, Boulder, PANGAEA, https://doi.org/10.1594/PANGAEA.724345
Always quote citation above when using data! You can download the citation in several formats below.
Published: 2009-07-07 • DOI registered: 2009-08-04
Other version:
Augustine, John (2009): BSRN Station-to-archive file for station Boulder (2009-06) [dataset]. ftp://ftp.bsrn.awi.de/bos/bos0609.dat.gz
Project(s):
Coverage:
Latitude: 40.125000 * Longitude: -105.237000
Date/Time Start: 2009-06-01T11:01:00 * Date/Time End: 2009-06-30T11:55:00
Minimum ALTITUDE: 1611 m * Maximum ALTITUDE: 16670 m
Event(s):
BOS (Boulder) * Latitude: 40.125000 * Longitude: -105.237000 * Date/Time: 1995-07-01T00:00:00 * Elevation: 1689.0 m * Location: Colorado, United States of America * Method/Device: Monitoring station (MONS) * Comment: BSRN station no: 34; Surface type: grass; Topography type: hilly, rural; Station scientist: John A. Augustine (john.a.augustine@noaa.gov)
Comment:
Start location: Denver, CO; Distance from radiation site: 40 km; If launch time is exactly 00Z or 12Z, the actual launch time is likely unknown
Parameter(s):
| # | Name | Short Name | Unit | Principal Investigator | Method/Device | Comment |
|---|---|---|---|---|---|---|
| 1 | DATE/TIME | Date/Time | Geocode | |||
| 2 | ALTITUDE | Altitude | m | Geocode | ||
| 3 | Pressure, at given altitude | PPPP | hPa | Augustine, John | Radiosonde, Vaisala, RS80-57H | |
| 4 | Temperature, air | TTT | °C | Augustine, John | Radiosonde, Vaisala, RS80-57H | |
| 5 | Dew/frost point | TdTdTd | °C | Augustine, John | Radiosonde, Vaisala, RS80-57H | |
| 6 | Wind direction | dd | deg | Augustine, John | Radiosonde, Vaisala, RS80-57H | |
| 7 | Wind speed | ff | m/s | Augustine, John | Radiosonde, Vaisala, RS80-57H |
License:
Size:
8209 data points
Data
| 1 Date/Time | 2 Altitude [m] | 3 PPPP [hPa] | 4 TTT [°C] | 5 TdTdTd [°C] | 6 dd [deg] | 7 ff [m/s] |
|---|---|---|---|---|---|---|
| 2009-06-01T11:01 | 1611 | 837 | 13.8 | 11.5 | 0 | 0 |
| 2009-06-01T11:01 | 1722 | 826 | 13.8 | 11.3 | ||
| 2009-06-01T11:02 | 2062 | 793 | 11.6 | 8.4 | ||
| 2009-06-01T11:03 | 2221 | 778 | 11.6 | 6.9 | ||
| 2009-06-01T11:04 | 2547 | 748 | 9.2 | 6.2 | ||
| 2009-06-01T11:06 | 3022 | 706 | 7.4 | 2.7 | ||
| 2009-06-01T11:06 | 3104 | 700 | 6.6 | 2.0 | 350 | 2 |
| 2009-06-01T11:08 | 3617 | 657 | 1.8 | 0.5 | ||
| 2009-06-01T11:10 | 4405 | 595 | -3.9 | -3.9 | ||
| 2009-06-01T11:12 | 5020 | 550 | -7.1 | -7.1 | ||
| 2009-06-01T11:14 | 5528 | 515 | -10.3 | -11.8 | ||
| 2009-06-01T11:15 | 5770 | 500 | -12.1 | -13.6 | 105 | 0 |
| 2009-06-01T11:15 | 6033 | 483 | -14.3 | -14.9 | ||
| 2009-06-01T11:19 | 6956 | 427 | -19.1 | -20.5 | ||
| 2009-06-01T11:20 | 7440 | 400 | -22.9 | -25.2 | 85 | 2 |
| 2009-06-01T11:21 | 7756 | 383 | -25.3 | -27.4 | ||
| 2009-06-01T11:22 | 8044 | 368 | -27.9 | -30.3 | ||
| 2009-06-01T11:24 | 8708 | 335 | -34.3 | -41.3 | ||
| 2009-06-01T11:25 | 8919 | 325 | -36.1 | -47.1 | ||
| 2009-06-01T11:27 | 9470 | 300 | -40.5 | -50.5 | 175 | 6 |
| 2009-06-01T11:31 | 10690 | 250 | -51.1 | 145 | 10 | |
| 2009-06-01T11:31 | 10873 | 243 | -52.9 | |||
| 2009-06-01T11:35 | 12100 | 200 | -62.7 | 165 | 16 | |
| 2009-06-01T11:36 | 12224 | 196 | -62.7 | |||
| 2009-06-01T11:36 | 12287 | 194 | -60.9 | |||
| 2009-06-01T11:37 | 12449 | 189 | -59.9 | |||
| 2009-06-01T11:38 | 12786 | 179 | -61.7 | |||
| 2009-06-01T11:39 | 13251 | 166 | -62.1 | |||
| 2009-06-01T11:40 | 13480 | 160 | -58.5 | |||
| 2009-06-01T11:41 | 13801 | 152 | -59.3 | |||
| 2009-06-01T11:41 | 13890 | 150 | -58.7 | 260 | 6 | |
| 2009-06-01T11:42 | 13974 | 148 | -58.5 | |||
| 2009-06-01T11:43 | 14321 | 140 | -60.5 | |||
| 2009-06-01T11:43 | 14502 | 136 | -59.1 | |||
| 2009-06-01T11:44 | 14689 | 132 | -59.1 | |||
| 2009-06-01T11:45 | 14979 | 126 | -60.9 | |||
| 2009-06-01T11:45 | 15180 | 122 | -59.7 | |||
| 2009-06-01T11:46 | 15440 | 117 | -60.7 | |||
| 2009-06-01T11:47 | 15547 | 115 | -59.9 | |||
| 2009-06-01T11:48 | 15938 | 108 | -59.7 | |||
| 2009-06-01T11:48 | 16055 | 106 | -58.7 | |||
| 2009-06-01T11:50 | 16420 | 100 | -59.7 | 330 | 5 | |
| 2009-06-01T23:01 | 1611 | 835 | 17.8 | 11.8 | 100 | 2 |
| 2009-06-01T23:01 | 1682 | 828 | 17.6 | 8.6 | ||
| 2009-06-01T23:02 | 1785 | 818 | 17.4 | 7.4 | ||
| 2009-06-01T23:06 | 3096 | 700 | 6.0 | 2.8 | 5 | 5 |
| 2009-06-01T23:08 | 3707 | 649 | 0.8 | 0.0 | ||
| 2009-06-01T23:11 | 4529 | 585 | -4.5 | -5.3 | ||
| 2009-06-01T23:13 | 5283 | 531 | -8.3 | -9.2 | ||
| 2009-06-01T23:14 | 5639 | 507 | -11.1 | -12.9 | ||
| 2009-06-01T23:15 | 5760 | 500 | -12.5 | -15.9 | 180 | 3 |
| 2009-06-01T23:15 | 5867 | 493 | -13.5 | -19.5 | ||
| 2009-06-01T23:17 | 6570 | 449 | -18.1 | -29.1 | ||
| 2009-06-01T23:18 | 6704 | 441 | -18.7 | -27.7 | ||
| 2009-06-01T23:18 | 6806 | 435 | -19.5 | -31.5 | ||
| 2009-06-01T23:19 | 7030 | 422 | -20.5 | -29.5 | ||
| 2009-06-01T23:19 | 7171 | 414 | -21.5 | -32.5 | ||
| 2009-06-01T23:20 | 7332 | 405 | -22.5 | -32.5 | ||
| 2009-06-01T23:20 | 7430 | 400 | -23.3 | -33.3 | 55 | 4 |
| 2009-06-01T23:21 | 7651 | 388 | -25.3 | -35.3 | ||
| 2009-06-01T23:21 | 7782 | 381 | -26.3 | -35.3 | ||
| 2009-06-01T23:22 | 7896 | 375 | -27.3 | -33.3 | ||
| 2009-06-01T23:22 | 8050 | 367 | -28.5 | -34.5 | ||
| 2009-06-01T23:27 | 9460 | 300 | -39.9 | -46.9 | 65 | 4 |
| 2009-06-01T23:31 | 10680 | 250 | -50.7 | 190 | 6 | |
| 2009-06-01T23:32 | 10917 | 241 | -52.9 | |||
| 2009-06-01T23:35 | 12090 | 200 | -60.9 | 100 | 7 | |
| 2009-06-01T23:36 | 12152 | 198 | -59.9 | |||
| 2009-06-01T23:36 | 12311 | 193 | -60.7 | |||
| 2009-06-01T23:37 | 12608 | 184 | -59.1 | |||
| 2009-06-01T23:38 | 12850 | 177 | -59.5 | |||
| 2009-06-01T23:38 | 12921 | 175 | -58.5 | |||
| 2009-06-01T23:39 | 13253 | 166 | -57.1 | |||
| 2009-06-01T23:40 | 13446 | 161 | -58.1 | |||
| 2009-06-01T23:40 | 13645 | 156 | -56.9 | |||
| 2009-06-01T23:41 | 13900 | 150 | -57.5 | 235 | 11 | |
| 2009-06-01T23:42 | 14158 | 144 | -56.7 | |||
| 2009-06-01T23:43 | 14291 | 141 | -57.7 | |||
| 2009-06-01T23:44 | 14849 | 129 | -58.9 | |||
| 2009-06-01T23:46 | 15199 | 122 | -58.1 | |||
| 2009-06-01T23:47 | 15568 | 115 | -60.3 | |||
| 2009-06-01T23:47 | 15788 | 111 | -59.5 | |||
| 2009-06-01T23:48 | 15844 | 110 | -59.7 | |||
| 2009-06-01T23:50 | 16440 | 100 | -62.7 | 260 | 5 | |
| 2009-06-02T11:06 | 1611 | 840 | 10.4 | 9.8 | 40 | 5 |
| 2009-06-02T11:06 | 1641 | 837 | 10.4 | 9.9 | ||
| 2009-06-02T11:08 | 2295 | 773 | 6.2 | 6.2 | ||
| 2009-06-02T11:09 | 2650 | 740 | 4.4 | |||
| 2009-06-02T11:11 | 3107 | 700 | 2.6 | 20 | 11 | |
| 2009-06-02T11:11 | 3258 | 687 | 1.8 | 1.8 | ||
| 2009-06-02T11:17 | 5031 | 549 | -6.7 | -6.7 | ||
| 2009-06-02T11:20 | 5770 | 500 | -11.3 | -11.8 | 25 | 7 |
| 2009-06-02T11:21 | 6192 | 473 | -14.1 | -15.1 | ||
| 2009-06-02T11:25 | 7440 | 400 | -23.1 | -25.7 | 355 | 8 |
| 2009-06-02T11:29 | 8522 | 344 | -31.9 | -35.9 | ||
| 2009-06-02T11:32 | 9480 | 300 | -40.1 | -46.1 | 55 | 1 |
| 2009-06-02T11:35 | 10536 | 256 | -50.3 | -57.3 | ||
| 2009-06-02T11:36 | 10690 | 250 | -51.5 | 95 | 8 | |
| 2009-06-02T11:39 | 11620 | 216 | -58.9 | |||
| 2009-06-02T11:40 | 12100 | 200 | -61.1 | 150 | 14 | |
| 2009-06-02T11:43 | 12787 | 179 | -60.9 | |||
| 2009-06-02T11:44 | 13107 | 170 | -60.7 | |||
| 2009-06-02T11:44 | 13255 | 166 | -59.1 | |||
| 2009-06-02T11:46 | 13683 | 155 | -59.3 | |||
| 2009-06-02T11:46 | 13806 | 152 | -57.5 | |||
| 2009-06-02T11:46 | 13890 | 150 | -57.7 | 245 | 11 | |
| 2009-06-02T11:49 | 14597 | 134 | -59.1 | |||
| 2009-06-02T11:49 | 14787 | 130 | -57.1 | |||
| 2009-06-02T11:50 | 15136 | 123 | -57.1 | |||
| 2009-06-02T11:53 | 15949 | 108 | -60.9 | |||
| 2009-06-02T11:53 | 16065 | 106 | -60.1 | |||
| 2009-06-02T11:55 | 16440 | 100 | -61.1 | 345 | 2 | |
| 2009-06-02T23:02 | 1611 | 846 | 8.4 | 7.0 | 0 | 0 |
| 2009-06-02T23:02 | 1640 | 843 | 7.6 | 6.3 | ||
| 2009-06-02T23:03 | 1886 | 818 | 5.4 | 5.1 | ||
| 2009-06-02T23:06 | 2694 | 740 | 0.8 | 0.8 | ||
| 2009-06-02T23:07 | 3149 | 700 | -1.1 | -1.4 | 325 | 4 |
| 2009-06-02T23:10 | 3932 | 634 | -3.9 | -5.9 | ||
| 2009-06-02T23:10 | 4197 | 613 | -4.1 | -7.4 | ||
| 2009-06-02T23:12 | 4726 | 573 | -6.7 | -10.2 | ||
| 2009-06-02T23:15 | 5504 | 518 | -10.7 | -15.7 | ||
| 2009-06-02T23:16 | 5790 | 500 | -12.7 | -18.7 | 305 | 7 |
| 2009-06-02T23:17 | 6131 | 478 | -14.7 | -20.7 | ||
| 2009-06-02T23:18 | 6452 | 458 | -16.9 | -21.8 | ||
| 2009-06-02T23:21 | 7450 | 400 | -23.3 | -31.3 | 295 | 7 |
| 2009-06-02T23:22 | 7653 | 389 | -24.5 | -33.5 | ||
| 2009-06-02T23:23 | 7956 | 373 | -26.9 | -36.9 | ||
| 2009-06-02T23:25 | 8636 | 339 | -32.1 | -51.1 | ||
| 2009-06-02T23:28 | 9490 | 300 | -39.7 | -54.7 | 255 | 7 |
| 2009-06-02T23:32 | 10710 | 250 | -50.9 | -63.9 | 225 | 6 |
| 2009-06-02T23:34 | 11356 | 226 | -57.1 | -68.1 | ||
| 2009-06-02T23:36 | 12120 | 200 | -63.7 | -72.7 | 240 | 10 |
| 2009-06-02T23:38 | 12631 | 184 | -62.9 | -72.9 | ||
| 2009-06-02T23:39 | 12801 | 179 | -61.1 | -71.1 | ||
| 2009-06-02T23:39 | 12906 | 176 | -61.5 | -71.5 | ||
| 2009-06-02T23:40 | 13121 | 170 | -60.1 | -71.1 | ||
| 2009-06-02T23:40 | 13232 | 167 | -60.7 | -71.7 | ||
| 2009-06-02T23:41 | 13421 | 162 | -58.9 | -69.9 | ||
| 2009-06-02T23:42 | 13697 | 155 | -58.9 | -69.9 | ||
| 2009-06-02T23:42 | 13779 | 153 | -57.5 | -69.5 | ||
| 2009-06-02T23:42 | 13820 | 152 | -57.1 | -69.1 | ||
| 2009-06-02T23:42 | 13910 | 150 | -57.5 | -69.5 | 240 | 15 |
| 2009-06-02T23:43 | 14037 | 147 | -57.9 | -69.9 | ||
| 2009-06-02T23:43 | 14123 | 145 | -56.9 | -68.9 | ||
| 2009-06-02T23:44 | 14480 | 137 | -58.3 | -70.3 | ||
| 2009-06-02T23:45 | 14667 | 133 | -56.5 | -69.5 | ||
| 2009-06-02T23:47 | 15369 | 119 | -57.7 | -70.7 | ||
| 2009-06-02T23:47 | 15476 | 117 | -56.5 | -70.5 | ||
| 2009-06-02T23:49 | 15866 | 110 | -57.3 | -71.3 | ||
| 2009-06-02T23:50 | 16217 | 104 | -60.3 | -73.3 | ||
| 2009-06-02T23:51 | 16460 | 100 | -60.7 | -73.7 | 235 | 5 |
| 2009-06-03T11:02 | 1611 | 844 | 8.2 | 5.3 | 180 | 1 |
| 2009-06-03T11:02 | 1650 | 840 | 8.2 | 5.5 | ||
| 2009-06-03T11:03 | 2028 | 802 | 5.4 | 4.6 | ||
| 2009-06-03T11:05 | 2614 | 746 | 2.8 | 2.8 | ||
| 2009-06-03T11:06 | 2756 | 733 | 4.6 | 3.4 | ||
| 2009-06-03T11:07 | 3003 | 711 | 3.4 | 1.2 | ||
| 2009-06-03T11:07 | 3136 | 700 | 4.4 | 1.6 | 255 | 3 |
| 2009-06-03T11:07 | 3159 | 698 | 4.4 | 1.5 | ||
| 2009-06-03T11:09 | 3782 | 646 | 0.8 | -1.3 | ||
| 2009-06-03T11:12 | 4595 | 583 | -4.5 | -7.7 | ||
| 2009-06-03T11:13 | 5022 | 552 | -6.3 | -11.3 | ||
| 2009-06-03T11:15 | 5426 | 524 | -9.9 | -12.3 | ||
| 2009-06-03T11:16 | 5800 | 500 | -12.1 | -15.0 | 285 | 9 |
| 2009-06-03T11:16 | 5892 | 494 | -12.5 | -15.5 | ||
| 2009-06-03T11:19 | 6694 | 444 | -19.3 | -21.8 | ||
| 2009-06-03T11:19 | 6829 | 436 | -19.9 | -22.0 | ||
| 2009-06-03T11:20 | 6966 | 428 | -20.3 | -23.5 | ||
| 2009-06-03T11:21 | 7470 | 400 | -24.1 | -27.8 | 255 | 12 |
| 2009-06-03T11:22 | 7580 | 394 | -24.7 | -28.5 | ||
| 2009-06-03T11:22 | 7785 | 383 | -26.1 | -31.1 | ||
| 2009-06-03T11:24 | 8169 | 363 | -29.3 | -36.3 | ||
| 2009-06-03T11:28 | 9500 | 300 | -40.9 | -49.9 | 235 | 5 |
| 2009-06-03T11:32 | 10710 | 250 | -51.5 | 235 | 8 | |
| 2009-06-03T11:33 | 10946 | 241 | -53.7 | |||
| 2009-06-03T11:36 | 12110 | 200 | -63.5 | 260 | 9 | |
| 2009-06-03T11:38 | 12457 | 189 | -62.9 | |||
| 2009-06-03T11:39 | 13000 | 173 | -63.3 | |||
| 2009-06-03T11:40 | 13107 | 170 | -62.5 | |||
| 2009-06-03T11:40 | 13217 | 167 | -62.5 | |||
| 2009-06-03T11:41 | 13483 | 160 | -58.9 | |||
| 2009-06-03T11:41 | 13641 | 156 | -58.7 | |||
| 2009-06-03T11:42 | 13845 | 151 | -59.7 | |||
| 2009-06-03T11:42 | 13890 | 150 | -59.3 | 270 | 12 | |
| 2009-06-03T11:43 | 13974 | 148 | -58.7 | |||
| 2009-06-03T11:43 | 14189 | 143 | -58.7 | |||
| 2009-06-03T11:45 | 14599 | 134 | -56.1 | |||
| 2009-06-03T11:45 | 14791 | 130 | -56.9 | |||
| 2009-06-03T11:47 | 15298 | 120 | -55.5 | |||
| 2009-06-03T11:49 | 15904 | 109 | -59.1 | |||
| 2009-06-03T11:51 | 16450 | 100 | -60.9 | 240 | 11 | |
| 2009-06-03T23:02 | 1611 | 841 | 18.2 | 10.2 | 360 | 1 |
| 2009-06-03T23:02 | 1692 | 833 | 16.2 | 8.2 | ||
| 2009-06-03T23:02 | 1763 | 826 | 15.4 | 8.4 | ||
| 2009-06-03T23:03 | 1959 | 807 | 14.8 | 8.8 | ||
| 2009-06-03T23:03 | 2022 | 801 | 14.4 | 6.4 | ||
| 2009-06-03T23:04 | 2170 | 787 | 14.8 | 2.8 | ||
| 2009-06-03T23:05 | 2618 | 746 | 12.0 | -1.0 | ||
| 2009-06-03T23:07 | 3148 | 700 | 7.8 | -3.2 | 305 | 11 |
| 2009-06-03T23:08 | 3542 | 667 | 5.4 | -5.6 | ||
| 2009-06-03T23:11 | 4338 | 604 | -1.9 | -7.9 | ||
| 2009-06-03T23:12 | 4644 | 581 | -3.9 | -11.9 | ||
| 2009-06-03T23:13 | 4974 | 557 | -6.7 | -13.7 | ||
| 2009-06-03T23:15 | 5548 | 517 | -12.1 | -16.0 | ||
| 2009-06-03T23:16 | 5820 | 500 | -13.3 | -16.3 | 295 | 13 |
| 2009-06-03T23:17 | 6113 | 481 | -14.5 | -20.5 | ||
| 2009-06-03T23:19 | 6898 | 433 | -20.7 | -29.7 | ||
| 2009-06-03T23:20 | 7070 | 423 | -22.1 | -28.1 | ||
| 2009-06-03T23:21 | 7351 | 407 | -24.3 | -30.3 | ||
| 2009-06-03T23:21 | 7480 | 400 | -24.7 | -30.7 | 275 | 14 |
| 2009-06-03T23:21 | 7553 | 396 | -25.1 | -32.1 | ||
| 2009-06-03T23:23 | 8138 | 365 | -29.3 | -39.3 | ||
| 2009-06-03T23:25 | 8577 | 343 | -33.3 | -42.3 | ||
| 2009-06-03T23:26 | 8973 | 324 | -36.9 | -49.9 | ||
| 2009-06-03T23:28 | 9500 | 300 | -41.1 | -52.1 | 295 | 12 |
| 2009-06-03T23:30 | 10083 | 275 | -46.5 | -57.5 | ||
| 2009-06-03T23:32 | 10710 | 250 | -51.9 | -61.9 | 290 | 17 |
| 2009-06-03T23:33 | 10999 | 239 | -54.5 | -64.5 | ||
| 2009-06-03T23:35 | 11552 | 219 | -58.3 | -67.3 | ||
| 2009-06-03T23:35 | 11726 | 213 | -59.1 | -68.1 | ||
| 2009-06-03T23:36 | 12120 | 200 | -61.5 | -70.5 | 305 | 23 |
| 2009-06-03T23:38 | 12504 | 188 | -60.1 | |||
| 2009-06-03T23:38 | 12739 | 181 | -62.3 | |||
| 2009-06-03T23:39 | 12946 | 175 | -62.9 | |||
| 2009-06-03T23:40 | 13053 | 172 | -61.1 | |||
| 2009-06-03T23:40 | 13126 | 170 | -60.9 | |||
| 2009-06-03T23:41 | 13422 | 162 | -62.9 | |||
| 2009-06-03T23:41 | 13460 | 161 | -61.5 | |||
| 2009-06-03T23:41 | 13537 | 159 | -61.5 | |||
| 2009-06-03T23:41 | 13616 | 157 | -59.3 | |||
| 2009-06-03T23:42 | 13736 | 154 | -59.3 | |||
| 2009-06-03T23:42 | 13910 | 150 | -57.7 | -67.7 | 255 | 19 |
| 2009-06-03T23:42 | 13952 | 149 | -56.9 | |||
| 2009-06-03T23:43 | 14124 | 145 | -57.5 | |||
| 2009-06-03T23:45 | 14624 | 134 | -54.9 | |||
| 2009-06-03T23:46 | 14965 | 127 | -56.7 | |||
| 2009-06-03T23:46 | 15116 | 124 | -56.1 | |||
| 2009-06-03T23:47 | 15484 | 117 | -56.9 | |||
| 2009-06-03T23:49 | 15872 | 110 | -58.7 | |||
| 2009-06-03T23:51 | 16470 | 100 | -61.5 | -72.5 | 265 | 10 |
| 2009-06-04T11:01 | 1611 | 842 | 9.8 | 8.9 | 90 | 1 |
| 2009-06-04T11:02 | 1770 | 826 | 11.2 | 9.9 | ||
| 2009-06-04T11:02 | 1820 | 821 | 11.4 | 10.1 | ||
| 2009-06-04T11:03 | 2160 | 788 | 9.4 | 7.5 | ||
| 2009-06-04T11:03 | 2234 | 781 | 8.8 | 8.8 | ||
| 2009-06-04T11:04 | 2415 | 764 | 7.8 | 7.8 | ||
| 2009-06-04T11:04 | 2567 | 750 | 7.8 | 5.2 | ||
| 2009-06-04T11:04 | 2655 | 742 | 8.6 | 3.6 | ||
| 2009-06-04T11:05 | 2834 | 726 | 8.2 | 1.2 | ||
| 2009-06-04T11:06 | 3148 | 700 | 5.8 | -1.2 | 295 | 5 |
| 2009-06-04T11:07 | 3563 | 665 | 2.4 | -2.5 | ||
| 2009-06-04T11:08 | 3895 | 638 | 0.2 | -4.1 | ||
| 2009-06-04T11:10 | 4213 | 613 | -1.1 | -10.1 | ||
| 2009-06-04T11:11 | 4556 | 587 | -3.3 | -11.3 | ||
| 2009-06-04T11:11 | 4596 | 584 | -3.7 | -13.7 | ||
| 2009-06-04T11:13 | 5149 | 544 | -8.5 | -13.5 | ||
| 2009-06-04T11:14 | 5584 | 514 | -12.3 | -18.3 | ||
| 2009-06-04T11:14 | 5673 | 508 | -12.9 | -17.4 | ||
| 2009-06-04T11:15 | 5810 | 500 | -13.9 | -18.9 | 310 | 16 |
| 2009-06-04T11:15 | 5840 | 498 | -13.9 | -18.9 | ||
| 2009-06-04T11:16 | 6103 | 481 | -14.7 | -21.7 | ||
| 2009-06-04T11:18 | 6753 | 441 | -19.1 | -27.1 | ||
| 2009-06-04T11:18 | 6940 | 430 | -20.3 | -27.3 | ||
| 2009-06-04T11:20 | 7470 | 400 | -24.7 | -30.7 | 285 | 15 |
| 2009-06-04T11:20 | 7506 | 398 | -24.9 | -30.9 | ||
| 2009-06-04T11:21 | 7671 | 389 | -26.3 | -30.9 | ||
| 2009-06-04T11:23 | 8264 | 358 | -31.1 | -38.1 | ||
| 2009-06-04T11:25 | 8792 | 332 | -35.9 | -40.2 | ||
| 2009-06-04T11:27 | 9490 | 300 | -41.5 | -47.5 | 295 | 15 |
| 2009-06-04T11:28 | 9835 | 285 | -44.5 | -51.5 | ||
| 2009-06-04T11:30 | 10491 | 258 | -50.1 | -57.1 | ||
| 2009-06-04T11:31 | 10700 | 250 | -51.3 | 280 | 17 | |
| 2009-06-04T11:33 | 11376 | 225 | -55.9 | |||
| 2009-06-04T11:35 | 11989 | 204 | -61.5 | |||
| 2009-06-04T11:35 | 12120 | 200 | -62.3 | 280 | 21 | |
| 2009-06-04T11:36 | 12402 | 191 | -63.9 | |||
| 2009-06-04T11:38 | 12833 | 178 | -63.9 | |||
| 2009-06-04T11:39 | 13296 | 165 | -63.9 | |||
| 2009-06-04T11:40 | 13408 | 162 | -63.1 | |||
| 2009-06-04T11:41 | 13678 | 155 | -64.1 | |||
| 2009-06-04T11:41 | 13798 | 152 | -63.3 | |||
| 2009-06-04T11:41 | 13880 | 150 | -63.7 | 280 | 18 | |
| 2009-06-04T11:41 | 13921 | 149 | -63.7 | |||
| 2009-06-04T11:42 | 14004 | 147 | -63.3 | |||
| 2009-06-04T11:42 | 14046 | 146 | -62.1 | |||
| 2009-06-04T11:42 | 14261 | 141 | -61.1 | |||
| 2009-06-04T11:43 | 14305 | 140 | -60.1 | |||
| 2009-06-04T11:44 | 14578 | 134 | -59.7 | |||
| 2009-06-04T11:44 | 14719 | 131 | -60.3 | |||
| 2009-06-04T11:44 | 14815 | 129 | -59.1 | |||
| 2009-06-04T11:45 | 15012 | 125 | -59.1 | |||
| 2009-06-04T11:45 | 15062 | 124 | -57.7 | |||
| 2009-06-04T11:46 | 15376 | 118 | -55.7 | |||
| 2009-06-04T11:46 | 15484 | 116 | -55.5 | |||
| 2009-06-04T11:47 | 15763 | 111 | -57.5 | |||
| 2009-06-04T11:48 | 15878 | 109 | -57.1 | |||
| 2009-06-04T11:50 | 16420 | 100 | -60.3 | 275 | 8 | |
| 2009-06-04T23:01 | 1611 | 839 | 21.8 | 12.8 | 90 | 4 |
| 2009-06-04T23:01 | 1724 | 828 | 20.0 | 11.0 | ||
| 2009-06-04T23:02 | 1932 | 808 | 17.4 | 9.4 | ||
| 2009-06-04T23:02 | 2016 | 800 | 17.2 | 7.2 | ||
| 2009-06-04T23:04 | 2404 | 764 | 13.8 | 5.8 | ||
| 2009-06-04T23:04 | 2481 | 757 | 14.6 | 0.6 | ||
| 2009-06-04T23:05 | 2683 | 739 | 13.6 | -1.4 | ||
| 2009-06-04T23:05 | 2740 | 734 | 14.0 | -3.0 | ||
| 2009-06-04T23:06 | 3053 | 707 | 11.8 | -6.2 | ||
| 2009-06-04T23:06 | 3146 | 700 | 11.2 | -7.8 | 295 | 13 |
| 2009-06-04T23:09 | 4072 | 625 | 2.4 | -11.6 | ||
| 2009-06-04T23:12 | 5111 | 548 | -7.5 | -14.5 | ||
| 2009-06-04T23:13 | 5211 | 541 | -8.5 | -15.5 | ||
| 2009-06-04T23:13 | 5311 | 534 | -9.3 | -19.3 | ||
| 2009-06-04T23:14 | 5500 | 521 | -10.9 | -20.9 | ||
| 2009-06-04T23:14 | 5663 | 510 | -11.5 | -20.5 | ||
| 2009-06-04T23:15 | 5830 | 500 | -12.9 | -21.9 | 280 | 16 |
| 2009-06-04T23:15 | 5952 | 492 | -14.1 | -23.1 | ||
| 2009-06-04T23:16 | 6091 | 483 | -15.5 | -22.5 | ||
| 2009-06-04T23:16 | 6122 | 481 | -15.7 | -20.4 | ||
| 2009-06-04T23:16 | 6248 | 473 | -16.1 | -19.0 | ||
| 2009-06-04T23:17 | 6604 | 451 | -18.9 | -22.6 | ||
| 2009-06-04T23:18 | 6770 | 441 | -18.9 | -26.9 | ||
| 2009-06-04T23:18 | 6889 | 434 | -19.5 | -28.5 | ||
| 2009-06-04T23:19 | 7114 | 421 | -21.1 | -35.1 | ||
| 2009-06-04T23:20 | 7490 | 400 | -23.9 | -36.9 | 275 | 18 |
| 2009-06-04T23:21 | 7600 | 394 | -24.9 | -36.9 | ||
| 2009-06-04T23:21 | 7786 | 384 | -26.5 | -34.5 | ||
| 2009-06-04T23:22 | 8111 | 367 | -28.9 | -37.9 | ||
| 2009-06-04T23:23 | 8388 | 353 | -29.9 | -38.9 | ||
| 2009-06-04T23:26 | 9188 | 315 | -35.3 | -45.3 | ||
| 2009-06-04T23:27 | 9530 | 300 | -38.3 | -49.3 | 290 | 31 |
| 2009-06-04T23:30 | 10570 | 257 | -47.7 | -59.7 | ||
| 2009-06-04T23:31 | 10750 | 250 | -49.3 | -61.3 | 290 | 32 |
| 2009-06-04T23:33 | 11514 | 222 | -56.5 | -66.5 | ||
| 2009-06-04T23:36 | 12137 | 201 | -60.5 | -69.5 | ||
| 2009-06-04T23:36 | 12170 | 200 | -60.9 | 290 | 34 | |
| 2009-06-04T23:38 | 12918 | 177 | -66.3 | |||
| 2009-06-04T23:39 | 13233 | 168 | -66.3 | |||
| 2009-06-04T23:41 | 13720 | 155 | -65.5 | |||
| 2009-06-04T23:41 | 13930 | 150 | -66.3 | 280 | 20 | |
| 2009-06-04T23:42 | 14052 | 147 | -66.7 | |||
| 2009-06-04T23:43 | 14434 | 138 | -65.3 | |||
| 2009-06-04T23:44 | 14658 | 133 | -65.7 | |||
| 2009-06-04T23:44 | 14797 | 130 | -64.3 | |||
| 2009-06-04T23:44 | 14844 | 129 | -63.1 | |||
| 2009-06-04T23:45 | 14988 | 126 | -63.3 | |||
| 2009-06-04T23:45 | 15037 | 125 | -60.9 | |||
| 2009-06-04T23:45 | 15137 | 123 | -59.5 | |||
| 2009-06-04T23:46 | 15239 | 121 | -59.9 | |||
| 2009-06-04T23:46 | 15291 | 120 | -59.1 | |||
| 2009-06-04T23:47 | 15776 | 111 | -61.1 | |||
| 2009-06-04T23:48 | 15889 | 109 | -59.3 | |||
| 2009-06-04T23:48 | 16005 | 107 | -57.5 | |||
| 2009-06-04T23:50 | 16430 | 100 | -59.3 | 245 | 10 | |
| 2009-06-05T11:13 | 1611 | 838 | 12.8 | 11.9 | 180 | 1 |
| 2009-06-05T11:13 | 1661 | 833 | 13.8 | 12.2 | ||
| 2009-06-05T11:14 | 1957 | 804 | 12.4 | 11.6 | ||
| 2009-06-05T11:15 | 2093 | 791 | 13.4 | 11.5 | ||
| 2009-06-05T11:15 | 2329 | 769 | 12.8 | 7.8 | ||
| 2009-06-05T11:16 | 2461 | 757 | 14.2 | 5.2 | ||
| 2009-06-05T11:16 | 2652 | 740 | 14.0 | 2.0 | ||
| 2009-06-05T11:18 | 3124 | 700 | 10.4 | -1.6 | 210 | 7 |
| 2009-06-05T11:23 | 4605 | 583 | -2.1 | -11.1 | ||
| 2009-06-05T11:27 | 5810 | 500 | -13.3 | -16.6 | 270 | 16 |
| 2009-06-05T11:27 | 5826 | 499 | -13.3 | -16.5 | ||
| 2009-06-05T11:27 | 5978 | 489 | -13.7 | -17.3 | ||
| 2009-06-05T11:28 | 6181 | 476 | -15.5 | -19.8 | ||
| 2009-06-05T11:29 | 6584 | 451 | -19.1 | -21.8 | ||
| 2009-06-05T11:30 | 6868 | 434 | -20.5 | -24.0 | ||
| 2009-06-05T11:32 | 7470 | 400 | -24.3 | -26.8 | 270 | 18 |
| 2009-06-05T11:32 | 7488 | 399 | -24.5 | -27.0 | ||
| 2009-06-05T11:37 | 9070 | 319 | -37.7 | -42.2 | ||
| 2009-06-05T11:39 | 9422 | 303 | -39.5 | -44.0 | ||
| 2009-06-05T11:39 | 9500 | 300 | -40.1 | -45.1 | 260 | 27 |
| 2009-06-05T11:39 | 9660 | 293 | -41.3 | -49.3 | ||
| 2009-06-05T11:41 | 10062 | 276 | -44.5 | -54.5 | ||
| 2009-06-05T11:43 | 10710 | 250 | -50.5 | 265 | 32 | |
| 2009-06-05T11:44 | 11191 | 232 | -54.9 | |||
| 2009-06-05T11:47 | 11999 | 204 | -61.3 | |||
| 2009-06-05T11:47 | 12130 | 200 | -61.5 | 260 | 31 | |
| 2009-06-05T11:48 | 12161 | 199 | -61.7 | |||
| 2009-06-05T11:49 | 12576 | 186 | -64.5 | |||
| 2009-06-05T11:51 | 13156 | 169 | -66.3 | |||
| 2009-06-05T11:52 | 13374 | 163 | -66.1 | |||
| 2009-06-05T11:53 | 13880 | 150 | -62.1 | 260 | 36 | |
| 2009-06-05T11:54 | 14219 | 142 | -60.1 | |||
| 2009-06-05T11:56 | 14717 | 131 | -62.9 | |||
| 2009-06-05T11:57 | 14957 | 126 | -61.7 | |||
| 2009-06-05T11:57 | 15156 | 122 | -62.3 | |||
| 2009-06-05T11:58 | 15258 | 120 | -60.9 | |||
| 2009-06-05T11:58 | 15362 | 118 | -60.1 | |||
| 2009-06-05T11:59 | 15576 | 114 | -61.5 | |||
| 2009-06-05T12:00 | 15967 | 107 | -62.3 | |||
| 2009-06-05T12:00 | 16026 | 106 | -61.9 | |||
| 2009-06-05T12:01 | 16264 | 102 | -59.5 | |||
| 2009-06-05T12:01 | 16400 | 100 | -60.5 | 280 | 12 | |
| 2009-06-05T23:01 | 1611 | 831 | 23.8 | 13.8 | 350 | 4 |
| 2009-06-05T23:01 | 1747 | 818 | 22.2 | 13.2 | ||
| 2009-06-05T23:03 | 2188 | 777 | 19.0 | 9.0 | ||
| 2009-06-05T23:06 | 3018 | 704 | 11.2 | 5.2 | ||
| 2009-06-05T23:06 | 3084 | 700 | 11.0 | 5.0 | 145 | 6 |
| 2009-06-05T23:07 | 3409 | 673 | 8.4 | 2.4 | ||
| 2009-06-05T23:07 | 3470 | 668 | 8.0 | 0.0 | ||
| 2009-06-05T23:08 | 3794 | 642 | 5.4 | -2.6 | ||
| 2009-06-05T23:10 | 4379 | 597 | -0.1 | -4.0 | ||
| 2009-06-05T23:13 | 5271 | 533 | -7.3 | -10.0 | ||
| 2009-06-05T23:14 | 5687 | 505 | -10.5 | -13.6 | ||
| 2009-06-05T23:15 | 5748 | 501 | -10.3 | -15.3 | ||
| 2009-06-05T23:15 | 5780 | 500 | -10.5 | -15.5 | 250 | 18 |
| 2009-06-05T23:15 | 5919 | 491 | -11.3 | -17.3 | ||
| 2009-06-05T23:18 | 6832 | 435 | -18.7 | -23.7 | ||
| 2009-06-05T23:20 | 7450 | 400 | -22.9 | -31.9 | 235 | 28 |
| 2009-06-05T23:20 | 7468 | 399 | -22.9 | -31.9 | ||
| 2009-06-05T23:21 | 7560 | 394 | -23.7 | -30.7 | ||
| 2009-06-05T23:21 | 7690 | 387 | -24.5 | -34.5 | ||
| 2009-06-05T23:21 | 7765 | 383 | -24.9 | -39.9 | ||
| 2009-06-05T23:22 | 7879 | 377 | -25.9 | -43.9 | ||
| 2009-06-05T23:23 | 8350 | 353 | -29.5 | -43.5 | ||
| 2009-06-05T23:24 | 8554 | 343 | -30.7 | -39.7 | ||
| 2009-06-05T23:25 | 9064 | 319 | -33.7 | -42.7 | ||
| 2009-06-05T23:27 | 9500 | 300 | -37.5 | -46.5 | 250 | 25 |
| 2009-06-05T23:30 | 10517 | 258 | -47.1 | -58.1 | ||
| 2009-06-05T23:31 | 10730 | 250 | -48.7 | -59.7 | 240 | 33 |
| 2009-06-05T23:32 | 11215 | 232 | -53.1 | -63.1 | ||
| 2009-06-05T23:35 | 11876 | 209 | -59.5 | |||
| 2009-06-05T23:36 | 12150 | 200 | -61.5 | 245 | 36 | |
| 2009-06-05T23:38 | 12896 | 177 | -66.7 | |||
| 2009-06-05T23:39 | 13246 | 167 | -67.5 | |||
| 2009-06-05T23:40 | 13578 | 158 | -68.1 | |||
| 2009-06-05T23:40 | 13655 | 156 | -65.5 | |||
| 2009-06-05T23:41 | 13813 | 152 | -64.3 | |||
| 2009-06-05T23:41 | 13900 | 150 | -64.7 | 260 | 23 | |
| 2009-06-05T23:42 | 14232 | 142 | -66.3 | |||
| 2009-06-05T23:43 | 14318 | 140 | -65.7 | |||
| 2009-06-05T23:43 | 14541 | 135 | -60.9 | |||
| 2009-06-05T23:44 | 14587 | 134 | -60.1 | |||
| 2009-06-05T23:46 | 15318 | 119 | -64.5 | |||
| 2009-06-05T23:46 | 15370 | 118 | -61.9 | |||
| 2009-06-05T23:47 | 15530 | 115 | -59.7 | |||
| 2009-06-05T23:47 | 15640 | 113 | -59.1 | |||
| 2009-06-05T23:49 | 16156 | 104 | -61.3 | |||
| 2009-06-05T23:50 | 16410 | 100 | -60.9 | 240 | 9 | |
| 2009-06-06T11:01 | 1611 | 830 | 10.8 | 6.9 | 200 | 1 |
| 2009-06-06T11:01 | 1641 | 827 | 15.2 | 10.2 | ||
| 2009-06-06T11:01 | 1682 | 823 | 17.0 | 10.0 | ||
| 2009-06-06T11:02 | 1933 | 799 | 18.2 | -2.8 | ||
| 2009-06-06T11:06 | 3047 | 700 | 8.4 | -8.6 | 245 | 5 |
| 2009-06-06T11:07 | 3296 | 679 | 6.0 | -9.0 | ||
| 2009-06-06T11:10 | 4448 | 588 | -4.1 | -19.1 | ||
| 2009-06-06T11:11 | 4692 | 570 | -5.5 | -22.5 | ||
| 2009-06-06T11:12 | 4872 | 557 | -6.5 | -18.5 | ||
| 2009-06-06T11:12 | 5099 | 541 | -7.5 | -26.5 | ||
| 2009-06-06T11:13 | 5405 | 520 | -9.1 | -28.1 | ||
| 2009-06-06T11:14 | 5710 | 500 | -11.7 | -30.7 | 250 | 22 |
| 2009-06-06T11:16 | 6195 | 469 | -15.7 | -33.7 | ||
| 2009-06-06T11:17 | 6357 | 459 | -15.5 | -28.5 | ||
| 2009-06-06T11:18 | 6861 | 429 | -19.7 | -27.7 | ||
| 2009-06-06T11:19 | 7106 | 415 | -21.7 | -28.7 | ||
| 2009-06-06T11:20 | 7390 | 400 | -23.1 | -32.1 | 240 | 33 |
| 2009-06-06T11:20 | 7500 | 394 | -23.9 | -33.9 | ||
| 2009-06-06T11:24 | 8723 | 332 | -33.3 | -44.3 | ||
| 2009-06-06T11:27 | 9420 | 300 | -39.9 | -50.9 | 230 | 40 |
| 2009-06-06T11:28 | 9957 | 277 | -44.9 | -55.9 | ||
| 2009-06-06T11:31 | 10640 | 250 | -50.5 | -60.5 | 240 | 41 |
| 2009-06-06T11:32 | 11040 | 235 | -53.5 | -63.5 | ||
| 2009-06-06T11:35 | 12060 | 200 | -61.9 | 235 | 43 | |
| 2009-06-06T11:36 | 12311 | 192 | -63.9 | |||
| 2009-06-06T11:39 | 13270 | 164 | -65.5 | |||
| 2009-06-06T11:40 | 13498 | 158 | -62.5 | |||
| 2009-06-06T11:41 | 13777 | 151 | -61.5 | |||
| 2009-06-06T11:41 | 13820 | 150 | -61.1 | 245 | 38 | |
| 2009-06-06T11:41 | 13903 | 148 | -60.1 | |||
| 2009-06-06T11:41 | 13945 | 147 | -60.1 | |||
| 2009-06-06T11:42 | 14118 | 143 | -57.9 | |||
| 2009-06-06T11:43 | 14296 | 139 | -57.5 | |||
| 2009-06-06T11:43 | 14342 | 138 | -56.9 | |||
| 2009-06-06T11:43 | 14482 | 135 | -53.5 | |||
| 2009-06-06T11:44 | 14626 | 132 | -52.7 | |||
| 2009-06-06T11:45 | 14926 | 126 | -54.1 | |||
| 2009-06-06T11:47 | 15557 | 114 | -59.7 | |||
| 2009-06-06T11:47 | 15724 | 111 | -58.5 | |||
| 2009-06-06T11:48 | 15896 | 108 | -58.7 | |||
| 2009-06-06T11:48 | 16072 | 105 | -59.9 | |||
| 2009-06-06T11:49 | 16192 | 103 | -59.5 | |||
| 2009-06-06T11:49 | 16380 | 100 | -57.3 | 300 | 11 | |
| 2009-06-06T23:31 | 1611 | 829 | 24.2 | 3.2 | 0 | 0 |
| 2009-06-06T23:32 | 1822 | 809 | 21.6 | 1.6 | ||
| 2009-06-06T23:35 | 2903 | 712 | 11.8 | -2.2 | ||
| 2009-06-06T23:36 | 3049 | 700 | 10.8 | -4.2 | 255 | 9 |
| 2009-06-06T23:36 | 3144 | 692 | 10.0 | -6.0 | ||
| 2009-06-06T23:40 | 4406 | 592 | -2.5 | -9.5 | ||
| 2009-06-06T23:40 | 4500 | 585 | -3.3 | -10.3 | ||
| 2009-06-06T23:41 | 4540 | 582 | -3.5 | -12.5 | ||
| 2009-06-06T23:44 | 5720 | 500 | -13.7 | -20.7 | 245 | 18 |
| 2009-06-06T23:45 | 5750 | 498 | -13.9 | -19.9 | ||
| 2009-06-06T23:45 | 5996 | 482 | -15.5 | -22.5 | ||
| 2009-06-06T23:48 | 6692 | 439 | -20.5 | -25.5 | ||
| 2009-06-06T23:50 | 7380 | 400 | -24.7 | -30.7 | 245 | 22 |
| 2009-06-06T23:51 | 7807 | 377 | -27.7 | -33.7 | ||
| 2009-06-06T23:54 | 8538 | 340 | -33.9 | -39.9 | ||
| 2009-06-06T23:56 | 9288 | 305 | -39.7 | -47.7 | ||
| 2009-06-06T23:57 | 9410 | 300 | -40.3 | -48.3 | 240 | 41 |
| 2009-06-07T00:01 | 10630 | 250 | -50.1 | 245 | 39 | |
| 2009-06-07T00:05 | 11863 | 206 | -60.1 | |||
| 2009-06-07T00:05 | 12050 | 200 | -61.1 | 240 | 45 | |
| 2009-06-07T00:07 | 12734 | 179 | -63.1 | |||
| 2009-06-07T00:08 | 12909 | 174 | -61.3 | |||
| 2009-06-07T00:09 | 13163 | 167 | -62.1 | |||
| 2009-06-07T00:10 | 13467 | 159 | -59.5 | |||
| 2009-06-07T00:11 | 13789 | 151 | -59.7 | |||
| 2009-06-07T00:11 | 13830 | 150 | -59.1 | 240 | 34 | |
| 2009-06-07T00:12 | 14043 | 145 | -56.7 | |||
| 2009-06-07T00:12 | 14265 | 140 | -56.7 | |||
| 2009-06-07T00:13 | 14356 | 138 | -55.9 | |||
| 2009-06-07T00:14 | 14637 | 132 | -56.7 | |||
| 2009-06-07T00:15 | 14880 | 127 | -58.7 | |||
| 2009-06-07T00:15 | 15081 | 123 | -56.7 | |||
| 2009-06-07T00:16 | 15185 | 121 | -56.5 | |||
| 2009-06-07T00:17 | 15728 | 111 | -58.7 | |||
| 2009-06-07T00:18 | 15842 | 109 | -57.3 | |||
| 2009-06-07T00:18 | 16077 | 105 | -59.1 | |||
| 2009-06-07T00:19 | 16197 | 103 | -58.7 | |||
| 2009-06-07T00:19 | 16390 | 100 | -59.9 | 230 | 13 | |
| 2009-06-07T11:01 | 1611 | 831 | 9.0 | 4.0 | 0 | 0 |
| 2009-06-07T11:01 | 1641 | 828 | 11.6 | 5.6 | ||
| 2009-06-07T11:01 | 1681 | 824 | 12.6 | 5.6 | ||
| 2009-06-07T11:02 | 1814 | 811 | 12.2 | 3.2 | ||
| 2009-06-07T11:02 | 1897 | 803 | 13.2 | 2.2 | ||
| 2009-06-07T11:03 | 2108 | 783 | 13.6 | -5.4 | ||
| 2009-06-07T11:03 | 2205 | 774 | 13.4 | -7.6 | ||
| 2009-06-07T11:03 | 2292 | 766 | 14.2 | -8.8 | ||
| 2009-06-07T11:06 | 3042 | 700 | 7.4 | -12.6 | 260 | 4 |
| 2009-06-07T11:07 | 3471 | 664 | 3.2 | -13.8 | ||
| 2009-06-07T11:11 | 4610 | 575 | -7.5 | -14.5 | ||
| 2009-06-07T11:11 | 4787 | 562 | -9.1 | -17.1 | ||
| 2009-06-07T11:12 | 5038 | 544 | -9.7 | -24.7 | ||
| 2009-06-07T11:14 | 5622 | 504 | -13.3 | -34.3 | ||
| 2009-06-07T11:14 | 5690 | 500 | -13.9 | -31.9 | 235 | 23 |
| 2009-06-07T11:15 | 5751 | 496 | -14.5 | -30.5 | ||
| 2009-06-07T11:16 | 6283 | 462 | -18.3 | -44.3 | ||
| 2009-06-07T11:18 | 6881 | 426 | -23.3 | -40.3 | ||
| 2009-06-07T11:19 | 7177 | 409 | -25.5 | -46.5 | ||
| 2009-06-07T11:20 | 7340 | 400 | -26.9 | -46.9 | 225 | 31 |
| 2009-06-07T11:25 | 8840 | 323 | -38.9 | -58.9 | ||
| 2009-06-07T11:26 | 9350 | 300 | -42.7 | -60.7 | 220 | 38 |
| 2009-06-07T11:30 | 10560 | 250 | -51.7 | -64.7 | 220 | 45 |
| 2009-06-07T11:33 | 11403 | 219 | -58.5 | -69.5 | ||
| 2009-06-07T11:35 | 11970 | 200 | -59.1 | -70.1 | 220 | 39 |
| 2009-06-07T11:35 | 12096 | 196 | -59.1 | -70.1 | ||
| 2009-06-07T11:36 | 12160 | 194 | -57.9 | -68.9 | ||
| 2009-06-07T11:36 | 12291 | 190 | -57.5 | -69.5 | ||
| 2009-06-07T11:37 | 12630 | 180 | -59.7 | -70.7 | ||
| 2009-06-07T11:38 | 12806 | 175 | -59.1 | -70.1 | ||
| 2009-06-07T11:38 | 12914 | 172 | -57.7 | -69.7 | ||
| 2009-06-07T11:38 | 12988 | 170 | -55.7 | -67.7 | ||
| 2009-06-07T11:39 | 13063 | 168 | -54.9 | -67.9 | ||
| 2009-06-07T11:40 | 13493 | 157 | -56.9 | -68.9 | ||
| 2009-06-07T11:41 | 13790 | 150 | -54.9 | -67.9 | 245 | 27 |
| 2009-06-07T11:41 | 13876 | 148 | -54.5 | -67.5 | ||
| 2009-06-07T11:42 | 13964 | 146 | -50.7 | -65.7 | ||
| 2009-06-07T11:42 | 14237 | 140 | -50.7 | -65.7 | ||
| 2009-06-07T11:43 | 14284 | 139 | -49.3 | -65.3 | ||
| 2009-06-07T11:43 | 14524 | 134 | -49.1 | -65.1 | ||
| 2009-06-07T11:44 | 14874 | 127 | -50.7 | -66.7 | ||
| 2009-06-07T11:48 | 16078 | 105 | -62.1 | -73.1 | ||
| 2009-06-07T11:49 | 16380 | 100 | -63.9 | -74.9 | 240 | 12 |
| 2009-06-07T23:07 | 1611 | 832 | 12.8 | 5.8 | 230 | 4 |
| 2009-06-07T23:07 | 1621 | 831 | 13.4 | 6.4 | ||
| 2009-06-07T23:07 | 1702 | 823 | 11.8 | 2.8 | ||
| 2009-06-07T23:08 | 1928 | 801 | 12.4 | -0.6 | ||
| 2009-06-07T23:09 | 2342 | 762 | 9.2 | -1.8 | ||
| 2009-06-07T23:10 | 2673 | 732 | 8.4 | -3.6 | ||
| 2009-06-07T23:12 | 3041 | 700 | 5.4 | -4.6 | 275 | 10 |
| 2009-06-07T23:14 | 3749 | 641 | -1.3 | -7.3 | ||
| 2009-06-07T23:17 | 4546 | 579 | -8.7 | -9.5 | ||
| 2009-06-07T23:19 | 5382 | 519 | -14.3 | -16.6 | ||
| 2009-06-07T23:20 | 5499 | 511 | -15.9 | -20.0 | ||
| 2009-06-07T23:20 | 5670 | 500 | -16.9 | -21.1 | 295 | 14 |
| 2009-06-07T23:21 | 5836 | 489 | -18.1 | -22.6 | ||
| 2009-06-07T23:21 | 5974 | 480 | -19.3 | -26.3 | ||
| 2009-06-07T23:22 | 6177 | 467 | -19.9 | -28.9 | ||
| 2009-06-07T23:23 | 6466 | 449 | -22.1 | -32.1 | ||
| 2009-06-07T23:26 | 7265 | 402 | -29.3 | -38.3 | ||
| 2009-06-07T23:26 | 7310 | 400 | -29.5 | -38.5 | 310 | 16 |
| 2009-06-07T23:27 | 7655 | 381 | -31.5 | -42.5 | ||
| 2009-06-07T23:28 | 7937 | 366 | -33.3 | -43.3 | ||
| 2009-06-07T23:29 | 8288 | 348 | -36.7 | -44.7 | ||
| 2009-06-07T23:30 | 8736 | 326 | -39.3 | -46.3 | ||
| 2009-06-07T23:32 | 9300 | 300 | -44.3 | -51.3 | 300 | 5 |
| 2009-06-07T23:32 | 9367 | 297 | -44.9 | -51.9 | ||
| 2009-06-07T23:35 | 10291 | 258 | -51.9 | -59.9 | ||
| 2009-06-07T23:36 | 10500 | 250 | -51.9 | 180 | 6 | |
| 2009-06-07T23:36 | 10604 | 246 | -52.1 | |||
| 2009-06-07T23:38 | 10926 | 234 | -54.9 | |||
| 2009-06-07T23:39 | 11347 | 219 | -55.3 | |||
| 2009-06-07T23:40 | 11614 | 210 | -55.7 | |||
| 2009-06-07T23:41 | 11893 | 201 | -54.5 | |||
| 2009-06-07T23:41 | 11930 | 200 | -54.5 | 240 | 21 | |
| 2009-06-07T23:41 | 11994 | 198 | -54.9 | |||
| 2009-06-07T23:42 | 12258 | 190 | -53.1 | |||
| 2009-06-07T23:43 | 12569 | 181 | -53.9 | |||
| 2009-06-07T23:43 | 12676 | 178 | -52.3 | |||
| 2009-06-07T23:44 | 12972 | 170 | -52.7 | |||
| 2009-06-07T23:45 | 13126 | 166 | -51.3 | |||
| 2009-06-07T23:46 | 13446 | 158 | -51.7 | |||
| 2009-06-07T23:46 | 13611 | 154 | -52.7 | |||
| 2009-06-07T23:47 | 13780 | 150 | -52.3 | 245 | 22 | |
| 2009-06-07T23:48 | 14089 | 143 | -51.7 | |||
| 2009-06-07T23:49 | 14460 | 135 | -52.7 | |||
| 2009-06-07T23:49 | 14556 | 133 | -51.7 | |||
| 2009-06-07T23:50 | 14753 | 129 | -52.1 | |||
| 2009-06-07T23:51 | 15059 | 123 | -54.3 | |||
| 2009-06-07T23:51 | 15164 | 121 | -53.7 | |||
| 2009-06-07T23:53 | 15600 | 113 | -56.1 | |||
| 2009-06-07T23:53 | 15713 | 111 | -55.5 | |||
| 2009-06-07T23:53 | 15770 | 110 | -55.9 | |||
| 2009-06-07T23:55 | 16380 | 100 | -58.1 | 245 | 17 | |
| 2009-06-08T11:01 | 1611 | 836 | 7.4 | 5.9 | 0 | 0 |
| 2009-06-08T11:01 | 1650 | 832 | 8.6 | 5.7 | ||
| 2009-06-08T11:01 | 1690 | 828 | 8.8 | 4.4 | ||
| 2009-06-08T11:02 | 1810 | 816 | 9.6 | 4.8 | ||
| 2009-06-08T11:04 | 2524 | 748 | 5.8 | 0.8 | ||
| 2009-06-08T11:05 | 2745 | 728 | 7.6 | -2.4 | ||
| 2009-06-08T11:05 | 2836 | 720 | 7.2 | -3.8 | ||
| 2009-06-08T11:06 | 3080 | 700 | 5.6 | -5.4 | 240 | 8 |
| 2009-06-08T11:08 | 3640 | 653 | 0.2 | -7.8 | ||
| 2009-06-08T11:09 | 4179 | 610 | -4.7 | -8.2 | ||
| 2009-06-08T11:12 | 4897 | 556 | -10.7 | -11.9 | ||
| 2009-06-08T11:13 | 5320 | 526 | -13.5 | -14.8 | ||
| 2009-06-08T11:13 | 5349 | 524 | -13.1 | -15.0 | ||
| 2009-06-08T11:13 | 5407 | 520 | -11.9 | -18.9 | ||
| 2009-06-08T11:13 | 5422 | 519 | -11.7 | -20.7 | ||
| 2009-06-08T11:14 | 5540 | 511 | -12.3 | -23.3 | ||
| 2009-06-08T11:14 | 5690 | 501 | -13.1 | -25.1 | ||
| 2009-06-08T11:14 | 5720 | 500 | -13.3 | -25.3 | 250 | 20 |
| 2009-06-08T11:20 | 7370 | 400 | -26.5 | -38.5 | 250 | 18 |
| 2009-06-08T11:26 | 9380 | 300 | -43.3 | 265 | 19 | |
| 2009-06-08T11:30 | 10348 | 259 | -51.7 | |||
| 2009-06-08T11:30 | 10580 | 250 | -53.5 | 265 | 20 | |
| 2009-06-08T11:34 | 11769 | 207 | -61.5 | |||
| 2009-06-08T11:35 | 11990 | 200 | -60.9 | 265 | 23 | |
| 2009-06-08T11:35 | 12052 | 198 | -60.7 | |||
| 2009-06-08T11:37 | 12505 | 184 | -62.7 | |||
| 2009-06-08T11:37 | 12572 | 182 | -60.7 | |||
| 2009-06-08T11:37 | 12676 | 179 | -59.1 | |||
| 2009-06-08T11:38 | 12817 | 175 | -59.3 | |||
| 2009-06-08T11:38 | 12999 | 170 | -56.7 | |||
| 2009-06-08T11:39 | 13150 | 166 | -56.1 | |||
| 2009-06-08T11:40 | 13502 | 157 | -57.3 | |||
| 2009-06-08T11:41 | 13790 | 150 | -55.9 | 250 | 23 | |
| 2009-06-08T11:41 | 13876 | 148 | -55.5 | |||
| 2009-06-08T11:42 | 14093 | 143 | -56.1 | |||
| 2009-06-08T11:43 | 14319 | 138 | -55.5 | |||
| 2009-06-08T11:46 | 15360 | 117 | -58.7 | |||
| 2009-06-08T11:47 | 15747 | 110 | -58.3 | |||
| 2009-06-08T11:49 | 16101 | 104 | -55.5 | |||
| 2009-06-08T11:49 | 16360 | 100 | -55.1 | 245 | 13 | |
| 2009-06-08T23:01 | 1611 | 835 | 15.4 | 10.4 | 350 | 2 |
| 2009-06-08T23:02 | 1783 | 818 | 12.6 | 8.4 | ||
| 2009-06-08T23:03 | 2126 | 785 | 9.6 | 8.3 | ||
| 2009-06-08T23:04 | 2588 | 742 | 7.0 | 6.6 | ||
| 2009-06-08T23:05 | 2767 | 726 | 7.6 | 6.2 | ||
| 2009-06-08T23:05 | 2904 | 714 | 7.6 | 4.0 | ||
| 2009-06-08T23:05 | 2950 | 710 | 7.6 | 1.6 | ||
| 2009-06-08T23:06 | 3072 | 700 | 6.6 | 0.6 | 195 | 11 |
| 2009-06-08T23:07 | 3308 | 680 | 5.0 | -2.0 | ||
| 2009-06-08T23:08 | 3784 | 641 | 0.4 | -4.4 | ||
| 2009-06-08T23:09 | 4088 | 617 | -0.9 | -7.9 | ||
| 2009-06-08T23:10 | 4323 | 599 | -2.3 | -9.3 | ||
| 2009-06-08T23:11 | 4809 | 563 | -6.5 | -11.4 | ||
| 2009-06-08T23:12 | 4878 | 558 | -7.3 | -10.5 | ||
| 2009-06-08T23:13 | 5203 | 535 | -10.3 | -11.8 | ||
| 2009-06-08T23:14 | 5524 | 513 | -12.9 | -16.2 | ||
| 2009-06-08T23:15 | 5730 | 500 | -13.9 | -18.9 | 260 | 20 |
| 2009-06-08T23:15 | 5929 | 487 | -14.9 | -22.9 | ||
| 2009-06-08T23:16 | 6038 | 480 | -15.5 | -27.5 | ||
| 2009-06-08T23:17 | 6455 | 454 | -17.9 | -36.9 | ||
| 2009-06-08T23:20 | 7390 | 400 | -25.5 | -48.5 | 255 | 17 |
| 2009-06-08T23:24 | 8481 | 343 | -34.7 | -61.7 | ||
| 2009-06-08T23:24 | 8666 | 334 | -35.7 | -46.7 | ||
| 2009-06-08T23:25 | 8834 | 326 | -36.5 | -44.5 | ||
| 2009-06-08T23:26 | 9290 | 305 | -40.5 | -47.5 | ||
| 2009-06-08T23:27 | 9410 | 300 | -41.1 | -48.1 | 250 | 28 |
| 2009-06-08T23:28 | 9733 | 286 | -42.7 | -50.7 | ||
| 2009-06-08T23:29 | 10242 | 265 | -46.5 | -54.5 | ||
| 2009-06-08T23:31 | 10630 | 250 | -49.7 | 260 | 37 | |
| 2009-06-08T23:35 | 12040 | 200 | -63.1 | 260 | 37 | |
| 2009-06-08T23:35 | 12102 | 198 | -63.7 | |||
| 2009-06-08T23:37 | 12583 | 183 | -64.5 | |||
| 2009-06-08T23:37 | 12684 | 180 | -62.9 | |||
| 2009-06-08T23:38 | 12857 | 175 | -62.7 | |||
| 2009-06-08T23:38 | 12964 | 172 | -60.3 | |||
| 2009-06-08T23:39 | 13110 | 168 | -60.9 | |||
| 2009-06-08T23:39 | 13222 | 165 | -58.9 | |||
| 2009-06-08T23:39 | 13337 | 162 | -57.5 | |||
| 2009-06-08T23:40 | 13574 | 156 | -58.5 | |||
| 2009-06-08T23:41 | 13830 | 150 | -57.7 | 255 | 28 | |
| 2009-06-08T23:41 | 13872 | 149 | -57.7 | |||
| 2009-06-08T23:43 | 14354 | 138 | -58.1 | |||
| 2009-06-08T23:43 | 14446 | 136 | -57.3 | |||
| 2009-06-08T23:44 | 14730 | 130 | -57.5 | |||
| 2009-06-08T23:45 | 15080 | 123 | -55.9 | |||
| 2009-06-08T23:47 | 15728 | 111 | -57.9 | |||
| 2009-06-08T23:48 | 16018 | 106 | -56.9 | |||
| 2009-06-08T23:49 | 16199 | 103 | -58.3 | |||
| 2009-06-08T23:49 | 16390 | 100 | -58.9 | 245 | 19 | |
| 2009-06-09T11:01 | 1611 | 835 | 11.2 | 9.8 | 350 | 2 |
| 2009-06-09T11:02 | 1792 | 817 | 10.6 | 9.5 | ||
| 2009-06-09T11:03 | 2217 | 776 | 8.4 | 7.5 | ||
| 2009-06-09T11:04 | 2464 | 753 | 8.6 | 7.1 | ||
| 2009-06-09T11:04 | 2508 | 749 | 8.8 | 4.4 | ||
| 2009-06-09T11:04 | 2608 | 740 | 10.0 | 0.0 | ||
| 2009-06-09T11:05 | 2755 | 727 | 10.2 | -3.8 | ||
| 2009-06-09T11:06 | 3076 | 700 | 7.2 | -5.8 | 265 | 4 |
| 2009-06-09T11:08 | 3850 | 636 | 0.4 | -9.6 | ||
| 2009-06-09T11:12 | 4974 | 551 | -10.3 | -12.4 | ||
| 2009-06-09T11:14 | 5720 | 500 | -14.7 | -18.0 | 230 | 11 |
| 2009-06-09T11:15 | 6011 | 481 | -16.9 | -20.2 | ||
| 2009-06-09T11:16 | 6184 | 470 | -16.9 | -20.5 | ||
| 2009-06-09T11:17 | 6591 | 445 | -18.9 | -22.8 | ||
| 2009-06-09T11:19 | 7195 | 410 | -22.7 | -26.4 | ||
| 2009-06-09T11:20 | 7380 | 400 | -24.3 | -27.9 | 245 | 24 |
| 2009-06-09T11:23 | 8374 | 348 | -32.9 | -37.0 | ||
| 2009-06-09T11:24 | 8578 | 338 | -33.9 | -41.9 | ||
| 2009-06-09T11:24 | 8766 | 329 | -34.9 | -42.9 | ||
| 2009-06-09T11:27 | 9410 | 300 | -40.3 | -48.3 | 250 | 39 |
| 2009-06-09T11:30 | 10491 | 255 | -50.3 | -58.3 | ||
| 2009-06-09T11:31 | 10620 | 250 | -51.5 | 250 | 43 | |
| 2009-06-09T11:34 | 11695 | 211 | -60.7 | |||
| 2009-06-09T11:35 | 12030 | 200 | -62.1 | 250 | 48 | |
| 2009-06-09T11:36 | 12186 | 195 | -61.3 | |||
| 2009-06-09T11:36 | 12379 | 189 | -62.3 | |||
| 2009-06-09T11:37 | 12714 | 179 | -61.9 | |||
| 2009-06-09T11:39 | 13294 | 163 | -59.9 | |||
| 2009-06-09T11:41 | 13728 | 152 | -60.5 | |||
| 2009-06-09T11:41 | 13820 | 150 | -59.7 | 245 | 34 | |
| 2009-06-09T11:41 | 13862 | 149 | -59.5 | |||
| 2009-06-09T11:43 | 14339 | 138 | -60.9 | |||
| 2009-06-09T11:45 | 14906 | 126 | -58.5 | |||
| 2009-06-09T11:45 | 15108 | 122 | -58.5 | |||
| 2009-06-09T11:46 | 15211 | 120 | -59.5 | |||
| 2009-06-09T11:46 | 15369 | 117 | -58.9 | |||
| 2009-06-09T11:47 | 15698 | 111 | -59.3 | |||
| 2009-06-09T11:47 | 15755 | 110 | -58.3 | |||
| 2009-06-09T11:48 | 15812 | 109 | -58.1 | |||
| 2009-06-09T11:49 | 16107 | 104 | -58.5 | |||
| 2009-06-09T11:49 | 16360 | 100 | -60.1 | 260 | 16 | |
| 2009-06-09T23:02 | 1611 | 833 | 19.8 | 5.8 | 285 | 2 |
| 2009-06-09T23:02 | 1683 | 826 | 19.2 | 1.2 | ||
| 2009-06-09T23:03 | 2019 | 794 | 16.6 | 0.6 | ||
| 2009-06-09T23:07 | 3080 | 700 | 7.2 | -1.8 | 195 | 11 |
| 2009-06-09T23:07 | 3257 | 685 | 5.2 | -1.8 | ||
| 2009-06-09T23:13 | 4828 | 562 | -7.9 | -9.5 | ||
| 2009-06-09T23:14 | 5309 | 528 | -10.9 | -12.0 | ||
| 2009-06-09T23:15 | 5574 | 510 | -11.5 | -12.9 | ||
| 2009-06-09T23:16 | 5740 | 500 | -13.1 | -18.1 | 250 | 11 |
| 2009-06-09T23:16 | 5770 | 498 | -13.3 | -19.3 | ||
| 2009-06-09T23:16 | 6001 | 483 | -15.1 | -22.1 | ||
| 2009-06-09T23:18 | 6384 | 459 | -16.7 | -24.7 | ||
| 2009-06-09T23:21 | 7400 | 400 | -24.7 | -31.7 | 270 | 17 |
| 2009-06-09T23:22 | 7770 | 380 | -28.1 | -34.1 | ||
| 2009-06-09T23:23 | 7999 | 368 | -29.9 | -34.9 | ||
| 2009-06-09T23:24 | 8354 | 350 | -31.7 | -42.7 | ||
| 2009-06-09T23:26 | 8787 | 329 | -35.7 | -48.7 | ||
| 2009-06-09T23:28 | 9430 | 300 | -41.1 | -53.1 | 255 | 27 |
| 2009-06-09T23:29 | 9870 | 281 | -44.9 | -55.9 | ||
| 2009-06-09T23:32 | 10640 | 250 | -50.3 | -60.3 | 245 | 45 |
| 2009-06-09T23:32 | 10718 | 247 | -50.9 | -60.9 | ||
| 2009-06-09T23:33 | 11095 | 233 | -53.1 | -63.1 | ||
| 2009-06-09T23:34 | 11520 | 218 | -55.7 | |||
| 2009-06-09T23:35 | 11817 | 208 | -56.9 | |||
| 2009-06-09T23:36 | 12070 | 200 | -58.9 | 245 | 37 | |
| 2009-06-09T23:37 | 12422 | 189 | -61.3 | |||
| 2009-06-09T23:41 | 13412 | 161 | -62.1 | |||
| 2009-06-09T23:41 | 13646 | 155 | -62.3 | |||
| 2009-06-09T23:42 | 13808 | 151 | -60.9 | |||
| 2009-06-09T23:42 | 13850 | 150 | -61.1 | 240 | 34 | |
| 2009-06-09T23:43 | 13976 | 147 | -61.9 | |||
| 2009-06-09T23:43 | 14233 | 141 | -60.7 | |||
| 2009-06-09T23:45 | 14595 | 133 | -61.5 | |||
| 2009-06-09T23:46 | 14882 | 127 | -58.9 | |||
| 2009-06-09T23:46 | 15082 | 123 | -58.7 | |||
| 2009-06-09T23:47 | 15237 | 120 | -56.9 | |||
| 2009-06-09T23:48 | 15560 | 114 | -58.1 | |||
| 2009-06-09T23:48 | 15671 | 112 | -56.9 | |||
| 2009-06-09T23:49 | 15842 | 109 | -57.7 | |||
| 2009-06-09T23:50 | 16198 | 103 | -57.7 | |||
| 2009-06-09T23:50 | 16390 | 100 | -58.5 | 280 | 16 | |
| 2009-06-10T11:01 | 1611 | 836 | 10.6 | 7.5 | 0 | 0 |
| 2009-06-10T11:02 | 1771 | 820 | 10.8 | 7.8 | ||
| 2009-06-10T11:02 | 1996 | 798 | 10.0 | 7.9 | ||
| 2009-06-10T11:04 | 2538 | 747 | 5.4 | 5.4 | ||
| 2009-06-10T11:05 | 2870 | 717 | 3.0 | 2.7 | ||
| 2009-06-10T11:06 | 3078 | 700 | 5.2 | -1.8 | 240 | 6 |
| 2009-06-10T11:06 | 3113 | 697 | 5.2 | -2.8 | ||
| 2009-06-10T11:08 | 3750 | 644 | -0.1 | -6.1 | ||
| 2009-06-10T11:11 | 4600 | 578 | -7.5 | -10.1 | ||
| 2009-06-10T11:11 | 4735 | 568 | -8.3 | -11.0 | ||
| 2009-06-10T11:11 | 4803 | 563 | -7.7 | -12.7 | ||
| 2009-06-10T11:12 | 4900 | 556 | -7.9 | -14.9 | ||
| 2009-06-10T11:13 | 5168 | 537 | -10.3 | -16.3 | ||
| 2009-06-10T11:13 | 5283 | 529 | -10.9 | -17.9 | ||
| 2009-06-10T11:14 | 5720 | 500 | -13.9 | -20.9 | 255 | 15 |
| 2009-06-10T11:15 | 5811 | 494 | -14.7 | -21.7 | ||
| 2009-06-10T11:15 | 5888 | 489 | -15.1 | -26.1 | ||
| 2009-06-10T11:15 | 5965 | 484 | -15.3 | -36.3 | ||
| 2009-06-10T11:16 | 6201 | 469 | -17.1 | -30.1 | ||
| 2009-06-10T11:17 | 6459 | 453 | -19.5 | -28.5 | ||
| 2009-06-10T11:17 | 6641 | 442 | -21.1 | -26.1 | ||
| 2009-06-10T11:18 | 6928 | 425 | -23.5 | -27.5 | ||
| 2009-06-10T11:19 | 7136 | 413 | -24.5 | -30.5 | ||
| 2009-06-10T11:20 | 7380 | 400 | -26.3 | -31.3 | 235 | 21 |
| 2009-06-10T11:21 | 7618 | 387 | -27.1 | -34.1 | ||
| 2009-06-10T11:22 | 7920 | 371 | -28.9 | -36.9 | ||
| 2009-06-10T11:25 | 8784 | 328 | -37.1 | -45.1 | ||
| 2009-06-10T11:27 | 9400 | 300 | -42.1 | -50.1 | 240 | 41 |
| 2009-06-10T11:30 | 10600 | 250 | -53.3 | 235 | 43 | |
| 2009-06-10T11:31 | 10808 | 242 | -55.3 | |||
| 2009-06-10T11:32 | 11022 | 234 | -55.7 | |||
| 2009-06-10T11:34 | 11762 | 208 | -60.1 | |||
| 2009-06-10T11:35 | 11883 | 204 | -60.7 | |||
| 2009-06-10T11:35 | 12010 | 200 | -60.7 | 245 | 32 | |
| 2009-06-10T11:35 | 12072 | 198 | -60.1 | |||
| 2009-06-10T11:36 | 12263 | 192 | -60.7 | |||
| 2009-06-10T11:36 | 12361 | 189 | -59.5 | |||
| 2009-06-10T11:37 | 12665 | 180 | -59.5 | |||
| 2009-06-10T11:38 | 12841 | 175 | -58.7 | |||
| 2009-06-10T11:39 | 13059 | 169 | -59.5 | |||
| 2009-06-10T11:40 | 13559 | 156 | -59.3 | |||
| 2009-06-10T11:41 | 13721 | 152 | -60.5 | |||
| 2009-06-10T11:41 | 13810 | 150 | -59.7 | 245 | 24 | |
| 2009-06-10T11:41 | 13852 | 149 | -59.3 | |||
| 2009-06-10T11:42 | 14022 | 145 | -59.7 | |||
| 2009-06-10T11:42 | 14109 | 143 | -58.5 | |||
| 2009-06-10T11:43 | 14469 | 135 | -59.9 | |||
| 2009-06-10T11:44 | 14609 | 132 | -58.5 | |||
| 2009-06-10T11:45 | 14900 | 126 | -58.9 | |||
| 2009-06-10T11:45 | 15000 | 124 | -57.5 | |||
| 2009-06-10T11:46 | 15206 | 120 | -58.7 | |||
| 2009-06-10T11:46 | 15311 | 118 | -57.9 | |||
| 2009-06-10T11:47 | 15583 | 113 | -58.7 | |||
| 2009-06-10T11:47 | 15696 | 111 | -56.1 | |||
| 2009-06-10T11:48 | 15869 | 108 | -57.3 | |||
| 2009-06-10T11:49 | 16107 | 104 | -57.5 | |||
| 2009-06-10T11:49 | 16350 | 100 | -58.7 | 230 | 18 | |
| 2009-06-10T23:02 | 1611 | 833 | 16.2 | 9.2 | 360 | 6 |
| 2009-06-10T23:02 | 1672 | 827 | 15.0 | 8.0 | ||
| 2009-06-10T23:03 | 1846 | 810 | 12.6 | 7.6 | ||
| 2009-06-10T23:04 | 2246 | 772 | 11.2 | 5.2 | ||
| 2009-06-10T23:05 | 2507 | 748 | 8.8 | 4.1 | ||
| 2009-06-10T23:06 | 2696 | 731 | 6.8 | 4.4 | ||
| 2009-06-10T23:06 | 2809 | 721 | 6.6 | 4.6 | ||
| 2009-06-10T23:06 | 2843 | 718 | 6.4 | 2.9 | ||
| 2009-06-10T23:06 | 2900 | 713 | 6.2 | 2.6 | ||
| 2009-06-10T23:07 | 3057 | 700 | 5.0 | 1.7 | 235 | 4 |
| 2009-06-10T23:09 | 3703 | 646 | -0.5 | -1.3 | ||
| 2009-06-10T23:11 | 4223 | 605 | -2.5 | -5.4 | ||
| 2009-06-10T23:12 | 4595 | 577 | -5.7 | -8.4 | ||
| 2009-06-10T23:14 | 5311 | 526 | -10.5 | -13.2 | ||
| 2009-06-10T23:14 | 5384 | 521 | -10.7 | -13.7 | ||
| 2009-06-10T23:15 | 5428 | 518 | -10.9 | -12.4 | ||
| 2009-06-10T23:15 | 5502 | 513 | -11.1 | -12.2 | ||
| 2009-06-10T23:15 | 5710 | 500 | -12.3 | -15.0 | 255 | 14 |
| 2009-06-10T23:15 | 5726 | 499 | -12.3 | -15.1 | ||
| 2009-06-10T23:16 | 5926 | 486 | -12.9 | -15.8 | ||
| 2009-06-10T23:17 | 6308 | 462 | -16.9 | -27.9 | ||
| 2009-06-10T23:18 | 6605 | 444 | -18.3 | -30.3 | ||
| 2009-06-10T23:21 | 7380 | 400 | -23.9 | -35.9 | 265 | 13 |
| 2009-06-10T23:22 | 7601 | 388 | -25.5 | -38.5 | ||
| 2009-06-10T23:24 | 8196 | 357 | -31.7 | -42.7 | ||
| 2009-06-10T23:24 | 8396 | 347 | -32.3 | -43.3 | ||
| 2009-06-10T23:26 | 8874 | 324 | -36.9 | -48.9 | ||
| 2009-06-10T23:28 | 9410 | 300 | -41.5 | -51.5 | 245 | 11 |
| 2009-06-10T23:28 | 9546 | 294 | -42.9 | -52.9 | ||
| 2009-06-10T23:30 | 10089 | 271 | -46.5 | -56.5 | ||
| 2009-06-10T23:30 | 10287 | 263 | -46.9 | -56.9 | ||
| 2009-06-10T23:31 | 10542 | 253 | -49.1 | -59.1 | ||
| 2009-06-10T23:32 | 10620 | 250 | -49.7 | 255 | 5 | |
| 2009-06-10T23:33 | 10994 | 236 | -51.9 | |||
| 2009-06-10T23:34 | 11357 | 223 | -55.1 | |||
| 2009-06-10T23:36 | 12050 | 200 | -59.5 | 270 | 12 | |
| 2009-06-10T23:37 | 12239 | 194 | -60.9 | |||
| 2009-06-10T23:37 | 12401 | 189 | -60.3 | |||
| 2009-06-10T23:39 | 12983 | 172 | -62.9 | |||
| 2009-06-10T23:40 | 13091 | 169 | -62.1 | |||
| 2009-06-10T23:40 | 13351 | 162 | -62.9 | |||
| 2009-06-10T23:41 | 13389 | 161 | -61.9 | |||
| 2009-06-10T23:41 | 13544 | 157 | -61.3 | |||
| 2009-06-10T23:42 | 13746 | 152 | -57.7 | |||
| 2009-06-10T23:42 | 13830 | 150 | -58.1 | 240 | 19 | |
| 2009-06-10T23:43 | 14086 | 144 | -59.3 | |||
| 2009-06-10T23:44 | 14352 | 138 | -59.7 | |||
| 2009-06-10T23:45 | 14584 | 133 | -56.9 | |||
| 2009-06-10T23:45 | 14728 | 130 | -56.1 | |||
| 2009-06-10T23:46 | 14926 | 126 | -56.7 | |||
| 2009-06-10T23:46 | 15079 | 123 | -55.7 | |||
| 2009-06-10T23:47 | 15236 | 120 | -55.9 | |||
| 2009-06-10T23:48 | 15734 | 111 | -53.1 | |||
| 2009-06-10T23:49 | 16089 | 105 | -56.1 | |||
| 2009-06-10T23:50 | 16400 | 100 | -57.5 | 185 | 8 | |
| 2009-06-11T11:01 | 1611 | 836 | 11.0 | 9.4 | 0 | 0 |
| 2009-06-11T11:01 | 1641 | 833 | 11.0 | 9.5 | ||
| 2009-06-11T11:02 | 2068 | 791 | 8.2 | 7.5 | ||
| 2009-06-11T11:04 | 2515 | 749 | 7.0 | 4.6 | ||
| 2009-06-11T11:05 | 2848 | 719 | 5.2 | 1.8 | ||
| 2009-06-11T11:06 | 3054 | 701 | 3.8 | 2.4 | ||
| 2009-06-11T11:06 | 3080 | 700 | 3.8 | 2.3 | 210 | 5 |
| 2009-06-11T11:06 | 3208 | 689 | 2.8 | 1.0 | ||
| 2009-06-11T11:07 | 3445 | 669 | 2.0 | -1.7 | ||
| 2009-06-11T11:11 | 4693 | 571 | -8.7 | -9.1 | ||
| 2009-06-11T11:14 | 5426 | 519 | -11.9 | -14.6 | ||
| 2009-06-11T11:14 | 5720 | 500 | -14.1 | -16.7 | 250 | 9 |
| 2009-06-11T11:17 | 6426 | 455 | -19.7 | -22.3 | ||
| 2009-06-11T11:17 | 6557 | 447 | -20.7 | -22.4 | ||
| 2009-06-11T11:18 | 6757 | 435 | -21.3 | -23.5 | ||
| 2009-06-11T11:18 | 6842 | 430 | -20.9 | -23.0 | ||
| 2009-06-11T11:19 | 7210 | 409 | -22.7 | -25.7 | ||
| 2009-06-11T11:20 | 7380 | 400 | -24.1 | -28.1 | 255 | 18 |
| 2009-06-11T11:21 | 7713 | 382 | -26.7 | -31.7 | ||
| 2009-06-11T11:23 | 8196 | 357 | -30.7 | -36.7 | ||
| 2009-06-11T11:23 | 8457 | 344 | -32.9 | -43.9 | ||
| 2009-06-11T11:25 | 8810 | 327 | -35.7 | -43.7 | ||
| 2009-06-11T11:25 | 8981 | 319 | -37.1 | -46.1 | ||
| 2009-06-11T11:27 | 9410 | 300 | -41.1 | -48.1 | 250 | 26 |
| 2009-06-11T11:28 | 9709 | 287 | -43.7 | -51.7 | ||
| 2009-06-11T11:28 | 9994 | 275 | -45.3 | -52.3 | ||
| 2009-06-11T11:31 | 10620 | 250 | -50.9 | 255 | 32 | |
| 2009-06-11T11:31 | 10804 | 243 | -52.5 | |||
| 2009-06-11T11:35 | 11852 | 206 | -59.3 | |||
| 2009-06-11T11:35 | 12040 | 200 | -60.3 | 255 | 34 | |
| 2009-06-11T11:35 | 12071 | 199 | -60.3 | |||
| 2009-06-11T11:37 | 12524 | 185 | -60.5 | |||
| 2009-06-11T11:37 | 12728 | 179 | -61.5 | |||
| 2009-06-11T11:40 | 13426 | 160 | -59.5 | |||
| 2009-06-11T11:41 | 13704 | 153 | -60.1 | |||
| 2009-06-11T11:41 | 13830 | 150 | -59.7 | 255 | 26 | |
| 2009-06-11T11:41 | 13956 | 147 | -59.5 | |||
| 2009-06-11T11:44 | 14577 | 133 | -61.9 | |||
| 2009-06-11T11:44 | 14815 | 128 | -59.5 | |||
| 2009-06-11T11:45 | 14963 | 125 | -58.9 | |||
| 2009-06-11T11:46 | 15430 | 116 | -59.5 | |||
| 2009-06-11T11:47 | 15594 | 113 | -58.3 | |||
| 2009-06-11T11:48 | 15878 | 108 | -58.5 | |||
| 2009-06-11T11:48 | 15936 | 107 | -57.7 | |||
| 2009-06-11T11:49 | 16115 | 104 | -58.1 | |||
| 2009-06-11T11:49 | 16237 | 102 | -56.9 | |||
| 2009-06-11T11:49 | 16370 | 100 | -57.7 | 230 | 10 | |
| 2009-06-11T23:01 | 1611 | 833 | 19.4 | 8.4 | 160 | 4 |
| 2009-06-11T23:01 | 1745 | 820 | 17.2 | 6.2 | ||
| 2009-06-11T23:02 | 1880 | 807 | 15.8 | 4.8 | ||
| 2009-06-11T23:06 | 3068 | 700 | 5.6 | -1.4 | 265 | 7 |
| 2009-06-11T23:07 | 3315 | 679 | 3.4 | -2.6 | ||
| 2009-06-11T23:08 | 3666 | 650 | 1.6 | -4.4 | ||
| 2009-06-11T23:09 | 4094 | 616 | -1.7 | -6.2 | ||
| 2009-06-11T23:11 | 4787 | 564 | -6.7 | -11.7 | ||
| 2009-06-11T23:12 | 4940 | 553 | -7.9 | -10.7 | ||
| 2009-06-11T23:13 | 5340 | 525 | -11.1 | -13.4 | ||
| 2009-06-11T23:15 | 5730 | 500 | -11.5 | -19.5 | 250 | 20 |
| 2009-06-11T23:15 | 5745 | 499 | -11.5 | -19.5 | ||
| 2009-06-11T23:20 | 7281 | 406 | -24.9 | -29.4 | ||
| 2009-06-11T23:20 | 7390 | 400 | -25.5 | -29.9 | 250 | 18 |
| 2009-06-11T23:20 | 7499 | 394 | -26.1 | -30.7 | ||
| 2009-06-11T23:21 | 7665 | 385 | -26.9 | -33.9 | ||
| 2009-06-11T23:23 | 8203 | 357 | -31.3 | -40.3 | ||
| 2009-06-11T23:23 | 8423 | 346 | -32.5 | -47.5 | ||
| 2009-06-11T23:27 | 9410 | 300 | -41.1 | -57.1 | 260 | 20 |
| 2009-06-11T23:29 | 10237 | 265 | -48.5 | -61.5 | ||
| 2009-06-11T23:31 | 10620 | 250 | -51.5 | -64.5 | 265 | 24 |
| 2009-06-11T23:34 | 11823 | 207 | -58.3 | -69.3 | ||
| 2009-06-11T23:35 | 11946 | 203 | -57.5 | -68.5 | ||
| 2009-06-11T23:35 | 12040 | 200 | -57.9 | -68.9 | 255 | 34 |
| 2009-06-11T23:37 | 12462 | 187 | -58.7 | -69.7 | ||
| 2009-06-11T23:38 | 12772 | 178 | -57.7 | -68.7 | ||
| 2009-06-11T23:38 | 12987 | 172 | -58.9 | -69.9 | ||
| 2009-06-11T23:39 | 13097 | 169 | -57.9 | -68.9 | ||
| 2009-06-11T23:40 | 13362 | 162 | -58.7 | -69.7 | ||
| 2009-06-11T23:40 | 13559 | 157 | -58.3 | -69.3 | ||
| 2009-06-11T23:41 | 13850 | 150 | -59.3 | -70.3 | 250 | 36 |
| 2009-06-11T23:42 | 14019 | 146 | -59.7 | -70.7 | ||
| 2009-06-11T23:43 | 14281 | 140 | -58.3 | -69.3 | ||
| 2009-06-11T23:44 | 14744 | 130 | -59.7 | -70.7 | ||
| 2009-06-11T23:44 | 14841 | 128 | -58.1 | -69.1 | ||
| 2009-06-11T23:45 | 15040 | 124 | -59.3 | -70.3 | ||
| 2009-06-11T23:47 | 15567 | 114 | -58.1 | -70.1 | ||
| 2009-06-11T23:48 | 15906 | 108 | -59.1 | -70.1 | ||
| 2009-06-11T23:49 | 16203 | 103 | -57.9 | -69.9 | ||
| 2009-06-11T23:49 | 16400 | 100 | -59.1 | -71.1 | 250 | 24 |
| 2009-06-12T11:01 | 1611 | 836 | 8.2 | 7.6 | 170 | 2 |
| 2009-06-12T11:01 | 1680 | 829 | 9.4 | 8.7 | ||
| 2009-06-12T11:01 | 1760 | 821 | 9.8 | 9.1 | ||
| 2009-06-12T11:03 | 2193 | 779 | 9.2 | 5.1 | ||
| 2009-06-12T11:03 | 2299 | 769 | 8.8 | 5.4 | ||
| 2009-06-12T11:03 | 2331 | 766 | 9.0 | 5.7 | ||
| 2009-06-12T11:04 | 2385 | 761 | 9.6 | 3.6 | ||
| 2009-06-12T11:04 | 2627 | 739 | 9.0 | 0.0 | ||
| 2009-06-12T11:06 | 3086 | 700 | 5.2 | -2.8 | 275 | 5 |
| 2009-06-12T11:11 | 4513 | 585 | -7.1 | -9.3 | ||
| 2009-06-12T11:12 | 4823 | 562 | -9.1 | -13.2 | ||
| 2009-06-12T11:12 | 4934 | 554 | -9.1 | -15.1 | ||
| 2009-06-12T11:12 | 5076 | 544 | -8.5 | -22.5 | ||
| 2009-06-12T11:13 | 5189 | 536 | -8.5 | -27.5 | ||
| 2009-06-12T11:14 | 5497 | 515 | -9.9 | -29.9 | ||
| 2009-06-12T11:15 | 5730 | 500 | -11.9 | -30.9 | 275 | 13 |
| 2009-06-12T11:17 | 6474 | 453 | -18.3 | -34.3 | ||
| 2009-06-12T11:18 | 6724 | 438 | -20.1 | -36.1 | ||
| 2009-06-12T11:18 | 6809 | 433 | -20.1 | -37.1 | ||
| 2009-06-12T11:20 | 7400 | 400 | -24.9 | -42.9 | 260 | 22 |
| 2009-06-12T11:20 | 7528 | 393 | -25.7 | -43.7 | ||
| 2009-06-12T11:22 | 7923 | 372 | -27.9 | -45.9 | ||
| 2009-06-12T11:27 | 9430 | 300 | -40.7 | -55.7 | 265 | 34 |
| 2009-06-12T11:31 | 10640 | 250 | -50.9 | -62.9 | 265 | 36 |
| 2009-06-12T11:32 | 11011 | 236 | -54.5 | -65.5 | ||
| 2009-06-12T11:35 | 11961 | 203 | -59.9 | -69.9 | ||
| 2009-06-12T11:35 | 12050 | 200 | -60.1 | -70.1 | 255 | 38 |
| 2009-06-12T11:36 | 12207 | 195 | -60.3 | -70.3 | ||
| 2009-06-12T11:36 | 12271 | 193 | -58.5 | -68.5 | ||
| 2009-06-12T11:36 | 12369 | 190 | -57.7 | -67.7 | ||
| 2009-06-12T11:38 | 12815 | 177 | -57.3 | -67.3 | ||
| 2009-06-12T11:38 | 12887 | 175 | -56.7 | -67.7 | ||
| 2009-06-12T11:38 | 13034 | 171 | -54.1 | -65.1 | ||
| 2009-06-12T11:39 | 13147 | 168 | -53.7 | -64.7 | ||
| 2009-06-12T11:41 | 13662 | 155 | -54.5 | -65.5 | ||
| 2009-06-12T11:41 | 13880 | 150 | -56.3 | -67.3 | 250 | 34 |
| 2009-06-12T11:42 | 14008 | 147 | -57.3 | -68.3 | ||
| 2009-06-12T11:44 | 14636 | 133 | -59.3 | -69.3 | ||
| 2009-06-12T11:44 | 14826 | 129 | -60.7 | -70.7 | ||
| 2009-06-12T11:45 | 14972 | 126 | -60.3 | -70.3 | ||
| 2009-06-12T11:48 | 16043 | 106 | -61.7 | -71.7 | ||
| 2009-06-12T11:49 | 16161 | 104 | -60.5 | -70.5 | ||
| 2009-06-12T11:49 | 16343 | 101 | -60.5 | -70.5 | ||
| 2009-06-12T11:50 | 16410 | 100 | -59.7 | -69.7 | 250 | 18 |
| 2009-06-12T23:54 | 1611 | 838 | 17.8 | 11.8 | 0 | 0 |
| 2009-06-12T23:54 | 1692 | 830 | 17.4 | 11.4 | ||
| 2009-06-12T23:56 | 2204 | 781 | 12.8 | 9.0 | ||
| 2009-06-12T23:57 | 2641 | 741 | 9.6 | 5.5 | ||
| 2009-06-12T23:58 | 2844 | 723 | 8.8 | 5.4 | ||
| 2009-06-12T23:58 | 2901 | 718 | 8.6 | 4.0 | ||
| 2009-06-12T23:59 | 3117 | 700 | 6.0 | 3.1 | 95 | 6 |
| 2009-06-12T23:59 | 3152 | 697 | 5.6 | 3.0 | ||
| 2009-06-13T00:00 | 3353 | 680 | 4.8 | 2.5 | ||
| 2009-06-13T00:00 | 3522 | 666 | 3.8 | -0.1 | ||
| 2009-06-13T00:01 | 3656 | 655 | 3.0 | 1.9 | ||
| 2009-06-13T00:01 | 3681 | 653 | 3.0 | 0.1 | ||
| 2009-06-13T00:01 | 3755 | 647 | 2.6 | -1.3 | ||
| 2009-06-13T00:03 | 4383 | 598 | -3.1 | -5.0 | ||
| 2009-06-13T00:04 | 4570 | 584 | -3.7 | -7.4 | ||
| 2009-06-13T00:05 | 4996 | 553 | -7.7 | -10.3 | ||
| 2009-06-13T00:06 | 5209 | 538 | -8.5 | -12.2 | ||
| 2009-06-13T00:07 | 5664 | 507 | -12.5 | -16.5 | ||
| 2009-06-13T00:08 | 5780 | 500 | -12.9 | -16.3 | 255 | 14 |
| 2009-06-13T00:08 | 5810 | 498 | -13.1 | -16.5 | ||
| 2009-06-13T00:08 | 5933 | 490 | -14.1 | -18.8 | ||
| 2009-06-13T00:10 | 6376 | 462 | -17.3 | -21.0 | ||
| 2009-06-13T00:11 | 6874 | 432 | -20.3 | -31.3 | ||
| 2009-06-13T00:11 | 6926 | 429 | -20.5 | -27.5 | ||
| 2009-06-13T00:12 | 7151 | 416 | -22.5 | -27.5 | ||
| 2009-06-13T00:13 | 7450 | 400 | -23.7 | -28.7 | 270 | 16 |
| 2009-06-13T00:14 | 7579 | 393 | -23.7 | -29.7 | ||
| 2009-06-13T00:15 | 8054 | 368 | -27.7 | -34.7 | ||
| 2009-06-13T00:17 | 8658 | 338 | -32.1 | -38.1 | ||
| 2009-06-13T00:19 | 9106 | 317 | -35.7 | -42.7 | ||
| 2009-06-13T00:20 | 9490 | 300 | -38.3 | -45.3 | 260 | 35 |
| 2009-06-13T00:23 | 10608 | 254 | -47.9 | -54.9 | ||
| 2009-06-13T00:24 | 10710 | 250 | -48.7 | 260 | 41 | |
| 2009-06-13T00:28 | 11860 | 209 | -57.9 | |||
| 2009-06-13T00:29 | 12140 | 200 | -59.5 | 260 | 50 | |
| 2009-06-13T00:31 | 12865 | 178 | -60.5 | |||
| 2009-06-13T00:32 | 13113 | 171 | -61.9 | |||
| 2009-06-13T00:32 | 13334 | 165 | -61.3 | |||
| 2009-06-13T00:33 | 13410 | 163 | -59.5 | |||
| 2009-06-13T00:33 | 13448 | 162 | -59.5 | |||
| 2009-06-13T00:33 | 13526 | 160 | -58.5 | |||
| 2009-06-13T00:33 | 13645 | 157 | -58.5 | |||
| 2009-06-13T00:34 | 13940 | 150 | -56.9 | 255 | 34 | |
| 2009-06-13T00:35 | 14153 | 145 | -58.1 | |||
| 2009-06-13T00:36 | 14555 | 136 | -58.5 | |||
| 2009-06-13T00:38 | 14884 | 129 | -60.9 | |||
| 2009-06-13T00:39 | 15330 | 120 | -63.1 | |||
| 2009-06-13T00:41 | 15974 | 108 | -64.3 | |||
| 2009-06-13T00:41 | 16088 | 106 | -63.1 | |||
| 2009-06-13T00:43 | 16450 | 100 | -63.7 | 250 | 26 | |
| 2009-06-13T11:01 | 1611 | 840 | 11.2 | 10.4 | 0 | 0 |
| 2009-06-13T11:01 | 1701 | 831 | 12.0 | 11.5 | ||
| 2009-06-13T11:03 | 2366 | 767 | 10.4 | 8.0 | ||
| 2009-06-13T11:05 | 2740 | 733 | 8.0 | 6.7 | ||
| 2009-06-13T11:06 | 3127 | 700 | 6.2 | 3.6 | 210 | 8 |
| 2009-06-13T11:07 | 3387 | 678 | 4.6 | 1.7 | ||
| 2009-06-13T11:07 | 3520 | 667 | 4.4 | 1.2 | ||
| 2009-06-13T11:08 | 3655 | 656 | 4.0 | -1.0 | ||
| 2009-06-13T11:09 | 4186 | 614 | -0.3 | -5.3 | ||
| 2009-06-13T11:10 | 4330 | 603 | -1.3 | -8.3 | ||
| 2009-06-13T11:13 | 5381 | 527 | -10.5 | -12.7 | ||
| 2009-06-13T11:14 | 5557 | 515 | -11.3 | -12.7 | ||
| 2009-06-13T11:15 | 5800 | 500 | -12.5 | -14.3 | 255 | 16 |
| 2009-06-13T11:15 | 5969 | 489 | -13.1 | -15.6 | ||
| 2009-06-13T11:18 | 6864 | 434 | -19.5 | -22.8 | ||
| 2009-06-13T11:19 | 7195 | 415 | -20.9 | -25.8 | ||
| 2009-06-13T11:20 | 7392 | 404 | -22.1 | -30.1 | ||
| 2009-06-13T11:20 | 7470 | 400 | -22.7 | -31.7 | 255 | 18 |
| 2009-06-13T11:21 | 7673 | 389 | -24.3 | -37.3 | ||
| 2009-06-13T11:22 | 7957 | 374 | -26.7 | -38.7 | ||
| 2009-06-13T11:22 | 8132 | 365 | -27.5 | -47.5 | ||
| 2009-06-13T11:23 | 8391 | 352 | -28.9 | -47.9 | ||
| 2009-06-13T11:24 | 8679 | 338 | -31.5 | -48.5 | ||
| 2009-06-13T11:25 | 8784 | 333 | -32.3 | -42.3 | ||
| 2009-06-13T11:25 | 8912 | 327 | -33.3 | -41.3 | ||
| 2009-06-13T11:27 | 9510 | 300 | -38.7 | -45.7 | 245 | 27 |
| 2009-06-13T11:28 | 9883 | 284 | -42.1 | -49.1 | ||
| 2009-06-13T11:30 | 10549 | 257 | -47.5 | -56.5 | ||
| 2009-06-13T11:31 | 10740 | 250 | -48.7 | 250 | 36 | |
| 2009-06-13T11:34 | 11568 | 220 | -53.9 | |||
| 2009-06-13T11:34 | 11745 | 214 | -54.1 | |||
| 2009-06-13T11:35 | 12050 | 204 | -55.9 | |||
| 2009-06-13T11:36 | 12180 | 200 | -56.9 | 255 | 62 | |
| 2009-06-13T11:39 | 13084 | 173 | -62.5 | |||
| 2009-06-13T11:41 | 13960 | 150 | -65.1 | 255 | 47 | |
| 2009-06-13T11:42 | 14042 | 148 | -65.3 | |||
| 2009-06-13T11:42 | 14209 | 144 | -62.9 | |||
| 2009-06-13T11:43 | 14382 | 140 | -61.9 | |||
| 2009-06-13T11:45 | 15079 | 125 | -63.3 | |||
| 2009-06-13T11:46 | 15381 | 119 | -62.5 | |||
| 2009-06-13T11:48 | 15807 | 111 | -64.9 | |||
| 2009-06-13T11:48 | 15918 | 109 | -63.7 | |||
| 2009-06-13T11:48 | 16088 | 106 | -64.5 | |||
| 2009-06-13T11:49 | 16204 | 104 | -63.1 | |||
| 2009-06-13T11:49 | 16323 | 102 | -63.7 | |||
| 2009-06-13T11:50 | 16450 | 100 | -63.1 | 250 | 20 | |
| 2009-06-13T23:01 | 1611 | 835 | 21.2 | 8.2 | 50 | 5 |
| 2009-06-13T23:02 | 1798 | 817 | 19.0 | 5.0 | ||
| 2009-06-13T23:02 | 1966 | 801 | 18.0 | 5.0 | ||
| 2009-06-13T23:03 | 2267 | 773 | 15.8 | 7.8 | ||
| 2009-06-13T23:06 | 3107 | 700 | 8.2 | 6.5 | 160 | 7 |
| 2009-06-13T23:06 | 3213 | 691 | 7.2 | 6.3 | ||
| 2009-06-13T23:07 | 3380 | 677 | 6.4 | 6.2 | ||
| 2009-06-13T23:07 | 3489 | 668 | 5.8 | 3.3 | ||
| 2009-06-13T23:08 | 3698 | 651 | 4.2 | 1.8 | ||
| 2009-06-13T23:08 | 3823 | 641 | 3.8 | -0.1 | ||
| 2009-06-13T23:10 | 4500 | 589 | -1.9 | -6.4 | ||
| 2009-06-13T23:12 | 5110 | 545 | -6.7 | -9.3 | ||
| 2009-06-13T23:14 | 5459 | 521 | -9.5 | -12.5 | ||
| 2009-06-13T23:14 | 5714 | 504 | -10.9 | -15.9 | ||
| 2009-06-13T23:15 | 5790 | 500 | -11.3 | -17.3 | 240 | 15 |
| 2009-06-13T23:16 | 6180 | 475 | -13.9 | -18.9 | ||
| 2009-06-13T23:17 | 6636 | 447 | -18.1 | -22.6 | ||
| 2009-06-13T23:18 | 6787 | 438 | -19.3 | -22.5 | ||
| 2009-06-13T23:20 | 7274 | 410 | -21.7 | -24.5 | ||
| 2009-06-13T23:20 | 7460 | 400 | -23.1 | -26.2 | 220 | 20 |
| 2009-06-13T23:23 | 8280 | 357 | -29.1 | -33.6 | ||
| 2009-06-13T23:27 | 9500 | 300 | -39.1 | -46.1 | 215 | 22 |
| 2009-06-13T23:31 | 10720 | 250 | -50.1 | -57.1 | 230 | 27 |
| 2009-06-13T23:32 | 11176 | 233 | -54.1 | |||
| 2009-06-13T23:33 | 11342 | 227 | -54.3 | |||
| 2009-06-13T23:34 | 11658 | 216 | -56.5 | |||
| 2009-06-13T23:34 | 11717 | 214 | -55.7 | |||
| 2009-06-13T23:34 | 11807 | 211 | -55.9 | |||
| 2009-06-13T23:35 | 12082 | 202 | -57.7 | |||
| 2009-06-13T23:36 | 12150 | 200 | -57.3 | -64.3 | 240 | 47 |
| 2009-06-13T23:36 | 12408 | 192 | -56.1 | |||
| 2009-06-13T23:37 | 12677 | 184 | -56.9 | |||
| 2009-06-13T23:41 | 13754 | 155 | -59.3 | |||
| 2009-06-13T23:41 | 13960 | 150 | -60.1 | -69.1 | 240 | 36 |
| 2009-06-13T23:42 | 14002 | 149 | -60.3 | |||
| 2009-06-13T23:42 | 14172 | 145 | -56.9 | |||
| 2009-06-13T23:44 | 14667 | 134 | -59.9 | |||
| 2009-06-13T23:44 | 14761 | 132 | -59.5 | |||
| 2009-06-13T23:44 | 14857 | 130 | -57.7 | |||
| 2009-06-13T23:45 | 14955 | 128 | -57.7 | |||
| 2009-06-13T23:48 | 15949 | 109 | -65.1 | |||
| 2009-06-13T23:48 | 16062 | 107 | -64.5 | |||
| 2009-06-13T23:49 | 16177 | 105 | -62.9 | |||
| 2009-06-13T23:50 | 16480 | 100 | -62.9 | -72.9 | 270 | 22 |
| 2009-06-14T11:03 | 1611 | 838 | 11.8 | 11.3 | 340 | 2 |
| 2009-06-14T11:04 | 1903 | 809 | 9.8 | 9.8 | ||
| 2009-06-14T11:04 | 1965 | 803 | 10.4 | 10.3 | ||
| 2009-06-14T11:04 | 2027 | 797 | 10.8 | 8.1 | ||
| 2009-06-14T11:05 | 2121 | 788 | 12.0 | 7.8 | ||
| 2009-06-14T11:05 | 2195 | 781 | 11.6 | 7.2 | ||
| 2009-06-14T11:05 | 2335 | 768 | 11.8 | 3.8 | ||
| 2009-06-14T11:06 | 2422 | 760 | 14.0 | 1.0 | ||
| 2009-06-14T11:06 | 2466 | 756 | 14.2 | 0.2 | ||
| 2009-06-14T11:08 | 3113 | 700 | 8.6 | -3.4 | 300 | 5 |
| 2009-06-14T11:10 | 3879 | 637 | 1.6 | -7.4 | ||
| 2009-06-14T11:13 | 4730 | 572 | -6.5 | -10.3 | ||
| 2009-06-14T11:14 | 4895 | 560 | -7.1 | -14.1 | ||
| 2009-06-14T11:14 | 5035 | 550 | -6.9 | -21.9 | ||
| 2009-06-14T11:15 | 5121 | 544 | -4.9 | -34.9 | ||
| 2009-06-14T11:15 | 5193 | 539 | -4.9 | -37.9 | ||
| 2009-06-14T11:17 | 5730 | 503 | -9.7 | -29.7 | ||
| 2009-06-14T11:17 | 5790 | 500 | -9.9 | -30.9 | 255 | 18 |
| 2009-06-14T11:18 | 6039 | 484 | -11.9 | -35.9 | ||
| 2009-06-14T11:19 | 6573 | 451 | -16.3 | -30.3 | ||
| 2009-06-14T11:21 | 7032 | 424 | -20.5 | -34.5 | ||
| 2009-06-14T11:21 | 7226 | 413 | -21.9 | -37.9 | ||
| 2009-06-14T11:22 | 7460 | 400 | -23.3 | -32.3 | 245 | 25 |
| 2009-06-14T11:22 | 7478 | 399 | -23.3 | -32.3 | ||
| 2009-06-14T11:25 | 8378 | 352 | -31.1 | -38.1 | ||
| 2009-06-14T11:27 | 8937 | 325 | -35.3 | -44.3 | ||
| 2009-06-14T11:28 | 9154 | 315 | -36.1 | -48.1 | ||
| 2009-06-14T11:29 | 9500 | 300 | -38.9 | -50.9 | 240 | 39 |
| 2009-06-14T11:33 | 10720 | 250 | -49.3 | -60.3 | 235 | 42 |
| 2009-06-14T11:34 | 11121 | 235 | -52.9 | -62.9 | ||
| 2009-06-14T11:35 | 11343 | 227 | -54.5 | -64.5 | ||
| 2009-06-14T11:36 | 11629 | 217 | -56.7 | |||
| 2009-06-14T11:38 | 12150 | 200 | -59.1 | 240 | 49 | |
| 2009-06-14T11:39 | 12738 | 182 | -60.5 | |||
| 2009-06-14T11:40 | 12911 | 177 | -61.3 | |||
| 2009-06-14T11:40 | 13017 | 174 | -61.1 | |||
| 2009-06-14T11:41 | 13236 | 168 | -58.7 | |||
| 2009-06-14T11:43 | 13660 | 157 | -59.1 | |||
| 2009-06-14T11:43 | 13740 | 155 | -57.7 | |||
| 2009-06-14T11:43 | 13940 | 150 | -57.5 | 240 | 33 | |
| 2009-06-14T11:44 | 13982 | 149 | -57.1 | |||
| 2009-06-14T11:46 | 14834 | 130 | -61.3 | |||
| 2009-06-14T11:47 | 15028 | 126 | -60.7 | |||
| 2009-06-14T11:49 | 15591 | 115 | -63.7 | |||
| 2009-06-14T11:49 | 15698 | 113 | -63.7 | |||
| 2009-06-14T11:50 | 15808 | 111 | -61.5 | |||
| 2009-06-14T11:50 | 16035 | 107 | -60.9 | |||
| 2009-06-14T11:51 | 16211 | 104 | -61.5 | |||
| 2009-06-14T11:52 | 16470 | 100 | -60.1 | 260 | 11 | |
| 2009-06-14T23:35 | 1611 | 835 | 15.8 | 11.4 | 135 | 5 |
| 2009-06-14T23:35 | 1733 | 823 | 15.6 | 4.6 | ||
| 2009-06-14T23:36 | 1795 | 817 | 16.0 | 4.0 | ||
| 2009-06-14T23:38 | 2579 | 744 | 11.4 | -0.6 | ||
| 2009-06-14T23:39 | 2737 | 730 | 11.4 | -1.6 | ||
| 2009-06-14T23:40 | 3096 | 700 | 8.6 | -2.4 | 230 | 8 |
| 2009-06-14T23:41 | 3527 | 664 | 4.6 | -2.4 | ||
| 2009-06-14T23:43 | 4054 | 622 | 1.4 | -7.6 | ||
| 2009-06-14T23:45 | 4515 | 587 | -2.9 | -8.9 | ||
| 2009-06-14T23:46 | 4815 | 565 | -5.7 | -9.1 | ||
| 2009-06-14T23:47 | 5210 | 537 | -8.5 | -11.1 | ||
| 2009-06-14T23:47 | 5268 | 533 | -8.3 | -12.8 | ||
| 2009-06-14T23:48 | 5458 | 520 | -9.9 | -14.2 | ||
| 2009-06-14T23:49 | 5770 | 500 | -11.5 | -17.5 | 235 | 23 |
| 2009-06-14T23:49 | 5908 | 491 | -12.7 | -19.7 | ||
| 2009-06-14T23:49 | 6001 | 485 | -13.3 | -19.3 | ||
| 2009-06-14T23:50 | 6095 | 479 | -14.1 | -23.1 | ||
| 2009-06-14T23:51 | 6449 | 457 | -17.1 | -25.1 | ||
| 2009-06-14T23:51 | 6531 | 452 | -17.5 | -23.5 | ||
| 2009-06-14T23:51 | 6614 | 447 | -18.3 | -26.3 | ||
| 2009-06-14T23:52 | 6782 | 437 | -19.5 | -27.5 | ||
| 2009-06-14T23:53 | 6953 | 427 | -20.9 | -30.9 | ||
| 2009-06-14T23:53 | 7076 | 420 | -21.5 | -33.5 | ||
| 2009-06-14T23:53 | 7216 | 412 | -22.7 | -30.7 | ||
| 2009-06-14T23:54 | 7440 | 400 | -24.1 | -31.1 | 230 | 23 |
| 2009-06-14T23:54 | 7458 | 399 | -24.3 | -31.3 | ||
| 2009-06-14T23:55 | 7679 | 387 | -25.5 | -37.5 | ||
| 2009-06-14T23:55 | 7716 | 385 | -25.5 | -42.5 | ||
| 2009-06-14T23:55 | 7848 | 378 | -26.7 | -51.7 | ||
| 2009-06-14T23:57 | 8197 | 360 | -29.9 | -57.9 | ||
| 2009-06-14T23:57 | 8458 | 347 | -30.7 | -62.7 | ||
| 2009-06-15T00:01 | 9480 | 300 | -39.5 | -66.5 | 245 | 29 |
| 2009-06-15T00:04 | 10312 | 265 | -47.3 | -65.3 | ||
| 2009-06-15T00:05 | 10690 | 250 | -50.3 | -66.3 | 240 | 34 |
| 2009-06-15T00:05 | 10874 | 243 | -51.5 | -66.5 | ||
| 2009-06-15T00:06 | 10981 | 239 | -51.5 | -66.5 | ||
| 2009-06-15T00:07 | 11313 | 227 | -53.9 | -67.9 | ||
| 2009-06-15T00:09 | 11901 | 207 | -55.7 | -68.7 | ||
| 2009-06-15T00:09 | 12026 | 203 | -56.7 | -69.7 | ||
| 2009-06-15T00:09 | 12130 | 200 | -56.7 | -69.7 | 220 | 29 |
| 2009-06-15T00:10 | 12355 | 193 | -56.9 | -69.9 | ||
| 2009-06-15T00:12 | 12900 | 177 | -57.9 | -70.9 | ||
| 2009-06-15T00:13 | 13190 | 169 | -59.1 | -71.1 | ||
| 2009-06-15T00:13 | 13340 | 165 | -57.9 | -70.9 | ||
| 2009-06-15T00:14 | 13494 | 161 | -58.1 | -71.1 | ||
| 2009-06-15T00:14 | 13612 | 158 | -57.5 | -70.5 | ||
| 2009-06-15T00:15 | 13940 | 150 | -58.5 | -71.5 | 220 | 24 |
| 2009-06-15T00:17 | 14414 | 139 | -61.3 | -73.3 | ||
| 2009-06-15T00:18 | 14595 | 135 | -60.5 | -72.5 | ||
| 2009-06-15T00:18 | 14781 | 131 | -61.7 | -73.7 | ||
| 2009-06-15T00:20 | 15373 | 119 | -62.3 | -74.3 | ||
| 2009-06-15T00:21 | 15584 | 115 | -60.9 | -72.9 | ||
| 2009-06-15T00:22 | 15803 | 111 | -61.7 | -73.7 | ||
| 2009-06-15T00:22 | 15916 | 109 | -60.3 | -72.3 | ||
| 2009-06-15T00:22 | 16031 | 107 | -60.5 | -72.5 | ||
| 2009-06-15T00:24 | 16450 | 100 | -63.3 | -74.3 | 245 | 14 |
| 2009-06-15T11:04 | 1611 | 836 | 11.0 | 9.9 | 0 | 0 |
| 2009-06-15T11:04 | 1661 | 831 | 12.0 | 10.7 | ||
| 2009-06-15T11:05 | 1792 | 818 | 11.4 | 9.6 | ||
| 2009-06-15T11:05 | 2030 | 795 | 13.2 | 8.2 | ||
| 2009-06-15T11:06 | 2189 | 780 | 12.0 | 7.0 | ||
| 2009-06-15T11:07 | 2383 | 762 | 10.6 | 7.5 | ||
| 2009-06-15T11:07 | 2526 | 749 | 11.0 | 6.0 | ||
| 2009-06-15T11:08 | 2876 | 718 | 9.8 | 0.8 | ||
| 2009-06-15T11:09 | 3003 | 707 | 8.8 | 2.8 | ||
| 2009-06-15T11:09 | 3091 | 700 | 8.4 | 0.4 | 225 | 8 |
| 2009-06-15T11:09 | 3209 | 690 | 8.2 | -1.8 | ||
| 2009-06-15T11:14 | 4591 | 581 | -4.1 | -11.1 | ||
| 2009-06-15T11:15 | 4935 | 556 | -7.1 | -15.1 | ||
| 2009-06-15T11:18 | 5760 | 500 | -14.7 | -19.1 | 240 | 14 |
| 2009-06-15T11:19 | 6177 | 473 | -17.3 | -24.3 | ||
| 2009-06-15T11:20 | 6353 | 462 | -18.1 | -29.1 | ||
| 2009-06-15T11:20 | 6516 | 452 | -19.1 | -30.1 | ||
| 2009-06-15T11:21 | 6800 | 435 | -20.7 | -32.7 | ||
| 2009-06-15T11:22 | 6989 | 424 | -21.1 | -42.1 | ||
| 2009-06-15T11:23 | 7420 | 400 | -24.1 | -47.1 | 230 | 19 |
| 2009-06-15T11:24 | 7622 | 389 | -25.7 | -45.7 | ||
| 2009-06-15T11:25 | 7943 | 372 | -28.5 | -38.5 | ||
| 2009-06-15T11:25 | 8157 | 361 | -30.1 | -39.1 | ||
| 2009-06-15T11:26 | 8256 | 356 | -30.7 | -35.7 | ||
| 2009-06-15T11:26 | 8356 | 351 | -31.5 | -35.4 | ||
| 2009-06-15T11:30 | 9450 | 300 | -39.9 | -43.6 | 235 | 29 |
| 2009-06-15T11:30 | 9610 | 293 | -41.3 | -44.9 | ||
| 2009-06-15T11:32 | 10110 | 272 | -44.7 | -49.7 | ||
| 2009-06-15T11:34 | 10670 | 250 | -49.7 | 245 | 36 | |
| 2009-06-15T11:36 | 11264 | 228 | -54.7 | |||
| 2009-06-15T11:38 | 12090 | 200 | -60.7 | 240 | 36 | |
| 2009-06-15T11:39 | 12279 | 194 | -61.7 | |||
| 2009-06-15T11:39 | 12343 | 192 | -60.1 | |||
| 2009-06-15T11:40 | 12710 | 181 | -59.7 | |||
| 2009-06-15T11:41 | 12957 | 174 | -57.7 | |||
| 2009-06-15T11:42 | 13330 | 164 | -57.5 | |||
| 2009-06-15T11:43 | 13526 | 159 | -56.7 | |||
| 2009-06-15T11:44 | 13900 | 150 | -56.9 | 245 | 27 | |
| 2009-06-15T11:46 | 14522 | 136 | -54.9 | |||
| 2009-06-15T11:47 | 14809 | 130 | -55.5 | |||
| 2009-06-15T11:48 | 15007 | 126 | -57.5 | |||
| 2009-06-15T11:48 | 15108 | 124 | -57.3 | |||
| 2009-06-15T11:51 | 15801 | 111 | -60.3 | |||
| 2009-06-15T11:51 | 15857 | 110 | -60.3 | |||
| 2009-06-15T11:53 | 16450 | 100 | -61.1 | 255 | 18 | |
| 2009-06-15T23:06 | 1611 | 834 | 21.4 | 5.4 | 160 | 2 |
| 2009-06-15T23:07 | 1787 | 817 | 18.4 | 3.4 | ||
| 2009-06-15T23:09 | 2529 | 748 | 11.6 | 0.6 | ||
| 2009-06-15T23:10 | 2903 | 715 | 9.2 | -2.8 | ||
| 2009-06-15T23:11 | 3090 | 700 | 7.6 | -3.4 | 270 | 4 |
| 2009-06-15T23:13 | 3766 | 644 | 1.4 | -5.6 | ||
| 2009-06-15T23:15 | 4290 | 603 | -1.9 | -8.9 | ||
| 2009-06-15T23:16 | 4788 | 566 | -6.1 | -13.1 | ||
| 2009-06-15T23:18 | 5224 | 535 | -9.7 | -14.0 | ||
| 2009-06-15T23:19 | 5560 | 512 | -12.5 | -17.2 | ||
| 2009-06-15T23:19 | 5710 | 502 | -13.3 | -19.3 | ||
| 2009-06-15T23:20 | 5750 | 500 | -13.3 | -21.3 | 245 | 21 |
| 2009-06-15T23:20 | 5780 | 498 | -13.5 | -22.5 | ||
| 2009-06-15T23:20 | 5841 | 494 | -13.7 | -20.7 | ||
| 2009-06-15T23:21 | 6043 | 481 | -13.9 | -20.9 | ||
| 2009-06-15T23:21 | 6250 | 468 | -15.5 | -22.5 | ||
| 2009-06-15T23:22 | 6445 | 456 | -15.9 | -24.9 | ||
| 2009-06-15T23:25 | 7420 | 400 | -23.7 | -33.7 | 245 | 20 |
| 2009-06-15T23:29 | 8683 | 335 | -34.9 | -43.9 | ||
| 2009-06-15T23:30 | 8957 | 322 | -36.7 | -51.7 | ||
| 2009-06-15T23:31 | 9241 | 309 | -37.1 | -57.1 | ||
| 2009-06-15T23:32 | 9450 | 300 | -38.1 | -61.1 | 245 | 34 |
| 2009-06-15T23:32 | 9542 | 296 | -38.7 | -61.7 | ||
| 2009-06-15T23:34 | 10238 | 267 | -45.3 | -59.3 | ||
| 2009-06-15T23:36 | 10680 | 250 | -48.5 | -62.5 | 250 | 36 |
| 2009-06-15T23:39 | 11689 | 214 | -53.3 | -66.3 | ||
| 2009-06-15T23:40 | 11996 | 204 | -54.3 | -66.3 | ||
| 2009-06-15T23:40 | 12120 | 200 | -53.5 | -66.5 | 240 | 29 |
| 2009-06-15T23:41 | 12217 | 197 | -53.1 | -66.1 | ||
| 2009-06-15T23:43 | 12974 | 175 | -55.5 | -68.5 | ||
| 2009-06-15T23:44 | 13348 | 165 | -55.5 | -68.5 | ||
| 2009-06-15T23:46 | 13960 | 150 | -57.7 | -70.7 | 245 | 22 |
| 2009-06-15T23:48 | 14349 | 141 | -58.5 | -71.5 | ||
| 2009-06-15T23:52 | 15792 | 112 | -58.7 | -71.7 | ||
| 2009-06-15T23:53 | 16019 | 108 | -60.1 | -73.1 | ||
| 2009-06-15T23:54 | 16195 | 105 | -59.5 | -72.5 | ||
| 2009-06-15T23:55 | 16500 | 100 | -61.1 | -73.1 | 205 | 10 |
| 2009-06-16T11:02 | 1611 | 836 | 10.8 | 7.5 | 295 | 1 |
| 2009-06-16T11:02 | 1701 | 827 | 12.6 | 4.6 | ||
| 2009-06-16T11:02 | 1762 | 821 | 13.4 | 5.4 | ||
| 2009-06-16T11:03 | 1844 | 813 | 13.8 | 4.8 | ||
| 2009-06-16T11:03 | 1990 | 799 | 16.4 | 3.4 | ||
| 2009-06-16T11:03 | 2032 | 795 | 16.6 | 2.6 | ||
| 2009-06-16T11:07 | 3103 | 700 | 8.0 | -5.0 | 260 | 5 |
| 2009-06-16T11:07 | 3233 | 689 | 7.2 | -6.8 | ||
| 2009-06-16T11:11 | 4227 | 609 | -1.9 | -9.9 | ||
| 2009-06-16T11:12 | 4531 | 586 | -3.3 | -15.3 | ||
| 2009-06-16T11:13 | 5027 | 550 | -7.5 | -20.5 | ||
| 2009-06-16T11:14 | 5372 | 526 | -9.1 | -29.1 | ||
| 2009-06-16T11:16 | 5770 | 500 | -12.5 | -24.5 | 260 | 15 |
| 2009-06-16T11:17 | 6048 | 482 | -14.5 | -22.5 | ||
| 2009-06-16T11:20 | 6951 | 427 | -21.1 | -34.1 | ||
| 2009-06-16T11:21 | 7303 | 407 | -22.3 | -46.3 | ||
| 2009-06-16T11:21 | 7339 | 405 | -22.5 | -41.5 | ||
| 2009-06-16T11:21 | 7376 | 403 | -22.9 | -35.9 | ||
| 2009-06-16T11:21 | 7440 | 400 | -23.3 | -33.3 | 250 | 22 |
| 2009-06-16T11:21 | 7477 | 398 | -23.7 | -32.7 | ||
| 2009-06-16T11:22 | 7831 | 379 | -26.9 | -33.9 | ||
| 2009-06-16T11:23 | 7946 | 373 | -26.9 | -30.8 | ||
| 2009-06-16T11:24 | 8402 | 350 | -29.1 | -32.3 | ||
| 2009-06-16T11:28 | 9480 | 300 | -38.7 | -43.6 | 255 | 33 |
| 2009-06-16T11:28 | 9618 | 294 | -40.1 | -45.1 | ||
| 2009-06-16T11:32 | 10710 | 250 | -48.5 | -55.5 | 255 | 36 |
| 2009-06-16T11:36 | 12105 | 201 | -59.9 | |||
| 2009-06-16T11:37 | 12140 | 200 | -59.9 | -65.9 | 265 | 44 |
| 2009-06-16T11:38 | 12626 | 185 | -60.1 | |||
| 2009-06-16T11:38 | 12727 | 182 | -59.7 | |||
| 2009-06-16T11:39 | 12902 | 177 | -56.7 | |||
| 2009-06-16T11:40 | 13231 | 168 | -57.7 | |||
| 2009-06-16T11:41 | 13422 | 163 | -56.7 | |||
| 2009-06-16T11:42 | 13821 | 153 | -57.9 | |||
| 2009-06-16T11:42 | 13950 | 150 | -57.7 | -64.7 | 245 | 26 |
| 2009-06-16T11:44 | 14385 | 140 | -56.9 | |||
| 2009-06-16T11:48 | 15611 | 115 | -62.7 | |||
| 2009-06-16T11:48 | 15774 | 112 | -61.7 | |||
| 2009-06-16T11:50 | 16113 | 106 | -63.3 | |||
| 2009-06-16T11:50 | 16289 | 103 | -62.9 | |||
| 2009-06-16T11:51 | 16470 | 100 | -63.7 | -71.7 | 250 | 14 |
| 2009-06-16T23:01 | 1611 | 834 | 26.4 | 4.4 | 160 | 4 |
| 2009-06-16T23:01 | 1674 | 828 | 25.8 | 3.8 | ||
| 2009-06-16T23:03 | 2312 | 769 | 18.8 | 1.8 | ||
| 2009-06-16T23:06 | 3113 | 700 | 11.0 | 1.0 | 175 | 4 |
| 2009-06-16T23:07 | 3523 | 666 | 7.2 | -0.8 | ||
| 2009-06-16T23:11 | 4718 | 574 | -3.1 | -6.7 | ||
| 2009-06-16T23:12 | 4983 | 555 | -4.3 | -7.6 | ||
| 2009-06-16T23:15 | 5762 | 502 | -10.3 | -13.5 | ||
| 2009-06-16T23:15 | 5810 | 500 | -10.5 | -13.6 | 255 | 16 |
| 2009-06-16T23:15 | 5980 | 489 | -12.1 | -13.8 | ||
| 2009-06-16T23:16 | 6153 | 478 | -13.3 | -15.7 | ||
| 2009-06-16T23:18 | 6915 | 432 | -17.3 | -21.7 | ||
| 2009-06-16T23:19 | 7179 | 417 | -17.7 | -23.7 | ||
| 2009-06-16T23:20 | 7490 | 400 | -20.1 | -25.1 | 250 | 25 |
| 2009-06-16T23:21 | 7583 | 395 | -20.5 | -25.2 | ||
| 2009-06-16T23:27 | 9390 | 307 | -34.7 | -42.7 | ||
| 2009-06-16T23:27 | 9560 | 300 | -36.3 | -44.3 | 245 | 27 |
| 2009-06-16T23:28 | 9793 | 290 | -38.5 | -46.5 | ||
| 2009-06-16T23:31 | 10790 | 250 | -47.3 | 245 | 35 | |
| 2009-06-16T23:32 | 10923 | 245 | -48.5 | |||
| 2009-06-16T23:36 | 12230 | 200 | -58.3 | 250 | 41 | |
| 2009-06-16T23:37 | 12551 | 190 | -59.9 | |||
| 2009-06-16T23:37 | 12650 | 187 | -59.9 | |||
| 2009-06-16T23:37 | 12717 | 185 | -58.9 | |||
| 2009-06-16T23:39 | 13244 | 170 | -60.7 | |||
| 2009-06-16T23:40 | 13466 | 164 | -61.5 | |||
| 2009-06-16T23:40 | 13580 | 161 | -61.1 | |||
| 2009-06-16T23:41 | 13697 | 158 | -59.1 | |||
| 2009-06-16T23:42 | 14030 | 150 | -59.7 | 240 | 30 | |
| 2009-06-16T23:43 | 14371 | 142 | -60.1 | |||
| 2009-06-16T23:44 | 14684 | 135 | -61.7 | |||
| 2009-06-16T23:45 | 14917 | 130 | -61.3 | |||
| 2009-06-16T23:46 | 15462 | 119 | -62.5 | |||
| 2009-06-16T23:47 | 15726 | 114 | -61.9 | |||
| 2009-06-16T23:49 | 16349 | 103 | -63.7 | |||
| 2009-06-16T23:50 | 16540 | 100 | -63.1 | 245 | 14 | |
| 2009-06-17T11:07 | 1611 | 837 | 12.0 | 8.7 | 205 | 3 |
| 2009-06-17T11:07 | 1661 | 832 | 13.8 | 5.8 | ||
| 2009-06-17T11:07 | 1701 | 828 | 15.0 | 6.0 | ||
| 2009-06-17T11:08 | 1803 | 818 | 16.2 | 6.2 | ||
| 2009-06-17T11:09 | 2280 | 773 | 14.6 | 3.6 | ||
| 2009-06-17T11:10 | 2622 | 742 | 12.2 | 2.2 | ||
| 2009-06-17T11:11 | 2918 | 716 | 9.6 | 3.6 | ||
| 2009-06-17T11:12 | 3011 | 708 | 8.8 | 6.4 | ||
| 2009-06-17T11:12 | 3046 | 705 | 8.6 | 6.6 | ||
| 2009-06-17T11:12 | 3112 | 700 | 9.2 | 4.2 | 225 | 5 |
| 2009-06-17T11:12 | 3219 | 691 | 9.4 | 0.4 | ||
| 2009-06-17T11:14 | 3596 | 660 | 7.2 | -3.8 | ||
| 2009-06-17T11:17 | 4801 | 568 | -3.7 | -8.0 | ||
| 2009-06-17T11:18 | 5096 | 547 | -5.9 | -10.8 | ||
| 2009-06-17T11:19 | 5269 | 535 | -7.5 | -11.2 | ||
| 2009-06-17T11:21 | 5729 | 504 | -10.9 | -15.9 | ||
| 2009-06-17T11:21 | 5800 | 500 | -11.5 | -16.5 | 235 | 20 |
| 2009-06-17T11:21 | 5939 | 491 | -12.1 | -18.1 | ||
| 2009-06-17T11:21 | 6001 | 487 | -11.9 | -16.7 | ||
| 2009-06-17T11:22 | 6080 | 482 | -11.5 | -17.5 | ||
| 2009-06-17T11:22 | 6256 | 471 | -11.9 | -19.9 | ||
| 2009-06-17T11:23 | 6370 | 464 | -12.7 | -18.7 | ||
| 2009-06-17T11:23 | 6485 | 457 | -13.5 | -21.5 | ||
| 2009-06-17T11:24 | 6669 | 446 | -15.3 | -20.3 | ||
| 2009-06-17T11:26 | 7351 | 407 | -20.5 | -25.0 | ||
| 2009-06-17T11:26 | 7490 | 400 | -21.1 | -27.1 | 230 | 27 |
| 2009-06-17T11:27 | 7770 | 385 | -23.1 | -29.1 | ||
| 2009-06-17T11:28 | 7923 | 377 | -23.5 | -34.5 | ||
| 2009-06-17T11:30 | 8521 | 347 | -28.5 | -40.5 | ||
| 2009-06-17T11:32 | 9181 | 316 | -34.7 | -43.7 | ||
| 2009-06-17T11:33 | 9550 | 300 | -37.7 | -46.7 | 230 | 30 |
| 2009-06-17T11:34 | 9972 | 282 | -41.7 | -50.7 | ||
| 2009-06-17T11:35 | 10215 | 272 | -43.1 | -52.1 | ||
| 2009-06-17T11:37 | 10770 | 250 | -48.5 | 220 | 31 | |
| 2009-06-17T11:40 | 11828 | 212 | -58.1 | |||
| 2009-06-17T11:41 | 11978 | 207 | -58.1 | |||
| 2009-06-17T11:42 | 12200 | 200 | -59.3 | 230 | 36 | |
| 2009-06-17T11:43 | 12584 | 188 | -62.1 | |||
| 2009-06-17T11:44 | 12784 | 182 | -61.9 | |||
| 2009-06-17T11:45 | 13350 | 166 | -62.9 | |||
| 2009-06-17T11:46 | 13500 | 162 | -61.3 | |||
| 2009-06-17T11:46 | 13577 | 160 | -59.9 | |||
| 2009-06-17T11:47 | 13735 | 156 | -60.1 | |||
| 2009-06-17T11:48 | 13980 | 150 | -61.7 | 235 | 44 | |
| 2009-06-17T11:48 | 14063 | 148 | -61.9 | |||
| 2009-06-17T11:48 | 14233 | 144 | -60.3 | |||
| 2009-06-17T11:49 | 14408 | 140 | -60.9 | |||
| 2009-06-17T11:49 | 14498 | 138 | -59.3 | |||
| 2009-06-17T11:50 | 14823 | 131 | -58.9 | |||
| 2009-06-17T11:51 | 14968 | 128 | -57.5 | |||
| 2009-06-17T11:51 | 15168 | 124 | -57.3 | |||
| 2009-06-17T11:55 | 16200 | 105 | -63.9 | |||
| 2009-06-17T11:56 | 16510 | 100 | -64.3 | 260 | 14 | |
| 2009-06-17T23:03 | 1611 | 833 | 25.0 | 10.0 | 50 | 4 |
| 2009-06-17T23:03 | 1642 | 830 | 24.6 | 10.6 | ||
| 2009-06-17T23:06 | 2635 | 739 | 15.0 | 8.0 | ||
| 2009-06-17T23:07 | 2947 | 712 | 13.0 | 7.0 | ||
| 2009-06-17T23:08 | 3100 | 700 | 12.6 | 3.6 | 125 | 8 |
| 2009-06-17T23:08 | 3232 | 689 | 12.0 | 0.0 | ||
| 2009-06-17T23:12 | 4230 | 610 | 3.2 | -6.8 | ||
| 2009-06-17T23:15 | 5343 | 530 | -7.1 | -9.9 | ||
| 2009-06-17T23:17 | 5810 | 500 | -10.9 | -14.2 | 215 | 15 |
| 2009-06-17T23:17 | 5826 | 499 | -11.1 | -14.3 | ||
| 2009-06-17T23:17 | 5948 | 491 | -12.5 | -14.3 | ||
| 2009-06-17T23:18 | 6231 | 473 | -14.5 | -15.6 | ||
| 2009-06-17T23:20 | 6656 | 447 | -17.1 | -19.1 | ||
| 2009-06-17T23:20 | 6740 | 442 | -18.5 | -20.6 | ||
| 2009-06-17T23:20 | 6876 | 434 | -20.1 | -26.1 | ||
| 2009-06-17T23:21 | 7117 | 420 | -20.7 | -25.4 | ||
| 2009-06-17T23:22 | 7480 | 400 | -23.1 | -28.1 | 235 | 31 |
| 2009-06-17T23:23 | 7758 | 385 | -24.7 | -29.7 | ||
| 2009-06-17T23:23 | 7834 | 381 | -24.9 | -31.9 | ||
| 2009-06-17T23:26 | 8587 | 343 | -30.3 | -42.3 | ||
| 2009-06-17T23:27 | 8989 | 324 | -33.3 | -41.3 | ||
| 2009-06-17T23:29 | 9530 | 300 | -37.9 | -46.9 | 220 | 45 |
| 2009-06-17T23:33 | 10750 | 250 | -48.7 | 215 | 47 | |
| 2009-06-17T23:34 | 11207 | 233 | -52.7 | |||
| 2009-06-17T23:35 | 11318 | 229 | -52.7 | |||
| 2009-06-17T23:36 | 11692 | 216 | -55.7 | |||
| 2009-06-17T23:37 | 11962 | 207 | -56.9 | |||
| 2009-06-17T23:38 | 12148 | 201 | -56.7 | |||
| 2009-06-17T23:38 | 12190 | 200 | -56.9 | 220 | 52 | |
| 2009-06-17T23:39 | 12681 | 185 | -58.3 | |||
| 2009-06-17T23:40 | 12926 | 178 | -55.1 | |||
| 2009-06-17T23:41 | 13217 | 170 | -56.5 | |||
| 2009-06-17T23:42 | 13484 | 163 | -55.3 | |||
| 2009-06-17T23:43 | 13722 | 157 | -55.5 | |||
| 2009-06-17T23:43 | 13886 | 153 | -54.5 | |||
| 2009-06-17T23:44 | 14010 | 150 | -55.1 | 240 | 24 | |
| 2009-06-17T23:45 | 14269 | 144 | -56.9 | |||
| 2009-06-17T23:45 | 14402 | 141 | -56.9 | |||
| 2009-06-17T23:47 | 14910 | 130 | -60.7 | |||
| 2009-06-17T23:48 | 15355 | 121 | -61.1 | |||
| 2009-06-17T23:49 | 15562 | 117 | -63.5 | |||
| 2009-06-17T23:49 | 15668 | 115 | -62.5 | |||
| 2009-06-17T23:50 | 15941 | 110 | -63.1 | |||
| 2009-06-17T23:50 | 16054 | 108 | -60.7 | |||
| 2009-06-17T23:52 | 16540 | 100 | -63.5 | 200 | 10 | |
| 2009-06-18T11:04 | 1611 | 834 | 14.2 | 11.4 | 150 | 2 |
| 2009-06-18T11:04 | 1641 | 831 | 16.4 | 8.4 | ||
| 2009-06-18T11:04 | 1661 | 829 | 17.4 | 7.4 | ||
| 2009-06-18T11:04 | 1712 | 824 | 18.4 | 4.4 | ||
| 2009-06-18T11:05 | 1785 | 817 | 18.2 | 6.2 | ||
| 2009-06-18T11:05 | 1858 | 810 | 18.0 | 3.0 | ||
| 2009-06-18T11:06 | 2210 | 777 | 15.0 | 0.0 | ||
| 2009-06-18T11:08 | 2848 | 720 | 11.8 | -4.2 | ||
| 2009-06-18T11:09 | 3087 | 700 | 9.6 | -5.4 | 225 | 10 |
| 2009-06-18T11:11 | 3895 | 634 | 2.6 | -8.4 | ||
| 2009-06-18T11:17 | 5613 | 509 | -13.1 | -13.8 | ||
| 2009-06-18T11:18 | 5760 | 500 | -14.3 | -14.8 | 235 | 23 |
| 2009-06-18T11:18 | 5821 | 496 | -15.1 | -16.2 | ||
| 2009-06-18T11:18 | 5913 | 490 | -15.1 | -19.0 | ||
| 2009-06-18T11:19 | 6037 | 482 | -14.7 | -19.7 | ||
| 2009-06-18T11:19 | 6132 | 476 | -14.3 | -25.3 | ||
| 2009-06-18T11:21 | 6755 | 438 | -18.9 | -29.9 | ||
| 2009-06-18T11:22 | 7226 | 411 | -21.9 | -32.9 | ||
| 2009-06-18T11:23 | 7369 | 403 | -21.9 | -32.9 | ||
| 2009-06-18T11:23 | 7430 | 400 | -22.3 | -33.3 | 235 | 30 |
| 2009-06-18T11:24 | 7652 | 388 | -23.7 | -35.7 | ||
| 2009-06-18T11:25 | 7919 | 374 | -25.3 | -37.3 | ||
| 2009-06-18T11:26 | 8174 | 361 | -27.3 | -35.3 | ||
| 2009-06-18T11:28 | 8856 | 328 | -31.9 | -40.9 | ||
| 2009-06-18T11:30 | 9480 | 300 | -37.1 | -45.1 | 230 | 46 |
| 2009-06-18T11:33 | 10450 | 260 | -45.1 | |||
| 2009-06-18T11:34 | 10710 | 250 | -46.5 | -55.5 | 220 | 47 |
| 2009-06-18T11:34 | 10763 | 248 | -46.5 | |||
| 2009-06-18T11:36 | 11342 | 227 | -51.5 | |||
| 2009-06-18T11:37 | 11574 | 219 | -51.5 | |||
| 2009-06-18T11:39 | 12160 | 200 | -56.3 | -64.3 | 220 | 56 |
| 2009-06-18T11:39 | 12385 | 193 | -57.9 | |||
| 2009-06-18T11:40 | 12651 | 185 | -58.3 | |||
| 2009-06-18T11:41 | 12788 | 181 | -59.1 | |||
| 2009-06-18T11:42 | 13071 | 173 | -57.7 | |||
| 2009-06-18T11:43 | 13368 | 165 | -58.3 | |||
| 2009-06-18T11:43 | 13522 | 161 | -57.1 | |||
| 2009-06-18T11:43 | 13601 | 159 | -57.3 | |||
| 2009-06-18T11:44 | 13681 | 157 | -55.3 | |||
| 2009-06-18T11:44 | 13887 | 152 | -55.9 | |||
| 2009-06-18T11:45 | 13980 | 150 | -55.1 | -63.1 | 240 | 28 |
| 2009-06-18T11:45 | 14195 | 145 | -56.1 | |||
| 2009-06-18T11:46 | 14418 | 140 | -54.9 | |||
| 2009-06-18T11:46 | 14510 | 138 | -55.5 | |||
| 2009-06-18T11:47 | 14650 | 135 | -55.1 | |||
| 2009-06-18T11:48 | 15086 | 126 | -58.1 | |||
| 2009-06-18T11:49 | 15393 | 120 | -57.9 | |||
| 2009-06-18T11:52 | 16334 | 103 | -66.3 | |||
| 2009-06-18T11:53 | 16520 | 100 | -66.9 | -73.9 | 240 | 10 |
| 2009-06-18T23:16 | 1611 | 830 | 26.4 | 4.4 | 95 | 8 |
| 2009-06-18T23:16 | 1653 | 826 | 26.0 | 4.0 | ||
| 2009-06-18T23:17 | 1845 | 808 | 23.0 | 1.0 | ||
| 2009-06-18T23:21 | 3073 | 700 | 11.8 | -2.2 | 125 | 2 |
| 2009-06-18T23:21 | 3217 | 688 | 10.4 | -2.6 | ||
| 2009-06-18T23:22 | 3473 | 667 | 8.4 | -5.6 | ||
| 2009-06-18T23:25 | 4212 | 609 | 1.8 | -8.2 | ||
| 2009-06-18T23:27 | 4878 | 560 | -4.7 | -9.6 | ||
| 2009-06-18T23:28 | 5365 | 526 | -8.7 | -12.2 | ||
| 2009-06-18T23:29 | 5633 | 508 | -10.7 | -15.2 | ||
| 2009-06-18T23:30 | 5770 | 500 | -11.7 | -15.9 | 230 | 17 |
| 2009-06-18T23:31 | 6287 | 467 | -16.1 | -19.7 | ||
| 2009-06-18T23:32 | 6352 | 463 | -16.5 | -19.9 | ||
| 2009-06-18T23:32 | 6450 | 457 | -16.7 | -22.7 | ||
| 2009-06-18T23:33 | 6716 | 441 | -18.9 | -24.9 | ||
| 2009-06-18T23:33 | 6784 | 437 | -19.1 | -25.1 | ||
| 2009-06-18T23:33 | 6939 | 428 | -18.5 | -30.5 | ||
| 2009-06-18T23:34 | 6974 | 426 | -18.7 | -30.7 | ||
| 2009-06-18T23:35 | 7440 | 400 | -22.5 | -35.5 | 230 | 30 |
| 2009-06-18T23:36 | 7814 | 380 | -24.7 | -43.7 | ||
| 2009-06-18T23:38 | 8204 | 360 | -27.5 | -45.5 | ||
| 2009-06-18T23:40 | 9015 | 321 | -34.3 | -50.3 | ||
| 2009-06-18T23:42 | 9490 | 300 | -37.1 | -52.1 | 235 | 52 |
| 2009-06-18T23:43 | 9818 | 286 | -38.5 | -54.5 | ||
| 2009-06-18T23:44 | 10085 | 275 | -40.7 | -55.7 | ||
| 2009-06-18T23:45 | 10490 | 259 | -42.5 | -54.5 | ||
| 2009-06-18T23:46 | 10730 | 250 | -44.5 | -55.5 | 220 | 58 |
| 2009-06-18T23:50 | 12115 | 202 | -56.9 | -65.9 | ||
| 2009-06-18T23:51 | 12180 | 200 | -57.1 | -66.1 | 230 | 61 |
| 2009-06-18T23:53 | 12843 | 180 | -58.3 | -67.3 | ||
| 2009-06-18T23:53 | 12913 | 178 | -56.1 | -66.1 | ||
| 2009-06-18T23:53 | 12985 | 176 | -56.1 | -66.1 | ||
| 2009-06-18T23:54 | 13094 | 173 | -54.9 | -64.9 | ||
| 2009-06-18T23:55 | 13357 | 166 | -55.1 | -66.1 | ||
| 2009-06-18T23:55 | 13473 | 163 | -54.3 | -65.3 | ||
| 2009-06-18T23:56 | 13672 | 158 | -55.3 | -66.3 | ||
| 2009-06-18T23:57 | 14010 | 150 | -54.9 | -65.9 | 230 | 22 |
| 2009-06-18T23:59 | 14678 | 135 | -56.9 | -67.9 | ||
| 2009-06-19T00:00 | 15061 | 127 | -59.7 | -70.7 | ||
| 2009-06-19T00:01 | 15210 | 124 | -59.1 | -70.1 | ||
| 2009-06-19T00:01 | 15414 | 120 | -60.5 | -70.5 | ||
| 2009-06-19T00:02 | 15678 | 115 | -60.7 | -70.7 | ||
| 2009-06-19T00:03 | 15952 | 110 | -63.1 | -73.1 | ||
| 2009-06-19T00:05 | 16540 | 100 | -64.7 | -74.7 | 265 | 10 |
| 2009-06-19T11:02 | 1611 | 836 | 13.2 | 10.2 | 0 | 0 |
| 2009-06-19T11:02 | 1691 | 828 | 13.2 | 6.2 | ||
| 2009-06-19T11:03 | 1782 | 819 | 13.2 | 6.2 | ||
| 2009-06-19T11:04 | 2135 | 785 | 10.8 | 5.8 | ||
| 2009-06-19T11:04 | 2338 | 766 | 10.4 | 4.4 | ||
| 2009-06-19T11:06 | 2745 | 729 | 6.8 | 3.3 | ||
| 2009-06-19T11:07 | 2984 | 708 | 6.6 | 3.0 | ||
| 2009-06-19T11:07 | 3087 | 700 | 5.8 | 2.2 | 225 | 6 |
| 2009-06-19T11:09 | 3871 | 635 | -1.1 | -3.1 | ||
| 2009-06-19T11:11 | 4478 | 588 | -4.9 | -4.9 | ||
| 2009-06-19T11:12 | 4693 | 572 | -6.9 | -7.1 | ||
| 2009-06-19T11:15 | 5713 | 501 | -12.5 | -12.7 | ||
| 2009-06-19T11:16 | 5740 | 500 | -12.7 | -12.9 | 235 | 21 |
| 2009-06-19T11:17 | 6128 | 475 | -16.1 | -16.8 | ||
| 2009-06-19T11:19 | 6781 | 435 | -22.1 | -27.0 | ||
| 2009-06-19T11:19 | 6849 | 431 | -22.9 | -27.9 | ||
| 2009-06-19T11:19 | 6934 | 426 | -23.9 | -36.9 | ||
| 2009-06-19T11:20 | 7054 | 419 | -25.5 | -39.5 | ||
| 2009-06-19T11:21 | 7390 | 400 | -27.7 | -44.7 | 225 | 20 |
| 2009-06-19T11:22 | 7663 | 385 | -28.9 | -51.9 | ||
| 2009-06-19T11:24 | 8418 | 346 | -33.5 | -51.5 | ||
| 2009-06-19T11:28 | 9420 | 300 | -36.7 | -64.7 | 250 | 19 |
| 2009-06-19T11:28 | 9513 | 296 | -36.9 | -66.9 | ||
| 2009-06-19T11:30 | 10143 | 270 | -40.3 | -69.3 | ||
| 2009-06-19T11:32 | 10670 | 250 | -42.3 | -70.3 | 245 | 23 |
| 2009-06-19T11:32 | 10806 | 245 | -42.7 | -69.7 | ||
| 2009-06-19T11:32 | 10861 | 243 | -42.3 | -70.3 | ||
| 2009-06-19T11:33 | 11172 | 232 | -44.3 | -69.3 | ||
| 2009-06-19T11:36 | 11835 | 210 | -46.1 | -69.1 | ||
| 2009-06-19T11:36 | 12124 | 201 | -48.1 | -69.1 | ||
| 2009-06-19T11:37 | 12160 | 200 | -47.7 | -69.7 | 245 | 18 |
| 2009-06-19T11:37 | 12226 | 198 | -47.1 | -69.1 | ||
| 2009-06-19T11:38 | 12497 | 190 | -49.1 | -69.1 | ||
| 2009-06-19T11:38 | 12742 | 183 | -49.9 | -68.9 | ||
| 2009-06-19T11:40 | 13256 | 169 | -53.7 | -69.7 | ||
| 2009-06-19T11:43 | 14020 | 150 | -56.5 | -71.5 | 270 | 19 |
| 2009-06-19T11:45 | 14681 | 135 | -60.3 | -73.3 | ||
| 2009-06-19T11:45 | 14821 | 132 | -60.7 | -73.7 | ||
| 2009-06-19T11:46 | 14916 | 130 | -60.1 | -73.1 | ||
| 2009-06-19T11:46 | 15110 | 126 | -60.9 | -73.9 | ||
| 2009-06-19T11:47 | 15362 | 121 | -59.7 | -72.7 | ||
| 2009-06-19T11:50 | 16118 | 107 | -65.3 | -76.3 | ||
| 2009-06-19T11:51 | 16530 | 100 | -67.1 | -78.1 | 255 | 15 |
| 2009-06-19T23:07 | 1611 | 835 | 24.8 | 5.8 | 70 | 2 |
| 2009-06-19T23:08 | 1789 | 818 | 21.8 | 2.8 | ||
| 2009-06-19T23:08 | 1991 | 799 | 19.8 | 2.8 | ||
| 2009-06-19T23:12 | 3107 | 700 | 9.2 | 1.2 | 150 | 1 |
| 2009-06-19T23:13 | 3551 | 663 | 5.0 | 0.7 | ||
| 2009-06-19T23:14 | 3837 | 640 | 4.4 | -0.3 | ||
| 2009-06-19T23:14 | 3888 | 636 | 4.2 | -2.8 | ||
| 2009-06-19T23:15 | 4094 | 620 | 3.8 | -8.2 | ||
| 2009-06-19T23:17 | 4533 | 587 | 0.2 | -11.8 | ||
| 2009-06-19T23:17 | 4711 | 574 | -1.3 | -11.3 | ||
| 2009-06-19T23:17 | 4753 | 571 | -1.1 | -13.1 | ||
| 2009-06-19T23:18 | 4851 | 564 | -1.3 | -14.3 | ||
| 2009-06-19T23:18 | 4922 | 559 | -0.7 | -18.7 | ||
| 2009-06-19T23:18 | 5008 | 553 | -0.9 | -24.9 | ||
| 2009-06-19T23:19 | 5405 | 526 | -2.5 | -29.5 | ||
| 2009-06-19T23:21 | 5820 | 500 | -5.9 | -29.9 | 250 | 9 |
| 2009-06-19T23:23 | 6364 | 466 | -11.1 | -31.1 | ||
| 2009-06-19T23:25 | 7064 | 425 | -14.9 | -39.9 | ||
| 2009-06-19T23:26 | 7520 | 400 | -18.5 | -41.5 | 200 | 6 |
| 2009-06-19T23:27 | 7784 | 386 | -20.1 | -43.1 | ||
| 2009-06-19T23:33 | 9590 | 300 | -36.5 | -56.5 | 215 | 14 |
| 2009-06-19T23:34 | 9871 | 288 | -38.9 | -57.9 | ||
| 2009-06-19T23:37 | 10830 | 250 | -43.7 | -61.7 | 235 | 25 |
| 2009-06-19T23:37 | 10884 | 248 | -43.7 | -61.7 | ||
| 2009-06-19T23:39 | 11355 | 231 | -48.1 | -64.1 | ||
| 2009-06-19T23:42 | 12290 | 200 | -54.9 | -67.9 | 225 | 38 |
| 2009-06-19T23:42 | 12354 | 198 | -55.3 | -68.3 | ||
| 2009-06-19T23:44 | 13029 | 178 | -56.9 | -68.9 | ||
| 2009-06-19T23:46 | 13357 | 169 | -56.3 | -68.3 | ||
| 2009-06-19T23:48 | 13980 | 153 | -60.7 | -71.7 | ||
| 2009-06-19T23:48 | 14110 | 150 | -60.7 | -71.7 | 230 | 23 |
| 2009-06-19T23:48 | 14235 | 147 | -60.7 | -71.7 | ||
| 2009-06-19T23:49 | 14492 | 141 | -62.9 | -73.9 | ||
| 2009-06-19T23:51 | 15135 | 127 | -62.5 | -73.5 | ||
| 2009-06-19T23:52 | 15381 | 122 | -64.5 | -74.5 | ||
| 2009-06-19T23:53 | 15687 | 116 | -65.7 | -75.7 | ||
| 2009-06-19T23:53 | 15793 | 114 | -65.1 | -75.1 | ||
| 2009-06-19T23:55 | 16234 | 106 | -66.3 | -76.3 | ||
| 2009-06-19T23:56 | 16467 | 102 | -65.9 | -75.9 | ||
| 2009-06-19T23:56 | 16590 | 100 | -66.5 | -76.5 | 230 | 10 |
| 2009-06-20T11:02 | 1611 | 834 | 18.0 | 10.0 | 165 | 4 |
| 2009-06-20T11:03 | 1786 | 817 | 16.8 | 8.8 | ||
| 2009-06-20T11:03 | 1964 | 800 | 15.6 | 9.6 | ||
| 2009-06-20T11:04 | 2177 | 780 | 14.0 | 10.7 | ||
| 2009-06-20T11:06 | 2695 | 733 | 10.8 | 8.6 | ||
| 2009-06-20T11:06 | 2971 | 709 | 10.6 | 7.3 | ||
| 2009-06-20T11:07 | 3093 | 700 | 9.6 | 6.4 | 190 | 15 |
| 2009-06-20T11:09 | 3714 | 649 | 6.0 | 2.0 | ||
| 2009-06-20T11:10 | 4046 | 623 | 3.2 | -0.2 | ||
| 2009-06-20T11:11 | 4389 | 597 | 1.6 | -3.4 | ||
| 2009-06-20T11:11 | 4497 | 589 | 1.6 | -6.4 | ||
| 2009-06-20T11:13 | 4914 | 559 | -2.1 | -9.1 | ||
| 2009-06-20T11:13 | 5014 | 552 | -3.1 | -7.7 | ||
| 2009-06-20T11:14 | 5158 | 542 | -3.9 | -11.9 | ||
| 2009-06-20T11:14 | 5319 | 531 | -4.3 | -13.3 | ||
| 2009-06-20T11:16 | 5800 | 500 | -8.3 | -15.3 | 200 | 9 |
| 2009-06-20T11:18 | 6340 | 466 | -13.1 | -16.2 | ||
| 2009-06-20T11:18 | 6488 | 457 | -13.3 | -15.0 | ||
| 2009-06-20T11:19 | 6861 | 435 | -15.1 | -16.2 | ||
| 2009-06-20T11:21 | 7500 | 400 | -19.3 | -20.6 | 190 | 12 |
| 2009-06-20T11:22 | 7763 | 386 | -21.3 | -22.8 | ||
| 2009-06-20T11:23 | 8112 | 368 | -24.5 | -27.5 | ||
| 2009-06-20T11:25 | 8600 | 344 | -26.1 | -28.9 | ||
| 2009-06-20T11:27 | 9206 | 316 | -31.1 | -34.8 | ||
| 2009-06-20T11:28 | 9570 | 300 | -32.9 | -36.7 | 195 | 32 |
| 2009-06-20T11:28 | 9688 | 295 | -33.5 | -37.3 | ||
| 2009-06-20T11:32 | 10830 | 250 | -43.7 | 205 | 46 | |
| 2009-06-20T11:35 | 11672 | 220 | -51.5 | |||
| 2009-06-20T11:37 | 12290 | 200 | -53.9 | 215 | 51 | |
| 2009-06-20T11:38 | 12617 | 190 | -55.9 | |||
| 2009-06-20T11:40 | 13319 | 170 | -57.9 | |||
| 2009-06-20T11:42 | 13855 | 156 | -61.3 | |||
| 2009-06-20T11:43 | 14100 | 150 | -61.3 | 230 | 37 | |
| 2009-06-20T11:43 | 14141 | 149 | -61.1 | |||
| 2009-06-20T11:45 | 14614 | 138 | -62.5 | |||
| 2009-06-20T11:45 | 14749 | 135 | -63.7 | |||
| 2009-06-20T11:46 | 14933 | 131 | -62.9 | |||
| 2009-06-20T11:47 | 15220 | 125 | -64.7 | |||
| 2009-06-20T11:47 | 15318 | 123 | -64.3 | |||
| 2009-06-20T11:47 | 15418 | 121 | -62.9 | |||
| 2009-06-20T11:48 | 15572 | 118 | -62.9 | |||
| 2009-06-20T11:51 | 16580 | 100 | -68.5 | 210 | 13 | |
| 2009-06-20T23:04 | 1611 | 831 | 21.8 | 9.8 | 275 | 5 |
| 2009-06-20T23:04 | 1694 | 823 | 20.6 | 8.6 | ||
| 2009-06-20T23:05 | 2021 | 792 | 17.0 | 8.0 | ||
| 2009-06-20T23:07 | 2491 | 749 | 13.4 | 6.4 | ||
| 2009-06-20T23:07 | 2547 | 744 | 12.2 | 6.2 | ||
| 2009-06-20T23:09 | 3066 | 700 | 8.4 | 5.6 | 205 | 3 |
| 2009-06-20T23:09 | 3078 | 699 | 8.2 | 5.5 | ||
| 2009-06-20T23:09 | 3196 | 689 | 7.4 | 3.5 | ||
| 2009-06-20T23:11 | 3595 | 656 | 3.6 | 2.4 | ||
| 2009-06-20T23:11 | 3782 | 641 | 2.4 | 0.4 | ||
| 2009-06-20T23:12 | 4023 | 622 | 0.2 | -0.6 | ||
| 2009-06-20T23:14 | 4537 | 583 | -2.5 | -3.0 | ||
| 2009-06-20T23:15 | 4940 | 554 | -3.1 | -4.6 | ||
| 2009-06-20T23:16 | 5214 | 535 | -4.9 | -7.2 | ||
| 2009-06-20T23:17 | 5481 | 517 | -6.3 | -7.3 | ||
| 2009-06-20T23:17 | 5710 | 502 | -7.7 | -9.8 | ||
| 2009-06-20T23:18 | 5760 | 500 | -7.9 | -10.0 | 190 | 15 |
| 2009-06-20T23:21 | 6652 | 445 | -14.3 | -17.0 | ||
| 2009-06-20T23:21 | 6893 | 431 | -15.7 | -19.2 | ||
| 2009-06-20T23:22 | 6963 | 427 | -15.7 | -20.7 | ||
| 2009-06-20T23:22 | 7123 | 418 | -16.5 | -22.5 | ||
| 2009-06-20T23:23 | 7460 | 400 | -18.9 | -24.9 | 200 | 16 |
| 2009-06-20T23:25 | 8114 | 366 | -23.5 | -30.5 | ||
| 2009-06-20T23:26 | 8295 | 357 | -24.9 | -30.9 | ||
| 2009-06-20T23:26 | 8397 | 352 | -25.7 | -32.7 | ||
| 2009-06-20T23:28 | 8991 | 324 | -30.1 | -37.1 | ||
| 2009-06-20T23:30 | 9463 | 303 | -33.3 | -42.3 | ||
| 2009-06-20T23:30 | 9540 | 300 | -33.5 | -44.5 | 215 | 21 |
| 2009-06-20T23:31 | 9801 | 289 | -35.1 | -49.1 | ||
| 2009-06-20T23:31 | 9972 | 282 | -33.1 | -58.1 | ||
| 2009-06-20T23:33 | 10538 | 260 | -35.9 | -73.9 | ||
| 2009-06-20T23:34 | 10810 | 250 | -38.1 | -76.1 | 205 | 43 |
| 2009-06-20T23:38 | 11921 | 212 | -46.7 | -80.7 | ||
| 2009-06-20T23:39 | 12310 | 200 | -49.3 | -77.3 | 215 | 41 |
| 2009-06-20T23:40 | 12542 | 193 | -50.3 | -76.3 | ||
| 2009-06-20T23:44 | 13659 | 162 | -59.1 | -75.1 | ||
| 2009-06-20T23:44 | 13895 | 156 | -59.5 | -74.5 | ||
| 2009-06-20T23:45 | 14140 | 150 | -61.3 | -75.3 | 215 | 32 |
| 2009-06-20T23:45 | 14265 | 147 | -62.1 | -76.1 | ||
| 2009-06-20T23:46 | 14392 | 144 | -61.1 | -75.1 | ||
| 2009-06-20T23:47 | 14610 | 139 | -62.3 | -76.3 | ||
| 2009-06-20T23:48 | 15021 | 130 | -63.1 | -76.1 | ||
| 2009-06-20T23:49 | 15359 | 123 | -65.5 | -77.5 | ||
| 2009-06-20T23:50 | 15509 | 120 | -65.5 | -77.5 | ||
| 2009-06-20T23:50 | 15766 | 115 | -67.3 | -79.3 | ||
| 2009-06-20T23:51 | 15979 | 111 | -66.1 | -78.1 | ||
| 2009-06-20T23:52 | 16145 | 108 | -66.3 | -78.3 | ||
| 2009-06-20T23:53 | 16431 | 103 | -67.1 | -79.1 | ||
| 2009-06-20T23:53 | 16610 | 100 | -68.7 | -79.7 | 190 | 23 |
| 2009-06-21T11:05 | 1611 | 833 | 11.2 | 8.6 | 185 | 3 |
| 2009-06-21T11:05 | 1661 | 828 | 14.6 | 8.6 | ||
| 2009-06-21T11:05 | 1692 | 825 | 15.8 | 8.8 | ||
| 2009-06-21T11:06 | 1774 | 817 | 16.8 | 7.8 | ||
| 2009-06-21T11:06 | 2005 | 795 | 17.2 | 4.2 | ||
| 2009-06-21T11:08 | 2641 | 737 | 11.8 | 0.8 | ||
| 2009-06-21T11:10 | 2997 | 706 | 10.0 | -1.0 | ||
| 2009-06-21T11:10 | 3076 | 700 | 9.4 | -0.6 | 290 | 17 |
| 2009-06-21T11:12 | 3632 | 654 | 4.2 | -2.8 | ||
| 2009-06-21T11:14 | 4232 | 607 | 0.2 | -5.8 | ||
| 2009-06-21T11:14 | 4499 | 587 | -0.9 | -6.9 | ||
| 2009-06-21T11:15 | 4608 | 579 | -0.5 | -9.5 | ||
| 2009-06-21T11:17 | 5289 | 531 | -6.5 | -11.5 | ||
| 2009-06-21T11:17 | 5333 | 528 | -6.9 | -14.9 | ||
| 2009-06-21T11:17 | 5407 | 523 | -7.3 | -16.3 | ||
| 2009-06-21T11:18 | 5709 | 503 | -9.1 | -14.1 | ||
| 2009-06-21T11:19 | 5770 | 500 | -9.3 | -14.3 | 240 | 16 |
| 2009-06-21T11:19 | 6004 | 485 | -11.1 | -18.1 | ||
| 2009-06-21T11:20 | 6131 | 477 | -11.9 | -20.9 | ||
| 2009-06-21T11:20 | 6227 | 471 | -12.3 | -28.3 | ||
| 2009-06-21T11:21 | 6357 | 463 | -13.3 | -30.3 | ||
| 2009-06-21T11:21 | 6390 | 461 | -13.3 | -24.3 | ||
| 2009-06-21T11:21 | 6506 | 454 | -13.3 | -32.3 | ||
| 2009-06-21T11:21 | 6573 | 450 | -13.7 | -38.7 | ||
| 2009-06-21T11:21 | 6641 | 446 | -14.3 | -35.3 | ||
| 2009-06-21T11:22 | 6743 | 440 | -14.9 | -39.9 | ||
| 2009-06-21T11:24 | 7460 | 400 | -20.9 | -44.9 | 235 | 21 |
| 2009-06-21T11:25 | 7590 | 393 | -21.9 | -45.9 | ||
| 2009-06-21T11:25 | 7798 | 382 | -22.9 | -49.9 | ||
| 2009-06-21T11:26 | 7913 | 376 | -23.9 | -43.9 | ||
| 2009-06-21T11:27 | 8228 | 360 | -25.9 | -55.9 | ||
| 2009-06-21T11:29 | 8871 | 329 | -31.7 | -50.7 | ||
| 2009-06-21T11:31 | 9520 | 300 | -35.7 | -62.7 | 235 | 27 |
| 2009-06-21T11:33 | 10145 | 274 | -38.5 | -66.5 | ||
| 2009-06-21T11:34 | 10426 | 263 | -37.7 | -66.7 | ||
| 2009-06-21T11:35 | 10780 | 250 | -39.9 | -67.9 | 215 | 43 |
| 2009-06-21T11:36 | 11057 | 240 | -41.5 | -67.5 | ||
| 2009-06-21T11:37 | 11372 | 229 | -44.3 | -67.3 | ||
| 2009-06-21T11:38 | 11700 | 218 | -45.5 | -67.5 | ||
| 2009-06-21T11:39 | 12010 | 208 | -48.1 | -68.1 | ||
| 2009-06-21T11:40 | 12270 | 200 | -49.5 | -67.5 | 215 | 42 |
| 2009-06-21T11:43 | 13241 | 172 | -55.9 | -69.9 | ||
| 2009-06-21T11:45 | 13659 | 161 | -57.1 | -71.1 | ||
| 2009-06-21T11:46 | 14110 | 150 | -60.1 | -73.1 | 210 | 33 |
| 2009-06-21T11:47 | 14320 | 145 | -62.1 | -74.1 | ||
| 2009-06-21T11:47 | 14492 | 141 | -62.9 | -74.9 | ||
| 2009-06-21T11:48 | 14624 | 138 | -62.1 | -74.1 | ||
| 2009-06-21T11:50 | 15327 | 123 | -65.9 | -76.9 | ||
| 2009-06-21T11:50 | 15477 | 120 | -63.3 | -74.3 | ||
| 2009-06-21T11:51 | 15737 | 115 | -64.5 | -75.5 | ||
| 2009-06-21T11:52 | 15898 | 112 | -63.5 | -74.5 | ||
| 2009-06-21T11:53 | 16177 | 107 | -64.1 | -75.1 | ||
| 2009-06-21T11:54 | 16590 | 100 | -66.3 | -77.3 | 190 | 11 |
| 2009-06-21T23:01 | 1611 | 831 | 27.6 | 2.6 | 190 | 4 |
| 2009-06-21T23:01 | 1685 | 824 | 26.8 | 1.8 | ||
| 2009-06-21T23:05 | 2797 | 724 | 15.8 | -1.2 | ||
| 2009-06-21T23:06 | 3087 | 700 | 13.2 | -1.8 | 210 | 10 |
| 2009-06-21T23:09 | 4138 | 616 | 3.4 | -4.6 | ||
| 2009-06-21T23:10 | 4457 | 592 | 0.2 | -4.8 | ||
| 2009-06-21T23:14 | 5610 | 511 | -9.9 | -11.9 | ||
| 2009-06-21T23:15 | 5790 | 500 | -10.9 | -12.4 | 225 | 18 |
| 2009-06-21T23:15 | 5929 | 491 | -11.1 | -12.3 | ||
| 2009-06-21T23:17 | 6377 | 463 | -13.1 | -16.0 | ||
| 2009-06-21T23:17 | 6476 | 457 | -14.1 | -18.1 | ||
| 2009-06-21T23:17 | 6542 | 453 | -14.9 | -20.9 | ||
| 2009-06-21T23:18 | 6710 | 443 | -17.1 | -24.1 | ||
| 2009-06-21T23:19 | 7143 | 418 | -18.3 | -26.3 | ||
| 2009-06-21T23:20 | 7451 | 401 | -20.3 | -29.3 | ||
| 2009-06-21T23:20 | 7480 | 400 | -20.5 | -29.5 | 240 | 27 |
| 2009-06-21T23:21 | 7818 | 382 | -23.3 | -36.3 | ||
| 2009-06-21T23:23 | 8348 | 355 | -27.7 | -42.7 | ||
| 2009-06-21T23:26 | 9374 | 307 | -34.9 | -49.9 | ||
| 2009-06-21T23:27 | 9511 | 301 | -35.7 | -50.7 | ||
| 2009-06-21T23:27 | 9540 | 300 | -35.5 | -50.5 | 230 | 36 |
| 2009-06-21T23:28 | 9799 | 289 | -35.1 | -50.1 | ||
| 2009-06-21T23:30 | 10581 | 258 | -39.3 | -54.3 | ||
| 2009-06-21T23:31 | 10790 | 250 | -41.3 | -55.3 | 235 | 40 |
| 2009-06-21T23:32 | 10982 | 243 | -43.1 | -57.1 | ||
| 2009-06-21T23:33 | 11409 | 228 | -44.5 | -58.5 | ||
| 2009-06-21T23:34 | 11527 | 224 | -43.9 | -57.9 | ||
| 2009-06-21T23:36 | 12146 | 204 | -48.9 | -61.9 | ||
| 2009-06-21T23:36 | 12280 | 200 | -49.5 | -62.5 | 230 | 38 |
| 2009-06-21T23:36 | 12346 | 198 | -49.7 | -62.7 | ||
| 2009-06-21T23:36 | 12379 | 197 | -49.1 | -62.1 | ||
| 2009-06-21T23:38 | 12754 | 186 | -50.5 | -63.5 | ||
| 2009-06-21T23:40 | 13484 | 166 | -56.5 | -67.5 | ||
| 2009-06-21T23:41 | 13955 | 154 | -59.5 | -69.5 | ||
| 2009-06-21T23:42 | 14130 | 150 | -60.1 | -70.1 | 215 | 30 |
| 2009-06-21T23:42 | 14256 | 147 | -60.5 | -70.5 | ||
| 2009-06-21T23:44 | 14784 | 135 | -60.9 | -70.9 | ||
| 2009-06-21T23:45 | 15017 | 130 | -62.7 | -72.7 | ||
| 2009-06-21T23:46 | 15209 | 126 | -62.5 | -72.5 | ||
| 2009-06-21T23:47 | 15610 | 118 | -65.5 | -74.5 | ||
| 2009-06-21T23:48 | 15873 | 113 | -64.5 | -73.5 | ||
| 2009-06-21T23:48 | 16037 | 110 | -65.1 | -74.1 | ||
| 2009-06-21T23:49 | 16205 | 107 | -64.5 | -73.5 | ||
| 2009-06-21T23:50 | 16620 | 100 | -67.7 | -76.7 | 220 | 20 |
| 2009-06-22T11:05 | 1611 | 836 | 12.2 | 9.0 | 180 | 2 |
| 2009-06-22T11:05 | 1742 | 823 | 15.8 | 7.8 | ||
| 2009-06-22T11:07 | 2171 | 782 | 12.8 | 5.8 | ||
| 2009-06-22T11:07 | 2214 | 778 | 13.4 | 7.4 | ||
| 2009-06-22T11:08 | 2421 | 759 | 13.0 | 6.0 | ||
| 2009-06-22T11:08 | 2510 | 751 | 13.8 | 5.8 | ||
| 2009-06-22T11:08 | 2589 | 744 | 16.0 | 0.0 | ||
| 2009-06-22T11:08 | 2635 | 740 | 16.0 | -2.0 | ||
| 2009-06-22T11:10 | 3110 | 700 | 12.0 | -6.0 | 235 | 10 |
| 2009-06-22T11:11 | 3363 | 679 | 9.8 | -7.2 | ||
| 2009-06-22T11:14 | 4488 | 591 | -0.9 | -11.9 | ||
| 2009-06-22T11:15 | 4665 | 578 | -1.9 | -16.9 | ||
| 2009-06-22T11:15 | 4748 | 572 | -1.3 | -27.3 | ||
| 2009-06-22T11:16 | 5030 | 552 | -2.5 | -36.5 | ||
| 2009-06-22T11:18 | 5711 | 506 | -7.9 | -33.9 | ||
| 2009-06-22T11:19 | 5810 | 500 | -7.9 | -43.9 | 240 | 20 |
| 2009-06-22T11:19 | 5966 | 490 | -7.9 | -41.9 | ||
| 2009-06-22T11:20 | 6337 | 467 | -9.9 | -36.9 | ||
| 2009-06-22T11:24 | 7510 | 400 | -18.5 | -47.5 | 245 | 22 |
| 2009-06-22T11:28 | 8487 | 350 | -26.5 | -54.5 | ||
| 2009-06-22T11:31 | 9590 | 300 | -34.1 | -65.1 | 230 | 27 |
| 2009-06-22T11:32 | 9850 | 289 | -35.5 | -66.5 | ||
| 2009-06-22T11:34 | 10523 | 262 | -41.1 | -67.1 | ||
| 2009-06-22T11:35 | 10840 | 250 | -42.7 | -66.7 | 230 | 26 |
| 2009-06-22T11:36 | 10948 | 246 | -43.3 | -66.3 | ||
| 2009-06-22T11:36 | 11030 | 243 | -43.3 | -66.3 | ||
| 2009-06-22T11:38 | 11571 | 224 | -47.9 | -66.9 | ||
| 2009-06-22T11:39 | 11871 | 214 | -48.5 | -67.5 | ||
| 2009-06-22T11:40 | 12215 | 203 | -51.3 | -68.3 | ||
| 2009-06-22T11:40 | 12320 | 200 | -51.5 | -68.5 | 235 | 28 |
| 2009-06-22T11:45 | 13702 | 161 | -58.5 | -71.5 | ||
| 2009-06-22T11:45 | 13780 | 159 | -57.9 | -70.9 | ||
| 2009-06-22T11:46 | 13980 | 154 | -59.1 | -72.1 | ||
| 2009-06-22T11:46 | 14103 | 151 | -58.9 | -71.9 | ||
| 2009-06-22T11:46 | 14150 | 150 | -59.3 | -72.3 | 235 | 22 |
| 2009-06-22T11:47 | 14361 | 145 | -60.9 | -72.9 | ||
| 2009-06-22T11:48 | 14668 | 138 | -61.1 | -73.1 | ||
| 2009-06-22T11:49 | 15084 | 129 | -62.9 | -74.9 | ||
| 2009-06-22T11:51 | 15576 | 119 | -66.1 | -77.1 | ||
| 2009-06-22T11:52 | 16050 | 110 | -67.7 | -77.7 | ||
| 2009-06-22T11:54 | 16620 | 100 | -68.5 | -78.5 | 205 | 11 |
| 2009-06-22T23:02 | 1611 | 834 | 31.0 | 7.0 | 100 | 7 |
| 2009-06-22T23:02 | 1761 | 820 | 28.2 | 5.2 | ||
| 2009-06-22T23:05 | 2377 | 764 | 22.4 | 3.4 | ||
| 2009-06-22T23:07 | 3131 | 700 | 15.8 | -1.2 | 170 | 8 |
| 2009-06-22T23:07 | 3155 | 698 | 15.4 | -1.6 | ||
| 2009-06-22T23:12 | 4526 | 591 | 2.2 | -5.8 | ||
| 2009-06-22T23:13 | 4856 | 567 | -0.9 | -5.8 | ||
| 2009-06-22T23:14 | 5155 | 546 | -3.1 | -10.1 | ||
| 2009-06-22T23:15 | 5567 | 518 | -6.9 | -12.9 | ||
| 2009-06-22T23:16 | 5860 | 500 | -8.9 | -16.9 | 235 | 16 |
| 2009-06-22T23:16 | 6016 | 490 | -9.7 | -18.7 | ||
| 2009-06-22T23:17 | 6238 | 476 | -11.7 | -20.7 | ||
| 2009-06-22T23:18 | 6416 | 465 | -11.9 | -18.9 | ||
| 2009-06-22T23:18 | 6465 | 462 | -11.9 | -20.9 | ||
| 2009-06-22T23:18 | 6498 | 460 | -12.1 | -28.1 | ||
| 2009-06-22T23:18 | 6531 | 458 | -12.1 | -32.1 | ||
| 2009-06-22T23:19 | 6648 | 451 | -12.9 | -38.9 | ||
| 2009-06-22T23:20 | 7078 | 426 | -16.5 | -41.5 | ||
| 2009-06-22T23:21 | 7550 | 400 | -19.5 | -45.5 | 230 | 18 |
| 2009-06-22T23:23 | 7967 | 378 | -22.3 | -50.3 | ||
| 2009-06-22T23:26 | 8881 | 333 | -30.1 | -59.1 | ||
| 2009-06-22T23:27 | 9342 | 312 | -31.9 | -63.9 | ||
| 2009-06-22T23:28 | 9620 | 300 | -34.3 | -68.3 | 215 | 25 |
| 2009-06-22T23:32 | 10732 | 255 | -43.3 | -66.3 | ||
| 2009-06-22T23:32 | 10870 | 250 | -44.1 | -66.1 | 225 | 26 |
| 2009-06-22T23:34 | 11254 | 236 | -45.5 | -67.5 | ||
| 2009-06-22T23:37 | 12340 | 200 | -51.9 | -68.9 | 225 | 31 |
| 2009-06-22T23:39 | 12806 | 186 | -54.7 | -69.7 | ||
| 2009-06-22T23:41 | 13527 | 166 | -57.5 | -71.5 | ||
| 2009-06-22T23:42 | 13836 | 158 | -59.9 | -72.9 | ||
| 2009-06-22T23:42 | 13955 | 155 | -59.9 | -72.9 | ||
| 2009-06-22T23:43 | 14160 | 150 | -61.3 | -73.3 | 220 | 28 |
| 2009-06-22T23:44 | 14412 | 144 | -62.7 | -74.7 | ||
| 2009-06-22T23:45 | 14629 | 139 | -62.7 | -74.7 | ||
| 2009-06-22T23:45 | 14808 | 135 | -64.1 | -75.1 | ||
| 2009-06-22T23:47 | 15276 | 125 | -65.3 | -76.3 | ||
| 2009-06-22T23:48 | 15576 | 119 | -63.7 | -74.7 | ||
| 2009-06-22T23:48 | 15628 | 118 | -64.5 | -75.5 | ||
| 2009-06-22T23:48 | 15785 | 115 | -64.1 | -75.1 | ||
| 2009-06-22T23:50 | 16166 | 108 | -66.9 | -77.9 | ||
| 2009-06-22T23:51 | 16640 | 100 | -68.5 | -78.5 | 200 | 17 |
| 2009-06-23T11:04 | 1611 | 838 | 14.4 | 11.6 | 0 | 0 |
| 2009-06-23T11:04 | 1763 | 823 | 15.6 | 13.6 | ||
| 2009-06-23T11:05 | 2065 | 794 | 14.0 | 13.9 | ||
| 2009-06-23T11:06 | 2139 | 787 | 15.2 | 15.2 | ||
| 2009-06-23T11:06 | 2182 | 783 | 15.6 | 14.0 | ||
| 2009-06-23T11:06 | 2269 | 775 | 15.8 | 11.2 | ||
| 2009-06-23T11:07 | 2434 | 760 | 16.0 | 11.0 | ||
| 2009-06-23T11:07 | 2490 | 755 | 17.8 | 9.8 | ||
| 2009-06-23T11:07 | 2638 | 742 | 18.0 | 0.0 | ||
| 2009-06-23T11:08 | 2695 | 737 | 18.0 | -1.0 | ||
| 2009-06-23T11:09 | 3140 | 700 | 14.4 | -2.6 | 305 | 5 |
| 2009-06-23T11:12 | 4144 | 620 | 5.8 | -8.2 | ||
| 2009-06-23T11:13 | 4236 | 613 | 5.4 | -13.6 | ||
| 2009-06-23T11:14 | 4559 | 589 | 3.0 | -18.0 | ||
| 2009-06-23T11:17 | 5518 | 522 | -5.5 | -26.5 | ||
| 2009-06-23T11:18 | 5745 | 507 | -6.5 | -28.5 | ||
| 2009-06-23T11:18 | 5870 | 500 | -7.3 | -29.3 | 260 | 11 |
| 2009-06-23T11:20 | 6495 | 461 | -11.7 | -32.7 | ||
| 2009-06-23T11:22 | 7251 | 417 | -18.3 | -35.3 | ||
| 2009-06-23T11:23 | 7377 | 410 | -19.3 | -31.3 | ||
| 2009-06-23T11:24 | 7560 | 400 | -20.7 | -33.7 | 220 | 16 |
| 2009-06-23T11:24 | 7634 | 396 | -20.9 | -34.9 | ||
| 2009-06-23T11:25 | 7936 | 380 | -23.1 | -29.1 | ||
| 2009-06-23T11:27 | 8550 | 349 | -28.7 | -34.7 | ||
| 2009-06-23T11:27 | 8715 | 341 | -28.9 | -38.9 | ||
| 2009-06-23T11:29 | 9188 | 319 | -31.9 | -45.9 | ||
| 2009-06-23T11:30 | 9630 | 300 | -35.5 | -49.5 | 235 | 23 |
| 2009-06-23T11:32 | 10228 | 275 | -40.3 | -53.3 | ||
| 2009-06-23T11:34 | 10661 | 258 | -41.5 | -54.5 | ||
| 2009-06-23T11:34 | 10870 | 250 | -43.1 | -56.1 | 230 | 34 |
| 2009-06-23T11:35 | 10924 | 248 | -43.5 | -56.5 | ||
| 2009-06-23T11:37 | 11632 | 223 | -46.5 | -59.5 | ||
| 2009-06-23T11:39 | 12311 | 201 | -52.1 | -64.1 | ||
| 2009-06-23T11:39 | 12350 | 200 | -52.3 | -64.3 | 225 | 32 |
| 2009-06-23T11:40 | 12647 | 191 | -52.7 | -63.7 | ||
| 2009-06-23T11:45 | 14170 | 150 | -62.5 | -71.5 | 225 | 30 |
| 2009-06-23T11:46 | 14294 | 147 | -62.9 | -71.9 | ||
| 2009-06-23T11:46 | 14463 | 143 | -62.9 | -71.9 | ||
| 2009-06-23T11:48 | 14906 | 133 | -65.3 | -74.3 | ||
| 2009-06-23T11:48 | 15139 | 128 | -64.9 | -73.9 | ||
| 2009-06-23T11:49 | 15430 | 122 | -66.9 | -75.9 | ||
| 2009-06-23T11:52 | 16162 | 108 | -67.9 | |||
| 2009-06-23T11:52 | 16274 | 106 | -66.9 | |||
| 2009-06-23T11:53 | 16630 | 100 | -68.1 | 225 | 12 | |
| 2009-06-23T23:25 | 1611 | 840 | 19.2 | 12.2 | 140 | 3 |
| 2009-06-23T23:26 | 1785 | 823 | 17.6 | 10.6 | ||
| 2009-06-23T23:26 | 1816 | 820 | 17.6 | 10.6 | ||
| 2009-06-23T23:26 | 1963 | 806 | 18.8 | 7.8 | ||
| 2009-06-23T23:27 | 2252 | 779 | 15.6 | 6.6 | ||
| 2009-06-23T23:28 | 2427 | 763 | 14.8 | 5.8 | ||
| 2009-06-23T23:28 | 2650 | 743 | 15.0 | 3.0 | ||
| 2009-06-23T23:30 | 3112 | 703 | 11.0 | 1.0 | ||
| 2009-06-23T23:30 | 3161 | 700 | 10.8 | 1.8 | 70 | 3 |
| 2009-06-23T23:34 | 4296 | 609 | 1.0 | -0.4 | ||
| 2009-06-23T23:35 | 4671 | 581 | -1.1 | -1.1 | ||
| 2009-06-23T23:36 | 5076 | 552 | -4.1 | -4.3 | ||
| 2009-06-23T23:39 | 5739 | 507 | -8.1 | -8.8 | ||
| 2009-06-23T23:39 | 5860 | 500 | -8.3 | -9.0 | 255 | 13 |
| 2009-06-23T23:40 | 6255 | 475 | -10.1 | -11.2 | ||
| 2009-06-23T23:43 | 7013 | 430 | -14.5 | -16.6 | ||
| 2009-06-23T23:45 | 7570 | 400 | -17.1 | -20.1 | 200 | 15 |
| 2009-06-23T23:45 | 7740 | 391 | -17.9 | -20.8 | ||
| 2009-06-23T23:49 | 8918 | 333 | -25.9 | -30.9 | ||
| 2009-06-23T23:51 | 9670 | 300 | -31.9 | -38.9 | 190 | 16 |
| 2009-06-23T23:55 | 10609 | 262 | -39.5 | -47.5 | ||
| 2009-06-23T23:56 | 10930 | 250 | -41.1 | 185 | 14 | |
| 2009-06-23T23:56 | 11094 | 244 | -41.7 | |||
| 2009-06-23T23:57 | 11403 | 233 | -45.3 | |||
| 2009-06-23T23:58 | 11547 | 228 | -46.1 | |||
| 2009-06-24T00:00 | 12400 | 200 | -53.9 | 205 | 16 | |
| 2009-06-24T00:00 | 12432 | 199 | -54.3 | |||
| 2009-06-24T00:02 | 12898 | 185 | -54.7 | |||
| 2009-06-24T00:05 | 13890 | 158 | -60.9 | |||
| 2009-06-24T00:06 | 14170 | 151 | -61.5 | |||
| 2009-06-24T00:06 | 14220 | 150 | -61.7 | 235 | 27 | |
| 2009-06-24T00:07 | 14556 | 142 | -64.5 | |||
| 2009-06-24T00:09 | 15138 | 129 | -66.3 | |||
| 2009-06-24T00:10 | 15424 | 123 | -68.3 | |||
| 2009-06-24T00:11 | 15522 | 121 | -67.7 | |||
| 2009-06-24T00:11 | 15774 | 116 | -69.1 | |||
| 2009-06-24T00:13 | 16367 | 105 | -69.5 | |||
| 2009-06-24T00:14 | 16597 | 101 | -70.5 | |||
| 2009-06-24T00:14 | 16660 | 100 | -69.5 | 210 | 16 | |
| 2009-06-24T11:04 | 1611 | 840 | 13.0 | 11.4 | 0 | 0 |
| 2009-06-24T11:04 | 1681 | 833 | 15.0 | 12.8 | ||
| 2009-06-24T11:05 | 1876 | 814 | 15.2 | 11.5 | ||
| 2009-06-24T11:05 | 2043 | 798 | 17.2 | 10.2 | ||
| 2009-06-24T11:06 | 2291 | 775 | 16.8 | 7.8 | ||
| 2009-06-24T11:06 | 2335 | 771 | 17.4 | 8.4 | ||
| 2009-06-24T11:08 | 2924 | 719 | 14.4 | 4.4 | ||
| 2009-06-24T11:09 | 3042 | 709 | 14.4 | 3.4 | ||
| 2009-06-24T11:09 | 3163 | 700 | 13.6 | 2.6 | 205 | 6 |
| 2009-06-24T11:12 | 4047 | 629 | 6.4 | -1.6 | ||
| 2009-06-24T11:12 | 4191 | 618 | 6.0 | -3.0 | ||
| 2009-06-24T11:16 | 5301 | 538 | -3.7 | -11.7 | ||
| 2009-06-24T11:17 | 5673 | 513 | -7.1 | -13.1 | ||
| 2009-06-24T11:18 | 5890 | 500 | -8.5 | -14.5 | 300 | 5 |
| 2009-06-24T11:18 | 5921 | 498 | -8.5 | -14.5 | ||
| 2009-06-24T11:18 | 5999 | 493 | -8.9 | -16.9 | ||
| 2009-06-24T11:19 | 6253 | 477 | -10.3 | -20.3 | ||
| 2009-06-24T11:20 | 6350 | 471 | -10.1 | -22.1 | ||
| 2009-06-24T11:21 | 6801 | 444 | -13.5 | -25.5 | ||
| 2009-06-24T11:22 | 7026 | 431 | -15.7 | -25.7 | ||
| 2009-06-24T11:23 | 7255 | 418 | -17.1 | -20.6 | ||
| 2009-06-24T11:23 | 7381 | 411 | -17.5 | -21.0 | ||
| 2009-06-24T11:24 | 7590 | 400 | -19.1 | -22.0 | 240 | 13 |
| 2009-06-24T11:24 | 7777 | 390 | -20.9 | -23.1 | ||
| 2009-06-24T11:26 | 8202 | 368 | -23.9 | -26.9 | ||
| 2009-06-24T11:26 | 8281 | 364 | -24.3 | -31.3 | ||
| 2009-06-24T11:26 | 8381 | 359 | -24.9 | -33.9 | ||
| 2009-06-24T11:28 | 8964 | 331 | -29.3 | -35.3 | ||
| 2009-06-24T11:30 | 9517 | 306 | -34.9 | -38.0 | ||
| 2009-06-24T11:30 | 9563 | 304 | -34.7 | -38.3 | ||
| 2009-06-24T11:30 | 9609 | 302 | -32.9 | -39.9 | ||
| 2009-06-24T11:30 | 9660 | 300 | -32.7 | -42.7 | 250 | 27 |
| 2009-06-24T11:31 | 9778 | 295 | -33.3 | -49.3 | ||
| 2009-06-24T11:31 | 9874 | 291 | -33.3 | -55.3 | ||
| 2009-06-24T11:33 | 10448 | 268 | -35.7 | -66.7 | ||
| 2009-06-24T11:35 | 10930 | 250 | -39.5 | -70.5 | 270 | 34 |
| 2009-06-24T11:39 | 12410 | 200 | -51.1 | -68.1 | 260 | 24 |
| 2009-06-24T11:42 | 13155 | 178 | -57.3 | -71.3 | ||
| 2009-06-24T11:44 | 13861 | 159 | -60.9 | -72.9 | ||
| 2009-06-24T11:45 | 14230 | 150 | -63.9 | -74.9 | 255 | 28 |
| 2009-06-24T11:47 | 14734 | 138 | -68.1 | -78.1 | ||
| 2009-06-24T11:48 | 14910 | 134 | -68.1 | -78.1 | ||
| 2009-06-24T11:49 | 15326 | 125 | -69.1 | -79.1 | ||
| 2009-06-24T11:50 | 15568 | 120 | -70.1 | -80.1 | ||
| 2009-06-24T11:50 | 15668 | 118 | -68.1 | -78.1 | ||
| 2009-06-24T11:50 | 15770 | 116 | -68.3 | -78.3 | ||
| 2009-06-24T11:51 | 15927 | 113 | -67.1 | -77.1 | ||
| 2009-06-24T11:51 | 16089 | 110 | -66.9 | -76.9 | ||
| 2009-06-24T11:52 | 16255 | 107 | -67.9 | -77.9 | ||
| 2009-06-24T11:53 | 16484 | 103 | -67.5 | -77.5 | ||
| 2009-06-24T11:53 | 16543 | 102 | -66.3 | -77.3 | ||
| 2009-06-24T11:53 | 16670 | 100 | -66.7 | -76.7 | 230 | 11 |
| 2009-06-24T23:23 | 1611 | 840 | 28.4 | 9.4 | 50 | 3 |
| 2009-06-24T23:23 | 1653 | 836 | 28.2 | 8.2 | ||
| 2009-06-24T23:28 | 3046 | 711 | 14.8 | 4.8 | ||
| 2009-06-24T23:28 | 3185 | 700 | 13.4 | 4.4 | 105 | 6 |
| 2009-06-24T23:31 | 3964 | 637 | 5.8 | 3.8 | ||
| 2009-06-24T23:32 | 4341 | 608 | 2.4 | 2.3 | ||
| 2009-06-24T23:32 | 4447 | 600 | 1.6 | -0.1 | ||
| 2009-06-24T23:33 | 4745 | 578 | -1.3 | -2.1 | ||
| 2009-06-24T23:34 | 5052 | 556 | -2.5 | -3.9 | ||
| 2009-06-24T23:35 | 5267 | 541 | -4.3 | -5.0 | ||
| 2009-06-24T23:37 | 5900 | 500 | -6.9 | -7.1 | 125 | 3 |
| 2009-06-24T23:38 | 6104 | 487 | -7.9 | -8.1 | ||
| 2009-06-24T23:43 | 7610 | 400 | -17.3 | -19.3 | 15 | 3 |
| 2009-06-24T23:43 | 7723 | 394 | -18.5 | -20.7 | ||
| 2009-06-24T23:43 | 7856 | 387 | -18.3 | -20.4 | ||
| 2009-06-24T23:44 | 7972 | 381 | -19.1 | -21.5 | ||
| 2009-06-24T23:44 | 8070 | 376 | -18.1 | -20.0 | ||
| 2009-06-24T23:46 | 8495 | 355 | -22.3 | -24.9 | ||
| 2009-06-24T23:49 | 9520 | 308 | -29.9 | -34.8 | ||
| 2009-06-25T11:05 | 1611 | 841 | 16.6 | 13.3 | 160 | 3 |
| 2009-06-25T11:05 | 1652 | 837 | 19.4 | 11.4 | ||
| 2009-06-25T11:05 | 1714 | 831 | 21.0 | 11.0 | ||
| 2009-06-25T11:06 | 1903 | 813 | 22.6 | 8.6 | ||
| 2009-06-25T11:07 | 2118 | 793 | 21.8 | 7.8 | ||
| 2009-06-25T11:08 | 2460 | 762 | 18.8 | 6.8 | ||
| 2009-06-25T11:09 | 2686 | 742 | 18.0 | 3.0 | ||
| 2009-06-25T11:10 | 3071 | 709 | 15.2 | 3.2 | ||
| 2009-06-25T11:10 | 3154 | 702 | 14.8 | 0.8 | ||
| 2009-06-25T11:10 | 3187 | 700 | 14.6 | 0.6 | 165 | 5 |
| 2009-06-25T11:11 | 3405 | 682 | 12.4 | 2.4 | ||
| 2009-06-25T11:13 | 4021 | 633 | 7.2 | 0.2 | ||
| 2009-06-25T11:14 | 4389 | 605 | 4.0 | 0.3 | ||
| 2009-06-25T11:14 | 4443 | 601 | 3.6 | -1.4 | ||
| 2009-06-25T11:15 | 4633 | 587 | 2.2 | -3.8 | ||
| 2009-06-25T11:15 | 4688 | 583 | 1.8 | -2.8 | ||
| 2009-06-25T11:15 | 4729 | 580 | 1.4 | -3.6 | ||
| 2009-06-25T11:16 | 5023 | 559 | -1.3 | -2.3 | ||
| 2009-06-25T11:17 | 5253 | 543 | -2.3 | -4.6 | ||
| 2009-06-25T11:19 | 5920 | 500 | -7.5 | -10.0 | 235 | 5 |
| 2009-06-25T11:19 | 5936 | 499 | -7.7 | -10.3 | ||
| 2009-06-25T11:20 | 6285 | 477 | -9.1 | -12.5 | ||
| 2009-06-25T11:22 | 6816 | 445 | -13.7 | -15.6 | ||
| 2009-06-25T11:22 | 6936 | 438 | -14.7 | -16.0 | ||
| 2009-06-25T11:23 | 7076 | 430 | -14.1 | -16.3 | ||
| 2009-06-25T11:23 | 7181 | 424 | -14.1 | -18.9 | ||
| 2009-06-25T11:23 | 7217 | 422 | -14.5 | -21.5 | ||
| 2009-06-25T11:24 | 7416 | 411 | -16.1 | -25.1 | ||
| 2009-06-25T11:24 | 7545 | 404 | -17.1 | -24.1 | ||
| 2009-06-25T11:25 | 7620 | 400 | -17.5 | -24.5 | 260 | 12 |
| 2009-06-25T11:26 | 8020 | 379 | -20.5 | -27.5 | ||
| 2009-06-25T11:27 | 8237 | 368 | -20.7 | -37.7 | ||
| 2009-06-25T11:28 | 8543 | 353 | -21.9 | -39.9 | ||
| 2009-06-25T11:31 | 9646 | 303 | -29.9 | -46.9 | ||
| 2009-06-25T11:32 | 9720 | 300 | -30.5 | -47.5 | 265 | 24 |
| 2009-06-25T11:33 | 10081 | 285 | -33.9 | -50.9 | ||
| 2009-06-25T11:36 | 10990 | 250 | -41.3 | -56.3 | 255 | 25 |
| 2009-06-25T11:37 | 11293 | 239 | -43.1 | -58.1 | ||
| 2009-06-25T11:38 | 11813 | 221 | -48.1 | -61.1 | ||
| 2009-06-25T11:41 | 12470 | 200 | -52.9 | -64.9 | 245 | 25 |
| 2009-06-25T11:44 | 13532 | 169 | -61.5 | -71.5 | ||
| 2009-06-25T11:45 | 13869 | 160 | -62.7 | -72.7 | ||
| 2009-06-25T11:46 | 14260 | 150 | -65.5 | -74.5 | 245 | 25 |
| 2009-06-25T11:48 | 14632 | 141 | -68.5 | -76.5 | ||
| 2009-06-25T11:48 | 14760 | 138 | -69.3 | |||
| 2009-06-25T11:49 | 14935 | 134 | -68.9 | |||
| 2009-06-25T11:49 | 15161 | 129 | -69.7 | |||
| 2009-06-25T11:51 | 15491 | 122 | -71.5 | |||
| 2009-06-25T11:51 | 15786 | 116 | -73.9 | |||
| 2009-06-25T11:52 | 16096 | 110 | -73.1 | |||
| 2009-06-25T11:53 | 16204 | 108 | -70.5 | |||
| 2009-06-25T11:53 | 16315 | 106 | -68.9 | |||
| 2009-06-25T11:54 | 16545 | 102 | -68.1 | |||
| 2009-06-25T11:54 | 16670 | 100 | -68.7 | 280 | 6 | |
| 2009-06-25T23:03 | 1611 | 839 | 19.6 | 16.8 | 300 | 1 |
| 2009-06-25T23:04 | 1765 | 824 | 20.4 | 11.4 | ||
| 2009-06-25T23:04 | 1955 | 806 | 21.4 | 11.4 | ||
| 2009-06-25T23:05 | 2247 | 779 | 19.2 | 9.2 | ||
| 2009-06-25T23:06 | 2402 | 765 | 19.4 | 8.4 | ||
| 2009-06-25T23:06 | 2582 | 749 | 18.0 | 8.0 | ||
| 2009-06-25T23:07 | 2684 | 740 | 16.4 | 7.4 | ||
| 2009-06-25T23:07 | 2776 | 732 | 15.2 | 9.2 | ||
| 2009-06-25T23:08 | 3139 | 701 | 12.6 | 9.6 | ||
| 2009-06-25T23:08 | 3168 | 700 | 12.4 | 9.4 | 190 | 4 |
| 2009-06-25T23:08 | 3216 | 696 | 12.4 | 6.4 | ||
| 2009-06-25T23:09 | 3361 | 684 | 11.4 | 6.4 | ||
| 2009-06-25T23:10 | 3681 | 658 | 7.4 | 3.5 | ||
| 2009-06-25T23:10 | 3857 | 644 | 7.0 | 4.4 | ||
| 2009-06-25T23:11 | 3946 | 637 | 5.8 | 4.4 | ||
| 2009-06-25T23:11 | 4036 | 630 | 7.2 | 5.5 | ||
| 2009-06-25T23:12 | 4232 | 615 | 4.4 | 3.8 | ||
| 2009-06-25T23:12 | 4245 | 614 | 5.2 | 5.0 | ||
| 2009-06-25T23:13 | 4594 | 588 | 1.6 | 1.6 | ||
| 2009-06-25T23:13 | 4676 | 582 | 1.2 | 1.1 | ||
| 2009-06-25T23:13 | 4704 | 580 | 2.6 | 2.3 | ||
| 2009-06-25T23:14 | 4816 | 572 | 1.8 | 1.7 | ||
| 2009-06-25T23:14 | 5057 | 555 | -1.7 | -1.9 | ||
| 2009-06-25T23:16 | 5451 | 528 | -3.3 | -4.1 | ||
| 2009-06-25T23:16 | 5586 | 519 | -4.9 | -5.9 | ||
| 2009-06-25T23:17 | 5785 | 506 | -4.9 | -5.9 | ||
| 2009-06-25T23:17 | 5900 | 500 | -5.7 | -6.9 | 220 | 5 |
| 2009-06-25T23:18 | 6331 | 473 | -8.3 | -10.5 | ||
| 2009-06-25T23:20 | 6715 | 450 | -10.3 | -11.5 | ||
| 2009-06-25T23:22 | 7314 | 416 | -13.9 | -16.9 | ||
| 2009-06-25T23:23 | 7620 | 400 | -15.7 | -18.9 | 270 | 5 |
| 2009-06-25T23:26 | 8527 | 354 | -21.9 | -26.3 | ||
| 2009-06-26T11:08 | 1611 | 837 | 16.2 | 14.7 | 270 | 3 |
| 2009-06-26T11:08 | 1662 | 832 | 17.2 | 15.5 | ||
| 2009-06-26T11:09 | 1878 | 811 | 16.2 | 13.6 | ||
| 2009-06-26T11:10 | 2154 | 785 | 18.0 | 10.0 | ||
| 2009-06-26T11:10 | 2329 | 769 | 16.8 | 9.8 | ||
| 2009-06-26T11:11 | 2507 | 753 | 16.6 | 8.6 | ||
| 2009-06-26T11:12 | 2723 | 734 | 14.8 | 7.8 | ||
| 2009-06-26T11:13 | 3133 | 700 | 13.0 | 6.0 | 215 | 10 |
| 2009-06-26T11:14 | 3448 | 674 | 11.0 | 4.0 | ||
| 2009-06-26T11:17 | 4359 | 603 | 3.4 | 1.0 | ||
| 2009-06-26T11:19 | 4995 | 557 | -1.1 | -1.8 | ||
| 2009-06-26T11:20 | 5226 | 541 | -1.7 | -2.6 | ||
| 2009-06-26T11:21 | 5508 | 522 | -4.3 | -4.5 | ||
| 2009-06-26T11:21 | 5676 | 511 | -4.3 | -5.0 | ||
| 2009-06-26T11:22 | 5860 | 500 | -5.5 | -6.3 | 200 | 8 |
| 2009-06-26T11:24 | 6374 | 468 | -8.5 | -10.6 | ||
| 2009-06-26T11:24 | 6608 | 454 | -9.5 | -11.9 | ||
| 2009-06-26T11:25 | 6797 | 443 | -10.1 | -15.1 | ||
| 2009-06-26T11:28 | 7580 | 400 | -15.9 | -21.9 | 200 | 10 |
| 2009-06-26T11:28 | 7712 | 393 | -16.7 | -22.7 | ||
| 2009-06-26T11:30 | 8424 | 357 | -22.1 | -26.4 | ||
| 2009-06-26T11:31 | 8611 | 348 | -23.1 | -26.2 | ||
| 2009-06-26T11:31 | 8695 | 344 | -23.5 | -28.5 | ||
| 2009-06-26T11:32 | 8866 | 336 | -24.5 | -31.5 | ||
| 2009-06-26T11:34 | 9690 | 300 | -31.7 | -38.7 | 220 | 14 |
| 2009-06-26T11:36 | 10026 | 286 | -34.7 | -42.7 | ||
| 2009-06-26T11:38 | 10709 | 259 | -39.1 | -47.1 | ||
| 2009-06-26T11:38 | 10842 | 254 | -39.7 | -49.7 | ||
| 2009-06-26T11:39 | 10950 | 250 | -40.9 | -52.9 | 215 | 24 |
| 2009-06-26T11:39 | 11170 | 242 | -42.7 | -55.7 | ||
| 2009-06-26T11:42 | 11863 | 218 | -49.1 | -61.1 | ||
| 2009-06-26T11:43 | 12430 | 200 | -53.3 | -64.3 | 215 | 28 |
| 2009-06-26T11:49 | 14230 | 150 | -66.5 | -75.5 | 205 | 19 |
| 2009-06-26T11:50 | 14270 | 149 | -66.7 | -75.7 | ||
| 2009-06-26T11:50 | 14433 | 145 | -68.5 | |||
| 2009-06-26T11:52 | 15085 | 130 | -69.1 | |||
| 2009-06-26T11:53 | 15318 | 125 | -69.5 | |||
| 2009-06-26T11:54 | 15710 | 117 | -71.1 | |||
| 2009-06-26T11:54 | 15761 | 116 | -70.1 | |||
| 2009-06-26T11:56 | 16129 | 109 | -71.1 | |||
| 2009-06-26T11:56 | 16238 | 107 | -70.7 | |||
| 2009-06-26T11:57 | 16406 | 104 | -71.7 | |||
| 2009-06-26T11:57 | 16640 | 100 | -70.9 | 260 | 12 | |
| 2009-06-26T23:01 | 1611 | 835 | 21.6 | 14.6 | 85 | 4 |
| 2009-06-26T23:02 | 1787 | 818 | 18.8 | 10.8 | ||
| 2009-06-26T23:02 | 2008 | 797 | 18.0 | 12.0 | ||
| 2009-06-26T23:03 | 2072 | 791 | 17.8 | 8.8 | ||
| 2009-06-26T23:04 | 2478 | 754 | 16.4 | 6.4 | ||
| 2009-06-26T23:06 | 3118 | 700 | 13.2 | 2.2 | 270 | 12 |
| 2009-06-26T23:06 | 3142 | 698 | 13.2 | 2.2 | ||
| 2009-06-26T23:09 | 4079 | 623 | 5.0 | 0.1 | ||
| 2009-06-26T23:11 | 4519 | 590 | 2.8 | -0.8 | ||
| 2009-06-26T23:12 | 4994 | 556 | -0.9 | -3.8 | ||
| 2009-06-26T23:14 | 5433 | 526 | -2.9 | -6.9 | ||
| 2009-06-26T23:14 | 5584 | 516 | -3.7 | -11.7 | ||
| 2009-06-26T23:15 | 5850 | 500 | -5.3 | -12.3 | 240 | 18 |
| 2009-06-26T23:17 | 6513 | 459 | -10.5 | -14.7 | ||
| 2009-06-26T23:18 | 6699 | 448 | -11.7 | -16.6 | ||
| 2009-06-26T23:21 | 7560 | 400 | -15.7 | -22.7 | 215 | 23 |
| 2009-06-26T23:21 | 7674 | 394 | -16.1 | -24.1 | ||
| 2009-06-26T23:21 | 7770 | 389 | -16.9 | -26.9 | ||
| 2009-06-26T23:22 | 8043 | 375 | -19.3 | -29.3 | ||
| 2009-06-26T23:22 | 8102 | 372 | -19.7 | -31.7 | ||
| 2009-06-26T23:23 | 8467 | 354 | -22.7 | -32.7 | ||
| 2009-06-26T23:24 | 8698 | 343 | -23.3 | -33.3 | ||
| 2009-06-26T23:26 | 9111 | 324 | -27.1 | -33.1 | ||
| 2009-06-26T23:27 | 9450 | 309 | -29.1 | -38.1 | ||
| 2009-06-26T23:27 | 9670 | 300 | -29.5 | -42.5 | 220 | 21 |
| 2009-06-26T23:28 | 9718 | 298 | -29.7 | -43.7 | ||
| 2009-06-26T23:30 | 10359 | 272 | -35.9 | -54.9 | ||
| 2009-06-26T23:30 | 10591 | 263 | -37.7 | -75.7 | ||
| 2009-06-26T23:32 | 10940 | 250 | -40.5 | -77.5 | 235 | 23 |
| 2009-06-26T23:33 | 11500 | 230 | -45.5 | -80.5 | ||
| 2009-06-26T23:36 | 12420 | 200 | -52.7 | -73.7 | 235 | 25 |
| 2009-06-26T23:37 | 12681 | 192 | -55.1 | -73.1 | ||
| 2009-06-26T23:41 | 13820 | 160 | -63.3 | -76.3 | ||
| 2009-06-26T23:42 | 14220 | 150 | -64.9 | -76.9 | 235 | 22 |
| 2009-06-26T23:45 | 15035 | 131 | -69.1 | -80.1 | ||
| 2009-06-26T23:46 | 15267 | 126 | -68.3 | -79.3 | ||
| 2009-06-26T23:47 | 15509 | 121 | -68.3 | -79.3 | ||
| 2009-06-26T23:48 | 15864 | 114 | -69.9 | -80.9 | ||
| 2009-06-26T23:48 | 16023 | 111 | -69.1 | -80.1 | ||
| 2009-06-26T23:49 | 16132 | 109 | -66.9 | -77.9 | ||
| 2009-06-26T23:49 | 16300 | 106 | -66.9 | -78.9 | ||
| 2009-06-26T23:50 | 16415 | 104 | -64.5 | -76.5 | ||
| 2009-06-26T23:50 | 16474 | 103 | -63.5 | -76.5 | ||
| 2009-06-26T23:50 | 16660 | 100 | -64.5 | -76.5 | 305 | 3 |
| 2009-06-27T11:03 | 1611 | 840 | 15.6 | 13.3 | 230 | 1 |
| 2009-06-27T11:03 | 1713 | 830 | 19.0 | 10.0 | ||
| 2009-06-27T11:04 | 1848 | 817 | 19.0 | 8.0 | ||
| 2009-06-27T11:06 | 2637 | 744 | 12.4 | 3.4 | ||
| 2009-06-27T11:08 | 3155 | 700 | 8.0 | 3.0 | 300 | 3 |
| 2009-06-27T11:09 | 3404 | 679 | 5.6 | 1.8 | ||
| 2009-06-27T11:11 | 3971 | 633 | 1.6 | -0.5 | ||
| 2009-06-27T11:12 | 4280 | 609 | 0.2 | -1.2 | ||
| 2009-06-27T11:12 | 4479 | 594 | -0.9 | -3.5 | ||
| 2009-06-27T11:13 | 4614 | 584 | -1.7 | -2.3 | ||
| 2009-06-27T11:14 | 4917 | 562 | -4.3 | -4.6 | ||
| 2009-06-27T11:14 | 5001 | 556 | -4.7 | -6.1 | ||
| 2009-06-27T11:15 | 5186 | 543 | -6.3 | -6.6 | ||
| 2009-06-27T11:15 | 5345 | 532 | -6.5 | -6.5 | ||
| 2009-06-27T11:16 | 5478 | 523 | -7.5 | -8.1 | ||
| 2009-06-27T11:16 | 5523 | 520 | -7.9 | -11.2 | ||
| 2009-06-27T11:16 | 5568 | 517 | -8.1 | -12.1 | ||
| 2009-06-27T11:17 | 5840 | 500 | -10.1 | -13.6 | 260 | 17 |
| 2009-06-27T11:18 | 6152 | 480 | -11.9 | -13.9 | ||
| 2009-06-27T11:18 | 6232 | 475 | -12.9 | -19.9 | ||
| 2009-06-27T11:19 | 6345 | 468 | -12.5 | -22.5 | ||
| 2009-06-27T11:20 | 6661 | 449 | -12.1 | -25.1 | ||
| 2009-06-27T11:21 | 6954 | 432 | -14.7 | -27.7 | ||
| 2009-06-27T11:22 | 7540 | 400 | -18.3 | -33.3 | 240 | 27 |
| 2009-06-27T11:23 | 7671 | 393 | -19.3 | -33.3 | ||
| 2009-06-27T11:24 | 7959 | 378 | -20.3 | -35.3 | ||
| 2009-06-27T11:26 | 8668 | 343 | -26.3 | -40.3 | ||
| 2009-06-27T11:29 | 9630 | 300 | -31.9 | -45.9 | 230 | 36 |
| 2009-06-27T11:30 | 9748 | 295 | -32.5 | -46.5 | ||
| 2009-06-27T11:33 | 10890 | 250 | -41.5 | -53.5 | 225 | 39 |
| 2009-06-27T11:35 | 11391 | 232 | -45.5 | -57.5 | ||
| 2009-06-27T11:38 | 12370 | 200 | -52.5 | -63.5 | 230 | 38 |
| 2009-06-27T11:40 | 12868 | 185 | -55.9 | -65.9 | ||
| 2009-06-27T11:41 | 13184 | 176 | -56.9 | -66.9 | ||
| 2009-06-27T11:43 | 13858 | 158 | -61.3 | -70.3 | ||
| 2009-06-27T11:44 | 14180 | 150 | -63.5 | 225 | 31 | |
| 2009-06-27T11:45 | 14387 | 145 | -64.7 | |||
| 2009-06-27T11:46 | 14732 | 137 | -64.9 | |||
| 2009-06-27T11:46 | 14867 | 134 | -63.3 | |||
| 2009-06-27T11:48 | 15194 | 127 | -65.3 | |||
| 2009-06-27T11:48 | 15339 | 124 | -64.9 | |||
| 2009-06-27T11:49 | 15690 | 117 | -67.9 | |||
| 2009-06-27T11:49 | 15793 | 115 | -67.7 | |||
| 2009-06-27T11:51 | 16280 | 106 | -69.5 | |||
| 2009-06-27T11:51 | 16393 | 104 | -69.5 | |||
| 2009-06-27T11:52 | 16509 | 102 | -68.1 | |||
| 2009-06-27T11:52 | 16630 | 100 | -68.1 | 215 | 15 | |
| 2009-06-27T23:10 | 1611 | 842 | 27.8 | 8.8 | 100 | 5 |
| 2009-06-27T23:11 | 1768 | 827 | 25.0 | 8.0 | ||
| 2009-06-27T23:15 | 3193 | 700 | 11.2 | 3.2 | 105 | 4 |
| 2009-06-27T23:16 | 3457 | 678 | 8.8 | 2.8 | ||
| 2009-06-27T23:19 | 4356 | 607 | 1.8 | -6.2 | ||
| 2009-06-27T23:20 | 4790 | 575 | 0.6 | -30.4 | ||
| 2009-06-27T23:24 | 5826 | 504 | -8.5 | -34.5 | ||
| 2009-06-27T23:24 | 5900 | 500 | -8.7 | -34.7 | 305 | 7 |
| 2009-06-27T23:27 | 6656 | 453 | -12.9 | -36.9 | ||
| 2009-06-27T23:30 | 7590 | 400 | -21.5 | -44.5 | 290 | 6 |
| 2009-06-27T23:31 | 7888 | 384 | -24.3 | -46.3 | ||
| 2009-06-27T23:34 | 8999 | 329 | -29.9 | -48.9 | ||
| 2009-06-27T23:35 | 9374 | 312 | -32.9 | -53.9 | ||
| 2009-06-27T23:36 | 9650 | 300 | -33.7 | -56.7 | 250 | 31 |
| 2009-06-27T23:39 | 10403 | 269 | -39.7 | -60.7 | ||
| 2009-06-27T23:40 | 10910 | 250 | -42.7 | -62.7 | 240 | 41 |
| 2009-06-27T23:44 | 12034 | 211 | -49.9 | -65.9 | ||
| 2009-06-27T23:45 | 12380 | 200 | -52.9 | -66.9 | 240 | 44 |
| 2009-06-27T23:46 | 12477 | 197 | -53.7 | -67.7 | ||
| 2009-06-27T23:47 | 12810 | 187 | -55.3 | -68.3 | ||
| 2009-06-27T23:48 | 13087 | 179 | -57.5 | -69.5 | ||
| 2009-06-27T23:50 | 13748 | 161 | -61.5 | -72.5 | ||
| 2009-06-27T23:51 | 14190 | 150 | -62.1 | -73.1 | 250 | 36 |
| 2009-06-27T23:52 | 14484 | 143 | -62.9 | -73.9 | ||
| 2009-06-27T23:53 | 14835 | 135 | -66.1 | -76.1 | ||
| 2009-06-27T23:54 | 15109 | 129 | -66.9 | -76.9 | ||
| 2009-06-27T23:56 | 15544 | 120 | -67.3 | -77.3 | ||
| 2009-06-27T23:56 | 15645 | 118 | -67.9 | -77.9 | ||
| 2009-06-27T23:56 | 15748 | 116 | -66.7 | -76.7 | ||
| 2009-06-27T23:57 | 15906 | 113 | -67.1 | -77.1 | ||
| 2009-06-27T23:57 | 15960 | 112 | -65.3 | -75.3 | ||
| 2009-06-27T23:57 | 16069 | 110 | -64.9 | -74.9 | ||
| 2009-06-27T23:58 | 16237 | 107 | -65.1 | -75.1 | ||
| 2009-06-27T23:59 | 16650 | 100 | -67.7 | -77.7 | 245 | 15 |
| 2009-06-28T11:06 | 1611 | 845 | 14.2 | 10.6 | 285 | 2 |
| 2009-06-28T11:06 | 1671 | 839 | 15.4 | 11.6 | ||
| 2009-06-28T11:07 | 1956 | 811 | 13.4 | 8.9 | ||
| 2009-06-28T11:07 | 2039 | 803 | 15.0 | 9.0 | ||
| 2009-06-28T11:08 | 2187 | 789 | 14.8 | 8.8 | ||
| 2009-06-28T11:09 | 2545 | 756 | 12.4 | 7.9 | ||
| 2009-06-28T11:10 | 2837 | 730 | 12.8 | 6.8 | ||
| 2009-06-28T11:11 | 3193 | 700 | 10.2 | 4.2 | 215 | 4 |
| 2009-06-28T11:13 | 3702 | 658 | 6.4 | 1.4 | ||
| 2009-06-28T11:14 | 4004 | 634 | 4.2 | -4.8 | ||
| 2009-06-28T11:14 | 4158 | 622 | 2.8 | -5.2 | ||
| 2009-06-28T11:14 | 4171 | 621 | 2.8 | -5.2 | ||
| 2009-06-28T11:14 | 4197 | 619 | 2.8 | -8.2 | ||
| 2009-06-28T11:15 | 4315 | 610 | 2.4 | -13.6 | ||
| 2009-06-28T11:16 | 4569 | 591 | 1.6 | -28.4 | ||
| 2009-06-28T11:16 | 4802 | 574 | -0.5 | -23.5 | ||
| 2009-06-28T11:19 | 5492 | 526 | -4.3 | -28.3 | ||
| 2009-06-28T11:20 | 5900 | 500 | -7.7 | -30.7 | 300 | 4 |
| 2009-06-28T11:23 | 6892 | 439 | -16.3 | -37.3 | ||
| 2009-06-28T11:25 | 7365 | 412 | -19.7 | -38.7 | ||
| 2009-06-28T11:25 | 7473 | 406 | -20.5 | -32.5 | ||
| 2009-06-28T11:26 | 7590 | 400 | -21.5 | -31.5 | 245 | 7 |
| 2009-06-28T11:26 | 7757 | 391 | -22.1 | -32.1 | ||
| 2009-06-28T11:27 | 7965 | 380 | -24.1 | -33.1 | ||
| 2009-06-28T11:27 | 8023 | 377 | -24.5 | -30.5 | ||
| 2009-06-28T11:28 | 8237 | 366 | -26.5 | -29.4 | ||
| 2009-06-28T11:28 | 8356 | 360 | -27.5 | -31.3 | ||
| 2009-06-28T11:29 | 8517 | 352 | -29.1 | -32.4 | ||
| 2009-06-28T11:29 | 8578 | 349 | -28.9 | -33.0 | ||
| 2009-06-28T11:29 | 8723 | 342 | -28.5 | -41.5 | ||
| 2009-06-28T11:30 | 8934 | 332 | -30.1 | -51.1 | ||
| 2009-06-28T11:32 | 9553 | 304 | -35.3 | -61.3 | ||
| 2009-06-28T11:32 | 9650 | 300 | -35.3 | -61.3 | 260 | 24 |
| 2009-06-28T11:33 | 9743 | 296 | -35.9 | -61.9 | ||
| 2009-06-28T11:35 | 10450 | 267 | -41.1 | -64.1 | ||
| 2009-06-28T11:36 | 10761 | 255 | -42.5 | -64.5 | ||
| 2009-06-28T11:36 | 10900 | 250 | -43.7 | -63.7 | 255 | 33 |
| 2009-06-28T11:38 | 11453 | 230 | -48.7 | -61.7 | ||
| 2009-06-28T11:39 | 11539 | 227 | -48.1 | -61.1 | ||
| 2009-06-28T11:39 | 11744 | 220 | -49.1 | -64.1 | ||
| 2009-06-28T11:41 | 12360 | 200 | -53.7 | -66.7 | 260 | 39 |
| 2009-06-28T11:42 | 12457 | 197 | -54.7 | -67.7 | ||
| 2009-06-28T11:43 | 12891 | 184 | -56.3 | -69.3 | ||
| 2009-06-28T11:45 | 13426 | 169 | -60.1 | -72.1 | ||
| 2009-06-28T11:46 | 13882 | 157 | -61.5 | -72.5 | ||
| 2009-06-28T11:47 | 14170 | 150 | -63.5 | -74.5 | 260 | 32 |
| 2009-06-28T11:48 | 14461 | 143 | -65.7 | -75.7 | ||
| 2009-06-28T11:49 | 14589 | 140 | -66.3 | -76.3 | ||
| 2009-06-28T11:49 | 14765 | 136 | -65.3 | -75.3 | ||
| 2009-06-28T11:50 | 15084 | 129 | -67.7 | -77.7 | ||
| 2009-06-28T11:52 | 15567 | 119 | -68.5 | -77.5 | ||
| 2009-06-28T11:52 | 15720 | 116 | -66.9 | -76.9 | ||
| 2009-06-28T11:53 | 15826 | 114 | -66.5 | -76.5 | ||
| 2009-06-28T11:53 | 15986 | 111 | -66.5 | -76.5 | ||
| 2009-06-28T11:54 | 16151 | 108 | -67.9 | -77.9 | ||
| 2009-06-28T11:54 | 16320 | 105 | -67.3 | -77.3 | ||
| 2009-06-28T11:55 | 16495 | 102 | -65.5 | -75.5 | ||
| 2009-06-28T11:55 | 16620 | 100 | -65.3 | -75.3 | 260 | 9 |
| 2009-06-28T23:04 | 1611 | 840 | 26.6 | 9.6 | 355 | 4 |
| 2009-06-28T23:04 | 1653 | 836 | 25.8 | 8.8 | ||
| 2009-06-28T23:07 | 2452 | 762 | 18.2 | 7.2 | ||
| 2009-06-28T23:08 | 2966 | 717 | 13.6 | 5.6 | ||
| 2009-06-28T23:09 | 3180 | 700 | 11.8 | 6.8 | 155 | 4 |
| 2009-06-28T23:11 | 3841 | 646 | 5.4 | 4.7 | ||
| 2009-06-28T23:12 | 3942 | 638 | 4.8 | 3.7 | ||
| 2009-06-28T23:12 | 3967 | 636 | 4.8 | 1.9 | ||
| 2009-06-28T23:12 | 4005 | 633 | 4.8 | 1.9 | ||
| 2009-06-28T23:12 | 4031 | 631 | 4.8 | -2.2 | ||
| 2009-06-28T23:12 | 4147 | 622 | 4.2 | -2.8 | ||
| 2009-06-28T23:12 | 4186 | 619 | 4.6 | -5.4 | ||
| 2009-06-28T23:13 | 4345 | 607 | 3.8 | -7.2 | ||
| 2009-06-28T23:15 | 4976 | 561 | -2.3 | -9.3 | ||
| 2009-06-28T23:15 | 5103 | 552 | -3.3 | -11.3 | ||
| 2009-06-28T23:16 | 5232 | 543 | -4.3 | -13.3 | ||
| 2009-06-28T23:16 | 5276 | 540 | -4.5 | -16.5 | ||
| 2009-06-28T23:17 | 5436 | 529 | -5.9 | -17.9 | ||
| 2009-06-28T23:17 | 5480 | 526 | -5.9 | -21.9 | ||
| 2009-06-28T23:17 | 5554 | 521 | -6.3 | -24.3 | ||
| 2009-06-28T23:18 | 5890 | 500 | -8.9 | -26.9 | 325 | 6 |
| 2009-06-28T23:20 | 6380 | 469 | -12.7 | -29.7 | ||
| 2009-06-28T23:21 | 6660 | 452 | -13.7 | -28.7 | ||
| 2009-06-28T23:22 | 7088 | 427 | -17.3 | -29.3 | ||
| 2009-06-28T23:22 | 7176 | 422 | -17.7 | -23.7 | ||
| 2009-06-28T23:23 | 7482 | 405 | -19.5 | -21.6 | ||
| 2009-06-28T23:24 | 7580 | 400 | -20.3 | -22.6 | 240 | 14 |
| 2009-06-28T23:25 | 7995 | 378 | -23.3 | -26.8 | ||
| 2009-06-28T23:25 | 8151 | 370 | -24.3 | -31.3 | ||
| 2009-06-28T23:27 | 8615 | 347 | -26.9 | -34.9 | ||
| 2009-06-28T23:29 | 9126 | 323 | -31.3 | -43.3 | ||
| 2009-06-28T23:29 | 9236 | 318 | -32.1 | -48.1 | ||
| 2009-06-28T23:29 | 9347 | 313 | -32.9 | -46.9 | ||
| 2009-06-28T23:30 | 9650 | 300 | -34.7 | -51.7 | 250 | 26 |
| 2009-06-28T23:31 | 9957 | 287 | -36.5 | -55.5 | ||
| 2009-06-28T23:34 | 10900 | 250 | -43.1 | -60.1 | 250 | 36 |
| 2009-06-28T23:39 | 12334 | 201 | -53.1 | -66.1 | ||
| 2009-06-28T23:39 | 12370 | 200 | -53.3 | -66.3 | 260 | 41 |
| 2009-06-28T23:44 | 13892 | 157 | -62.5 | -72.5 | ||
| 2009-06-28T23:45 | 14180 | 150 | -63.7 | -73.7 | 265 | 33 |
| 2009-06-28T23:46 | 14303 | 147 | -64.1 | -74.1 | ||
| 2009-06-28T23:48 | 15005 | 131 | -65.1 | -75.1 | ||
| 2009-06-28T23:49 | 15437 | 122 | -65.5 | -75.5 | ||
| 2009-06-28T23:49 | 15487 | 121 | -64.7 | -74.7 | ||
| 2009-06-28T23:50 | 15640 | 118 | -64.5 | -74.5 | ||
| 2009-06-28T23:51 | 16066 | 110 | -66.5 | -76.5 | ||
| 2009-06-28T23:52 | 16347 | 105 | -65.5 | -75.5 | ||
| 2009-06-28T23:53 | 16640 | 100 | -65.7 | -75.7 | 280 | 9 |
| 2009-06-29T11:02 | 1611 | 839 | 15.6 | 8.6 | 200 | 3 |
| 2009-06-29T11:02 | 1702 | 830 | 18.8 | 5.8 | ||
| 2009-06-29T11:03 | 1827 | 818 | 20.8 | 2.8 | ||
| 2009-06-29T11:04 | 2104 | 792 | 21.0 | 2.0 | ||
| 2009-06-29T11:07 | 3067 | 707 | 13.6 | -2.4 | ||
| 2009-06-29T11:07 | 3165 | 700 | 12.8 | -2.2 | 250 | 4 |
| 2009-06-29T11:09 | 3653 | 660 | 8.4 | -6.6 | ||
| 2009-06-29T11:12 | 4587 | 588 | -0.7 | -7.7 | ||
| 2009-06-29T11:12 | 4669 | 582 | -0.9 | -6.9 | ||
| 2009-06-29T11:13 | 4848 | 569 | -1.7 | -27.7 | ||
| 2009-06-29T11:13 | 5031 | 556 | -2.9 | -29.9 | ||
| 2009-06-29T11:14 | 5319 | 536 | -5.3 | -37.3 | ||
| 2009-06-29T11:16 | 5827 | 502 | -9.7 | -27.7 | ||
| 2009-06-29T11:16 | 5870 | 500 | -9.9 | -28.9 | 295 | 9 |
| 2009-06-29T11:17 | 6198 | 479 | -12.5 | -39.5 | ||
| 2009-06-29T11:18 | 6538 | 458 | -15.1 | -41.1 | ||
| 2009-06-29T11:20 | 7169 | 421 | -18.1 | -49.1 | ||
| 2009-06-29T11:21 | 7550 | 400 | -21.1 | -53.1 | 310 | 5 |
| 2009-06-29T11:24 | 8215 | 365 | -27.5 | -54.5 | ||
| 2009-06-29T11:26 | 8804 | 336 | -31.3 | -63.3 | ||
| 2009-06-29T11:26 | 8953 | 329 | -31.3 | -64.3 | ||
| 2009-06-29T11:27 | 9192 | 318 | -32.9 | -67.9 | ||
| 2009-06-29T11:28 | 9610 | 300 | -35.9 | -67.9 | 280 | 11 |
| 2009-06-29T11:29 | 9773 | 293 | -37.3 | -66.3 | ||
| 2009-06-29T11:30 | 10061 | 281 | -38.1 | -70.1 | ||
| 2009-06-29T11:32 | 10617 | 259 | -41.1 | -71.1 | ||
| 2009-06-29T11:32 | 10850 | 250 | -42.7 | -70.7 | 270 | 26 |
| 2009-06-29T11:35 | 11820 | 216 | -49.1 | -69.1 | ||
| 2009-06-29T11:37 | 12330 | 200 | -53.1 | -69.1 | 265 | 36 |
| 2009-06-29T11:37 | 12427 | 197 | -53.9 | -69.9 | ||
| 2009-06-29T11:42 | 13776 | 159 | -61.5 | -73.5 | ||
| 2009-06-29T11:43 | 14130 | 150 | -64.3 | -75.3 | 275 | 31 |
| 2009-06-29T11:45 | 14682 | 137 | -65.1 | -76.1 | ||
| 2009-06-29T11:46 | 15000 | 130 | -65.9 | -76.9 | ||
| 2009-06-29T11:46 | 15047 | 129 | -65.3 | -76.3 | ||
| 2009-06-29T11:47 | 15238 | 125 | -66.1 | -77.1 | ||
| 2009-06-29T11:48 | 15588 | 118 | -64.5 | -75.5 | ||
| 2009-06-29T11:49 | 15905 | 112 | -65.5 | -76.5 | ||
| 2009-06-29T11:51 | 16409 | 103 | -68.9 | -78.9 | ||
| 2009-06-29T11:51 | 16590 | 100 | -68.3 | -78.3 | 285 | 16 |
| 2009-06-29T23:01 | 1611 | 837 | 30.6 | -0.4 | 30 | 3 |
| 2009-06-29T23:01 | 1643 | 834 | 30.0 | -8.0 | ||
| 2009-06-29T23:02 | 1889 | 811 | 27.0 | -10.0 | ||
| 2009-06-29T23:05 | 2786 | 731 | 18.2 | -7.8 | ||
| 2009-06-29T23:06 | 3161 | 700 | 14.8 | -8.2 | 45 | 3 |
| 2009-06-29T23:10 | 4362 | 605 | 3.0 | -9.0 | ||
| 2009-06-29T23:13 | 5395 | 531 | -6.9 | -10.3 | ||
| 2009-06-29T23:14 | 5483 | 525 | -7.3 | -11.9 | ||
| 2009-06-29T23:15 | 5737 | 508 | -9.7 | -13.0 | ||
| 2009-06-29T23:15 | 5870 | 500 | -10.5 | -14.1 | 290 | 13 |
| 2009-06-29T23:15 | 6009 | 491 | -11.7 | -15.8 | ||
| 2009-06-29T23:16 | 6056 | 488 | -11.9 | -18.9 | ||
| 2009-06-29T23:16 | 6119 | 484 | -12.1 | -20.1 | ||
| 2009-06-29T23:16 | 6262 | 475 | -13.3 | -17.3 | ||
| 2009-06-29T23:17 | 6407 | 466 | -14.1 | -18.1 | ||
| 2009-06-29T23:17 | 6489 | 461 | -14.1 | -19.1 | ||
| 2009-06-29T23:17 | 6522 | 459 | -14.1 | -23.1 | ||
| 2009-06-29T23:17 | 6572 | 456 | -14.3 | -26.3 | ||
| 2009-06-29T23:17 | 6605 | 454 | -14.3 | -35.3 | ||
| 2009-06-29T23:18 | 6655 | 451 | -14.3 | -40.3 | ||
| 2009-06-29T23:19 | 6979 | 432 | -16.1 | -41.1 | ||
| 2009-06-29T23:21 | 7560 | 400 | -21.3 | -49.3 | 295 | 8 |
| 2009-06-29T23:22 | 7954 | 379 | -25.1 | -52.1 | ||
| 2009-06-29T23:24 | 8527 | 350 | -28.3 | -56.3 | ||
| 2009-06-29T23:26 | 9293 | 314 | -34.9 | -63.9 | ||
| 2009-06-29T23:27 | 9610 | 300 | -36.9 | -65.9 | 275 | 12 |
| 2009-06-29T23:29 | 10131 | 278 | -40.9 | -67.9 | ||
| 2009-06-29T23:31 | 10850 | 250 | -44.9 | -68.9 | 280 | 21 |
| 2009-06-29T23:32 | 10930 | 247 | -44.9 | -68.9 | ||
| 2009-06-29T23:35 | 11963 | 211 | -52.1 | -71.1 | ||
| 2009-06-29T23:36 | 12310 | 200 | -53.5 | -71.5 | 275 | 28 |
| 2009-06-29T23:37 | 12638 | 190 | -54.7 | -72.7 | ||
| 2009-06-29T23:39 | 13052 | 178 | -57.5 | -73.5 | ||
| 2009-06-29T23:42 | 14120 | 150 | -62.5 | -76.5 | 280 | 27 |
| 2009-06-29T23:43 | 14328 | 145 | -63.5 | -77.5 | ||
| 2009-06-29T23:45 | 14995 | 130 | -64.7 | -77.7 | ||
| 2009-06-29T23:46 | 15284 | 124 | -62.5 | -76.5 | ||
| 2009-06-29T23:48 | 16071 | 109 | -65.9 | -78.9 | ||
| 2009-06-29T23:49 | 16240 | 106 | -64.9 | -77.9 | ||
| 2009-06-29T23:50 | 16600 | 100 | -65.9 | -78.9 | 330 | 9 |
| 2009-06-30T11:06 | 1611 | 839 | 16.6 | 7.6 | 195 | 2 |
| 2009-06-30T11:06 | 1621 | 838 | 17.6 | 7.6 | ||
| 2009-06-30T11:06 | 1651 | 835 | 18.4 | 7.4 | ||
| 2009-06-30T11:06 | 1713 | 829 | 19.4 | 3.4 | ||
| 2009-06-30T11:07 | 1870 | 814 | 21.6 | 2.6 | ||
| 2009-06-30T11:08 | 2291 | 775 | 19.8 | 0.8 | ||
| 2009-06-30T11:11 | 3158 | 700 | 12.8 | -2.2 | 255 | 2 |
| 2009-06-30T11:12 | 3583 | 665 | 8.8 | -4.2 | ||
| 2009-06-30T11:13 | 3796 | 648 | 7.2 | -10.8 | ||
| 2009-06-30T11:15 | 4313 | 608 | 2.4 | -13.6 | ||
| 2009-06-30T11:18 | 5309 | 536 | -7.3 | -12.3 | ||
| 2009-06-30T11:19 | 5662 | 512 | -10.7 | -15.0 | ||
| 2009-06-30T11:20 | 5828 | 501 | -11.7 | -25.7 | ||
| 2009-06-30T11:20 | 5860 | 500 | -11.7 | -26.7 | 340 | 6 |
| 2009-06-30T11:20 | 5906 | 497 | -11.1 | -35.1 | ||
| 2009-06-30T11:21 | 6109 | 484 | -11.1 | -42.1 | ||
| 2009-06-30T11:25 | 7540 | 400 | -22.5 | -50.5 | 310 | 10 |
| 2009-06-30T11:26 | 7632 | 395 | -23.3 | -51.3 | ||
| 2009-06-30T11:27 | 8126 | 369 | -26.1 | -56.1 | ||
| 2009-06-30T11:28 | 8424 | 354 | -28.7 | -59.7 | ||
| 2009-06-30T11:30 | 8795 | 336 | -30.5 | -63.5 | ||
| 2009-06-30T11:32 | 9590 | 300 | -36.3 | -69.3 | 290 | 12 |
| 2009-06-30T11:34 | 10235 | 273 | -41.3 | -71.3 | ||
| 2009-06-30T11:36 | 10830 | 250 | -44.9 | -70.9 | 300 | 23 |
| 2009-06-30T11:36 | 10857 | 249 | -45.1 | -71.1 | ||
| 2009-06-30T11:41 | 12300 | 200 | -51.7 | -71.7 | 290 | 30 |
| 2009-06-30T11:44 | 13191 | 174 | -56.5 | -73.5 | ||
| 2009-06-30T11:47 | 14120 | 150 | -62.7 | -76.7 | 295 | 32 |
| 2009-06-30T11:48 | 14328 | 145 | -64.3 | -78.3 | ||
| 2009-06-30T11:52 | 15738 | 115 | -65.3 | -78.3 | ||
| 2009-06-30T11:54 | 16176 | 107 | -66.1 | -79.1 | ||
| 2009-06-30T11:54 | 16346 | 104 | -67.3 | -80.3 | ||
| 2009-06-30T11:55 | 16463 | 102 | -66.3 | -79.3 | ||
| 2009-06-30T11:55 | 16580 | 100 | -67.1 | -80.1 | 305 | 11 |
